<?xml version='1.0' encoding='UTF-8'?><gpx version="1.1" creator="JPX - https://github.com/jenetics/jpx" xmlns="http://www.topografix.com/GPX/1/1"><trk><trkseg><trkpt lat="51.04300066522156" lon="2.379758796153166"><ele>7.000000000000001</ele><time>2026-03-28T13:15:25.023Z</time></trkpt><trkpt lat="51.04304974542768" lon="2.379852826514541"><ele>7.0</ele><time>2026-03-28T13:15:29.022Z</time></trkpt><trkpt lat="51.043099772578046" lon="2.379973760832317"><ele>7.0</ele><time>2026-03-28T13:15:32.023Z</time></trkpt><trkpt lat="51.04313541719578" lon="2.380068471326081"><ele>7.0</ele><time>2026-03-28T13:15:35.022Z</time></trkpt><trkpt lat="51.04318089691883" lon="2.380156841666433"><ele>7.000000000000001</ele><time>2026-03-28T13:15:38.024Z</time></trkpt><trkpt lat="51.043232827958086" lon="2.380247407219237"><ele>7.0</ele><time>2026-03-28T13:15:40.026Z</time></trkpt><trkpt lat="51.04327407777542" lon="2.3803487652343183"><ele>6.833333333333334</ele><time>2026-03-28T13:15:44.028Z</time></trkpt><trkpt lat="51.043308808504" lon="2.380436915415218"><ele>6.666666666666667</ele><time>2026-03-28T13:15:46.026Z</time></trkpt><trkpt lat="51.04335557235805" lon="2.380550241455729"><ele>6.5</ele><time>2026-03-28T13:15:48.026Z</time></trkpt><trkpt lat="51.04338624756122" lon="2.3806632204992355"><ele>6.333333333333334</ele><time>2026-03-28T13:15:50.024Z</time></trkpt><trkpt lat="51.04340446013438" lon="2.380777158369929"><ele>6.166666666666667</ele><time>2026-03-28T13:15:52.026Z</time></trkpt><trkpt lat="51.04345189712808" lon="2.3808847501941197"><ele>6.0</ele><time>2026-03-28T13:15:55.026Z</time></trkpt><trkpt lat="51.043504962318735" lon="2.3809783840230105"><ele>5.999999999999999</ele><time>2026-03-28T13:15:58.027Z</time></trkpt><trkpt lat="51.04356661520091" lon="2.3810509200512247"><ele>6.0</ele><time>2026-03-28T13:16:00.027Z</time></trkpt><trkpt lat="51.04361369279457" lon="2.3811647306735857"><ele>6.0</ele><time>2026-03-28T13:16:03.026Z</time></trkpt><trkpt lat="51.04366201264097" lon="2.3812437685232464"><ele>6.0</ele><time>2026-03-28T13:16:06.031Z</time></trkpt><trkpt lat="51.043707546143885" lon="2.3813438285620103"><ele>6.0</ele><time>2026-03-28T13:16:09.029Z</time></trkpt><trkpt lat="51.04375778525342" lon="2.3814205987769967"><ele>5.999999999999999</ele><time>2026-03-28T13:16:12.023Z</time></trkpt><trkpt lat="51.04381340288158" lon="2.381480161417943"><ele>6.0</ele><time>2026-03-28T13:16:14.031Z</time></trkpt><trkpt lat="51.043862539007826" lon="2.381543249060684"><ele>5.999999999999999</ele><time>2026-03-28T13:16:16.029Z</time></trkpt><trkpt lat="51.043907584697564" lon="2.381617088463691"><ele>6.0</ele><time>2026-03-28T13:16:18.029Z</time></trkpt><trkpt lat="51.04395297673378" lon="2.381693422616419"><ele>6.0</ele><time>2026-03-28T13:16:20.022Z</time></trkpt><trkpt lat="51.043974046133016" lon="2.381801247847893"><ele>6.0</ele><time>2026-03-28T13:16:22.024Z</time></trkpt><trkpt lat="51.04398382809456" lon="2.381908160306334"><ele>6.0</ele><time>2026-03-28T13:16:24.029Z</time></trkpt><trkpt lat="51.043956707211535" lon="2.3820074308317474"><ele>5.999999999999999</ele><time>2026-03-28T13:16:26.029Z</time></trkpt><trkpt lat="51.043882701939346" lon="2.3820753573332003"><ele>6.0</ele><time>2026-03-28T13:16:28.028Z</time></trkpt><trkpt lat="51.0438127887608" lon="2.382131815941414"><ele>6.142857142857142</ele><time>2026-03-28T13:16:30.03Z</time></trkpt><trkpt lat="51.04375894682929" lon="2.382208831188686"><ele>6.285714285714286</ele><time>2026-03-28T13:16:32.028Z</time></trkpt><trkpt lat="51.043698135470976" lon="2.3822374323175657"><ele>6.428571428571429</ele><time>2026-03-28T13:16:34.029Z</time></trkpt><trkpt lat="51.04363575755093" lon="2.3823010047043067"><ele>6.571428571428571</ele><time>2026-03-28T13:16:36.026Z</time></trkpt><trkpt lat="51.04358340334367" lon="2.3823937064896272"><ele>6.714285714285714</ele><time>2026-03-28T13:16:38.03Z</time></trkpt><trkpt lat="51.04356345085438" lon="2.382520452600741"><ele>6.857142857142857</ele><time>2026-03-28T13:16:40.029Z</time></trkpt><trkpt lat="51.04355082638937" lon="2.3826232829320597"><ele>7.0</ele><time>2026-03-28T13:16:42.028Z</time></trkpt><trkpt lat="51.04351207142596" lon="2.382721472343531"><ele>7.000000000000001</ele><time>2026-03-28T13:16:44.024Z</time></trkpt><trkpt lat="51.043484231612574" lon="2.3828157876522376"><ele>7.0</ele><time>2026-03-28T13:16:46.029Z</time></trkpt><trkpt lat="51.04346129913896" lon="2.3829477821561076"><ele>7.0</ele><time>2026-03-28T13:16:49.026Z</time></trkpt><trkpt lat="51.043461420693006" lon="2.383078087080688"><ele>7.0</ele><time>2026-03-28T13:16:52.025Z</time></trkpt><trkpt lat="51.04353486169662" lon="2.383146028909718"><ele>7.000000000000001</ele><time>2026-03-28T13:16:54.028Z</time></trkpt><trkpt lat="51.043587757081426" lon="2.3832493262225807"><ele>7.0</ele><time>2026-03-28T13:16:57.026Z</time></trkpt><trkpt lat="51.043571582815936" lon="2.3833700811291734"><ele>7.0</ele><time>2026-03-28T13:17:09.028Z</time></trkpt><trkpt lat="51.043585872879795" lon="2.383474684993998"><ele>7.0</ele><time>2026-03-28T13:17:12.027Z</time></trkpt><trkpt lat="51.04366705532362" lon="2.383496554002334"><ele>7.0</ele><time>2026-03-28T13:17:15.027Z</time></trkpt><trkpt lat="51.04373944893703" lon="2.383551696136775"><ele>7.0</ele><time>2026-03-28T13:17:18.028Z</time></trkpt><trkpt lat="51.04380655526218" lon="2.3836113878445953"><ele>7.0</ele><time>2026-03-28T13:17:21.003Z</time></trkpt><trkpt lat="51.04384302866798" lon="2.3837079117358098"><ele>7.0</ele><time>2026-03-28T13:17:24.003Z</time></trkpt><trkpt lat="51.04389855503784" lon="2.3837777445845605"><ele>7.0</ele><time>2026-03-28T13:17:27.002Z</time></trkpt><trkpt lat="51.04395736788381" lon="2.383861424265086"><ele>7.000000000000001</ele><time>2026-03-28T13:17:31.002Z</time></trkpt><trkpt lat="51.04402031967453" lon="2.38394643664375"><ele>7.0</ele><time>2026-03-28T13:17:34.001Z</time></trkpt><trkpt lat="51.04409149845978" lon="2.3840215955181008"><ele>7.0</ele><time>2026-03-28T13:17:37.001Z</time></trkpt><trkpt lat="51.04414459329913" lon="2.3840782217093643"><ele>7.0</ele><time>2026-03-28T13:17:39.001Z</time></trkpt><trkpt lat="51.044203721418626" lon="2.3841289027785972"><ele>7.000000000000001</ele><time>2026-03-28T13:17:42.001Z</time></trkpt><trkpt lat="51.04426347265879" lon="2.3842214205564307"><ele>7.0</ele><time>2026-03-28T13:17:44.001Z</time></trkpt><trkpt lat="51.044317939574185" lon="2.38430099504486"><ele>7.000000000000001</ele><time>2026-03-28T13:17:46Z</time></trkpt><trkpt lat="51.044377679780204" lon="2.3843756964430467"><ele>7.0</ele><time>2026-03-28T13:17:48Z</time></trkpt><trkpt lat="51.04443079994827" lon="2.3844405951616565"><ele>7.0</ele><time>2026-03-28T13:17:50Z</time></trkpt><trkpt lat="51.04450846931167" lon="2.3845349953701396"><ele>7.0</ele><time>2026-03-28T13:17:53Z</time></trkpt><trkpt lat="51.044573083592915" lon="2.3846120869966345"><ele>7.000000000000001</ele><time>2026-03-28T13:17:55Z</time></trkpt><trkpt lat="51.04463787258372" lon="2.384700209655321"><ele>7.0</ele><time>2026-03-28T13:17:58Z</time></trkpt><trkpt lat="51.044689349077466" lon="2.384786383362286"><ele>7.000000000000001</ele><time>2026-03-28T13:18:01Z</time></trkpt><trkpt lat="51.04473761558015" lon="2.3848763863825218"><ele>7.0</ele><time>2026-03-28T13:18:04Z</time></trkpt><trkpt lat="51.04478164686779" lon="2.384958049859923"><ele>7.0</ele><time>2026-03-28T13:18:06Z</time></trkpt><trkpt lat="51.04482384086333" lon="2.38504568382368"><ele>7.0</ele><time>2026-03-28T13:18:08Z</time></trkpt><trkpt lat="51.044879378905584" lon="2.3851403812207126"><ele>7.000000000000001</ele><time>2026-03-28T13:18:11Z</time></trkpt><trkpt lat="51.04493363029339" lon="2.385255393086105"><ele>7.0</ele><time>2026-03-28T13:18:14Z</time></trkpt><trkpt lat="51.04499395843997" lon="2.385374908884334"><ele>6.857142857142857</ele><time>2026-03-28T13:18:17Z</time></trkpt><trkpt lat="51.04503515183327" lon="2.38545740414376"><ele>6.714285714285714</ele><time>2026-03-28T13:18:19Z</time></trkpt><trkpt lat="51.04507908832794" lon="2.3855322097038885"><ele>6.571428571428571</ele><time>2026-03-28T13:18:21Z</time></trkpt><trkpt lat="51.04511201743711" lon="2.385646010896712"><ele>6.428571428571429</ele><time>2026-03-28T13:18:24Z</time></trkpt><trkpt lat="51.04509024579191" lon="2.3857509804255255"><ele>6.285714285714286</ele><time>2026-03-28T13:18:27Z</time></trkpt><trkpt lat="51.04500633154904" lon="2.385820171503036"><ele>6.142857142857142</ele><time>2026-03-28T13:18:30Z</time></trkpt><trkpt lat="51.0449412237109" lon="2.385867304586317"><ele>6.0</ele><time>2026-03-28T13:18:31.999Z</time></trkpt><trkpt lat="51.044863613923866" lon="2.385836047764276"><ele>5.857142857142857</ele><time>2026-03-28T13:18:33.999Z</time></trkpt><trkpt lat="51.04478984297925" lon="2.3858623302920416"><ele>5.714285714285714</ele><time>2026-03-28T13:18:35.999Z</time></trkpt><trkpt lat="51.04471615515338" lon="2.3859441260426015"><ele>5.571428571428571</ele><time>2026-03-28T13:18:55.999Z</time></trkpt><trkpt lat="51.044657361952325" lon="2.385995519982714"><ele>5.428571428571429</ele><time>2026-03-28T13:27:24.999Z</time></trkpt><trkpt lat="51.044691876144185" lon="2.385907965574264"><ele>5.285714285714286</ele><time>2026-03-28T13:33:27.999Z</time></trkpt><trkpt lat="51.04470666396699" lon="2.386007201946214"><ele>5.142857142857142</ele><time>2026-03-28T13:33:59.999Z</time></trkpt><trkpt lat="51.0446767519576" lon="2.386106731524208"><ele>5.0</ele><time>2026-03-28T13:34:06.998Z</time></trkpt><trkpt lat="51.04464713886848" lon="2.386195619732002"><ele>5.0</ele><time>2026-03-28T13:53:28Z</time></trkpt><trkpt lat="51.04456683249484" lon="2.3862205941911028"><ele>5.0</ele><time>2026-03-28T13:53:32Z</time></trkpt><trkpt lat="51.044505137420614" lon="2.3862730643830274"><ele>5.0</ele><time>2026-03-28T13:53:36Z</time></trkpt><trkpt lat="51.044424402631485" lon="2.386292078775334"><ele>5.0</ele><time>2026-03-28T13:53:40Z</time></trkpt><trkpt lat="51.04435858479592" lon="2.386335930194244"><ele>5.0</ele><time>2026-03-28T13:53:45Z</time></trkpt><trkpt lat="51.04433408320154" lon="2.3862300527383016"><ele>5.0</ele><time>2026-03-28T13:54:03.999Z</time></trkpt><trkpt lat="51.044299728588506" lon="2.3861350237732766"><ele>5.0</ele><time>2026-03-28T13:54:09.999Z</time></trkpt><trkpt lat="51.04424570040584" lon="2.386235917603403"><ele>5.0</ele><time>2026-03-28T13:54:19.999Z</time></trkpt><trkpt lat="51.04417905934087" lon="2.386293213153019"><ele>5.0</ele><time>2026-03-28T13:54:22.999Z</time></trkpt><trkpt lat="51.04411501489075" lon="2.3863431072865913"><ele>5.0</ele><time>2026-03-28T13:54:24.999Z</time></trkpt><trkpt lat="51.04404484406515" lon="2.3864008669226293"><ele>5.0</ele><time>2026-03-28T13:54:27.999Z</time></trkpt><trkpt lat="51.043987810076665" lon="2.3864514304191036"><ele>5.0</ele><time>2026-03-28T13:54:30.999Z</time></trkpt><trkpt lat="51.04392125232065" lon="2.3864994679243217"><ele>5.0</ele><time>2026-03-28T13:54:35.999Z</time></trkpt><trkpt lat="51.04384962075962" lon="2.386541902278255"><ele>5.0</ele><time>2026-03-28T13:54:40.999Z</time></trkpt><trkpt lat="51.043787593385574" lon="2.386600744120489"><ele>5.0</ele><time>2026-03-28T13:54:44.999Z</time></trkpt><trkpt lat="51.043713089439706" lon="2.386611003714682"><ele>5.0</ele><time>2026-03-28T13:54:47.999Z</time></trkpt><trkpt lat="51.04363794940064" lon="2.386660916413164"><ele>5.0</ele><time>2026-03-28T13:54:49.999Z</time></trkpt><trkpt lat="51.04356666518612" lon="2.3867053954112074"><ele>5.0</ele><time>2026-03-28T13:54:51.999Z</time></trkpt><trkpt lat="51.04350217517964" lon="2.3867164749928613"><ele>5.0</ele><time>2026-03-28T13:54:53.999Z</time></trkpt><trkpt lat="51.043430482487565" lon="2.3867448003620533"><ele>5.0</ele><time>2026-03-28T13:54:55.999Z</time></trkpt><trkpt lat="51.04336544162381" lon="2.3867657367347492"><ele>5.0</ele><time>2026-03-28T13:54:57.999Z</time></trkpt><trkpt lat="51.04329986498371" lon="2.3867817164081515"><ele>4.857142857142857</ele><time>2026-03-28T13:54:59.998Z</time></trkpt><trkpt lat="51.04321869157153" lon="2.3867893178148667"><ele>4.714285714285714</ele><time>2026-03-28T13:55:02.998Z</time></trkpt><trkpt lat="51.04314484464803" lon="2.3867948576700733"><ele>4.571428571428571</ele><time>2026-03-28T13:55:05.998Z</time></trkpt><trkpt lat="51.04307371460734" lon="2.386825094402992"><ele>4.428571428571429</ele><time>2026-03-28T13:55:09Z</time></trkpt><trkpt lat="51.04300996798509" lon="2.3868517122475796"><ele>4.285714285714286</ele><time>2026-03-28T13:55:12Z</time></trkpt><trkpt lat="51.04295565671915" lon="2.386903951099998"><ele>4.142857142857142</ele><time>2026-03-28T13:55:15Z</time></trkpt><trkpt lat="51.042885795233296" lon="2.386947100327375"><ele>4.0</ele><time>2026-03-28T13:55:19Z</time></trkpt><trkpt lat="51.04280095449708" lon="2.3869620414531365"><ele>3.9999999999999996</ele><time>2026-03-28T13:55:24Z</time></trkpt><trkpt lat="51.042725998563434" lon="2.386982519181364"><ele>4.0</ele><time>2026-03-28T13:55:27Z</time></trkpt><trkpt lat="51.04264758374545" lon="2.3869970031370844"><ele>4.0</ele><time>2026-03-28T13:55:29Z</time></trkpt><trkpt lat="51.042576336096126" lon="2.386976602793878"><ele>4.0</ele><time>2026-03-28T13:55:31Z</time></trkpt><trkpt lat="51.04250894478125" lon="2.3869907204372156"><ele>3.9999999999999996</ele><time>2026-03-28T13:55:33Z</time></trkpt><trkpt lat="51.04242467809944" lon="2.386985129758776"><ele>4.0</ele><time>2026-03-28T13:55:36Z</time></trkpt><trkpt lat="51.04234712029691" lon="2.386985257764224"><ele>3.9999999999999996</ele><time>2026-03-28T13:55:39Z</time></trkpt><trkpt lat="51.04226265684599" lon="2.38698715446879"><ele>4.0</ele><time>2026-03-28T13:55:42Z</time></trkpt><trkpt lat="51.04218383968311" lon="2.386989065514812"><ele>4.0</ele><time>2026-03-28T13:55:44Z</time></trkpt><trkpt lat="51.042120163417216" lon="2.386987569848153"><ele>4.0</ele><time>2026-03-28T13:55:46Z</time></trkpt><trkpt lat="51.042055679749915" lon="2.3870069059552024"><ele>3.9999999999999996</ele><time>2026-03-28T13:55:48Z</time></trkpt><trkpt lat="51.04196725113715" lon="2.3870072043252426"><ele>4.0</ele><time>2026-03-28T13:55:51Z</time></trkpt><trkpt lat="51.0418834653427" lon="2.386977892633872"><ele>3.9999999999999996</ele><time>2026-03-28T13:55:54Z</time></trkpt><trkpt lat="51.04179188088293" lon="2.3869804570237623"><ele>4.0</ele><time>2026-03-28T13:55:57Z</time></trkpt><trkpt lat="51.04172246267279" lon="2.3869955619281154"><ele>4.0</ele><time>2026-03-28T13:55:58.999Z</time></trkpt><trkpt lat="51.04164201554869" lon="2.386991089867733"><ele>4.0</ele><time>2026-03-28T13:56:01.999Z</time></trkpt><trkpt lat="51.04155140923567" lon="2.3869855659878563"><ele>3.9999999999999996</ele><time>2026-03-28T13:56:04.999Z</time></trkpt><trkpt lat="51.041475690667376" lon="2.3869957278454574"><ele>4.0</ele><time>2026-03-28T13:56:07.999Z</time></trkpt><trkpt lat="51.041408812854385" lon="2.3870145080314265"><ele>4.0</ele><time>2026-03-28T13:56:10.999Z</time></trkpt><trkpt lat="51.04134631892328" lon="2.3870296826855766"><ele>3.9999999999999996</ele><time>2026-03-28T13:56:13.999Z</time></trkpt><trkpt lat="51.041265499554186" lon="2.3870282237449176"><ele>4.0</ele><time>2026-03-28T13:56:17.999Z</time></trkpt><trkpt lat="51.041282664232526" lon="2.3871346945295997"><ele>4.0</ele><time>2026-03-28T13:56:22.999Z</time></trkpt><trkpt lat="51.041242360897854" lon="2.387042683743633"><ele>3.9999999999999996</ele><time>2026-03-28T13:58:56.999Z</time></trkpt><trkpt lat="51.04132718119538" lon="2.3870043424933787"><ele>4.0</ele><time>2026-03-28T13:59:00.999Z</time></trkpt><trkpt lat="51.04139722997932" lon="2.387016904090475"><ele>4.0</ele><time>2026-03-28T13:59:02.999Z</time></trkpt><trkpt lat="51.04147023592768" lon="2.387018355753876"><ele>4.0</ele><time>2026-03-28T13:59:04.999Z</time></trkpt><trkpt lat="51.04157442516422" lon="2.3870543199783425"><ele>4.0</ele><time>2026-03-28T13:59:07.999Z</time></trkpt><trkpt lat="51.04166684425145" lon="2.3870508461146622"><ele>4.0</ele><time>2026-03-28T13:59:10.998Z</time></trkpt><trkpt lat="51.04174718100613" lon="2.3870894694897027"><ele>4.0</ele><time>2026-03-28T13:59:12.998Z</time></trkpt><trkpt lat="51.041822028494195" lon="2.387074723737473"><ele>4.0</ele><time>2026-03-28T13:59:14.998Z</time></trkpt><trkpt lat="51.04191801483199" lon="2.387029480109301"><ele>4.0</ele><time>2026-03-28T13:59:20Z</time></trkpt><trkpt lat="51.04199616916331" lon="2.3870299987892545"><ele>4.0</ele><time>2026-03-28T13:59:23Z</time></trkpt><trkpt lat="51.042086375386866" lon="2.387034803301212"><ele>4.0</ele><time>2026-03-28T13:59:25Z</time></trkpt><trkpt lat="51.042194588790124" lon="2.387021037557594"><ele>4.0</ele><time>2026-03-28T13:59:27Z</time></trkpt><trkpt lat="51.042290041894326" lon="2.387004514752611"><ele>4.0</ele><time>2026-03-28T13:59:29Z</time></trkpt><trkpt lat="51.04238017181165" lon="2.387009201130437"><ele>4.0</ele><time>2026-03-28T13:59:31Z</time></trkpt><trkpt lat="51.042564711717674" lon="2.3869893199051537"><ele>4.0</ele><time>2026-03-28T13:59:37Z</time></trkpt><trkpt lat="51.04274818822422" lon="2.38699632077754"><ele>4.0</ele><time>2026-03-28T13:59:41Z</time></trkpt><trkpt lat="51.04281863680888" lon="2.3869674461762616"><ele>4.0</ele><time>2026-03-28T13:59:43Z</time></trkpt><trkpt lat="51.042894601696446" lon="2.386947444129722"><ele>3.9999999999999996</ele><time>2026-03-28T13:59:45Z</time></trkpt><trkpt lat="51.042981773994924" lon="2.386914301033169"><ele>4.0</ele><time>2026-03-28T13:59:48Z</time></trkpt><trkpt lat="51.043072767085285" lon="2.3868786314749557"><ele>4.0</ele><time>2026-03-28T13:59:51Z</time></trkpt><trkpt lat="51.0431513622599" lon="2.3868493057932403"><ele>4.0</ele><time>2026-03-28T13:59:54Z</time></trkpt><trkpt lat="51.04323526798912" lon="2.386818791459279"><ele>3.9999999999999996</ele><time>2026-03-28T13:59:57Z</time></trkpt><trkpt lat="51.043298004264074" lon="2.386783145756781"><ele>4.0</ele><time>2026-03-28T14:00:01Z</time></trkpt><trkpt lat="51.04339234753318" lon="2.3867490224680665"><ele>4.166666666666666</ele><time>2026-03-28T14:00:05Z</time></trkpt><trkpt lat="51.04349528822311" lon="2.3867253281901184"><ele>4.333333333333333</ele><time>2026-03-28T14:00:07Z</time></trkpt><trkpt lat="51.043573585955066" lon="2.386684476187561"><ele>4.5</ele><time>2026-03-28T14:00:08.999Z</time></trkpt><trkpt lat="51.04363851784436" lon="2.386639078197021"><ele>4.666666666666667</ele><time>2026-03-28T14:00:10.999Z</time></trkpt><trkpt lat="51.04371540851693" lon="2.3866135313610535"><ele>4.833333333333334</ele><time>2026-03-28T14:00:13.999Z</time></trkpt><trkpt lat="51.04378620598474" lon="2.386588926244537"><ele>5.0</ele><time>2026-03-28T14:00:15.999Z</time></trkpt><trkpt lat="51.04384978239303" lon="2.3865498794612012"><ele>5.0</ele><time>2026-03-28T14:00:17.999Z</time></trkpt><trkpt lat="51.04392674244125" lon="2.386508029999506"><ele>5.0</ele><time>2026-03-28T14:00:19.999Z</time></trkpt><trkpt lat="51.044008772925736" lon="2.3864558804655123"><ele>5.0</ele><time>2026-03-28T14:00:21.999Z</time></trkpt><trkpt lat="51.0440950780122" lon="2.386402142859952"><ele>5.0</ele><time>2026-03-28T14:00:23.999Z</time></trkpt><trkpt lat="51.044172827073254" lon="2.386342509853532"><ele>5.0</ele><time>2026-03-28T14:00:25.999Z</time></trkpt><trkpt lat="51.044230398291376" lon="2.3862809167326833"><ele>5.0</ele><time>2026-03-28T14:00:27.999Z</time></trkpt><trkpt lat="51.04428697298047" lon="2.386235997041297"><ele>5.0</ele><time>2026-03-28T14:00:29.999Z</time></trkpt><trkpt lat="51.044370177143065" lon="2.386172580913129"><ele>5.0</ele><time>2026-03-28T14:00:32.999Z</time></trkpt><trkpt lat="51.04444985161396" lon="2.386124210480679"><ele>5.0</ele><time>2026-03-28T14:00:35.999Z</time></trkpt><trkpt lat="51.04453857840275" lon="2.3861030623877757"><ele>5.0</ele><time>2026-03-28T14:00:38.999Z</time></trkpt><trkpt lat="51.04460643614444" lon="2.3860741931778136"><ele>5.0</ele><time>2026-03-28T14:00:40.999Z</time></trkpt><trkpt lat="51.04467347695517" lon="2.386038858625256"><ele>5.0</ele><time>2026-03-28T14:00:42.999Z</time></trkpt><trkpt lat="51.044739240582125" lon="2.3860248668539565"><ele>5.0</ele><time>2026-03-28T14:00:44.999Z</time></trkpt><trkpt lat="51.04480846142361" lon="2.3859979453735796"><ele>5.0</ele><time>2026-03-28T14:00:46.999Z</time></trkpt><trkpt lat="51.04487114904058" lon="2.3860459661384184"><ele>5.0</ele><time>2026-03-28T14:00:49.999Z</time></trkpt><trkpt lat="51.04495512444325" lon="2.386049856577775"><ele>5.0</ele><time>2026-03-28T14:01:06.999Z</time></trkpt><trkpt lat="51.04500136024721" lon="2.385934983241784"><ele>5.0</ele><time>2026-03-28T14:01:09.999Z</time></trkpt><trkpt lat="51.045032121639196" lon="2.385840910622095"><ele>5.0</ele><time>2026-03-28T14:01:11.999Z</time></trkpt><trkpt lat="51.045091980885466" lon="2.3857876999430516"><ele>5.0</ele><time>2026-03-28T14:01:14.999Z</time></trkpt><trkpt lat="51.04514346654165" lon="2.3856980530753504"><ele>5.166666666666667</ele><time>2026-03-28T14:01:17.999Z</time></trkpt><trkpt lat="51.04519319688138" lon="2.3856361094569785"><ele>5.333333333333334</ele><time>2026-03-28T14:01:27Z</time></trkpt><trkpt lat="51.04522493349077" lon="2.385523938623615"><ele>5.5</ele><time>2026-03-28T14:01:30Z</time></trkpt><trkpt lat="51.04518228762177" lon="2.3854432987785543"><ele>5.666666666666667</ele><time>2026-03-28T14:01:32Z</time></trkpt><trkpt lat="51.0451126160748" lon="2.3853404358273944"><ele>5.833333333333333</ele><time>2026-03-28T14:01:35Z</time></trkpt><trkpt lat="51.045053859986616" lon="2.3852319766173173"><ele>6.0</ele><time>2026-03-28T14:01:38Z</time></trkpt><trkpt lat="51.04500684615597" lon="2.3851428755037167"><ele>6.142857142857142</ele><time>2026-03-28T14:01:40Z</time></trkpt><trkpt lat="51.04496432321097" lon="2.385062869308467"><ele>6.285714285714286</ele><time>2026-03-28T14:01:42Z</time></trkpt><trkpt lat="51.044913200550106" lon="2.384961334836041"><ele>6.428571428571429</ele><time>2026-03-28T14:01:44Z</time></trkpt><trkpt lat="51.04486921771468" lon="2.384874161771619"><ele>6.571428571428571</ele><time>2026-03-28T14:01:46Z</time></trkpt><trkpt lat="51.04481461662709" lon="2.3847788761547877"><ele>6.714285714285714</ele><time>2026-03-28T14:01:48Z</time></trkpt><trkpt lat="51.0447709529218" lon="2.3846799339094114"><ele>6.857142857142857</ele><time>2026-03-28T14:01:50Z</time></trkpt><trkpt lat="51.04473309338316" lon="2.384579895856774"><ele>7.0</ele><time>2026-03-28T14:01:52Z</time></trkpt><trkpt lat="51.04468261503198" lon="2.384478250491"><ele>7.000000000000001</ele><time>2026-03-28T14:01:55Z</time></trkpt><trkpt lat="51.04463143868871" lon="2.3843961656665824"><ele>7.0</ele><time>2026-03-28T14:01:57Z</time></trkpt><trkpt lat="51.044563866702404" lon="2.3843101467657184"><ele>7.0</ele><time>2026-03-28T14:01:59Z</time></trkpt><trkpt lat="51.04449995759346" lon="2.3842314231053994"><ele>7.0</ele><time>2026-03-28T14:02:01Z</time></trkpt><trkpt lat="51.04443025629929" lon="2.384134872523062"><ele>7.000000000000001</ele><time>2026-03-28T14:02:03Z</time></trkpt><trkpt lat="51.04436847714568" lon="2.3840461741763272"><ele>7.0</ele><time>2026-03-28T14:02:05Z</time></trkpt><trkpt lat="51.04431231408686" lon="2.383970666546277"><ele>7.000000000000001</ele><time>2026-03-28T14:02:07Z</time></trkpt><trkpt lat="51.044258083550396" lon="2.38391945979362"><ele>7.0</ele><time>2026-03-28T14:02:10Z</time></trkpt><trkpt lat="51.04417301623309" lon="2.383822820305923"><ele>7.0</ele><time>2026-03-28T14:02:12Z</time></trkpt><trkpt lat="51.044098415280274" lon="2.383748180369828"><ele>7.0</ele><time>2026-03-28T14:02:14Z</time></trkpt><trkpt lat="51.04402894142402" lon="2.383683582653611"><ele>7.000000000000001</ele><time>2026-03-28T14:02:16Z</time></trkpt><trkpt lat="51.04395326071708" lon="2.383595025260705"><ele>7.0</ele><time>2026-03-28T14:02:18Z</time></trkpt><trkpt lat="51.04387738635815" lon="2.383538201891578"><ele>7.000000000000001</ele><time>2026-03-28T14:02:19.999Z</time></trkpt><trkpt lat="51.043796588877235" lon="2.3834687772638548"><ele>7.0</ele><time>2026-03-28T14:02:21.999Z</time></trkpt><trkpt lat="51.04371981876857" lon="2.3833863242962954"><ele>7.0</ele><time>2026-03-28T14:02:23.999Z</time></trkpt><trkpt lat="51.043642129284244" lon="2.3833248678894745"><ele>7.0</ele><time>2026-03-28T14:02:25.999Z</time></trkpt><trkpt lat="51.04358076780024" lon="2.383247468191217"><ele>7.000000000000001</ele><time>2026-03-28T14:02:27.999Z</time></trkpt><trkpt lat="51.0435224473251" lon="2.3831816750891814"><ele>7.0</ele><time>2026-03-28T14:02:29.999Z</time></trkpt><trkpt lat="51.04344402344484" lon="2.3831019365571025"><ele>7.000000000000001</ele><time>2026-03-28T14:02:32.999Z</time></trkpt><trkpt lat="51.043462537941274" lon="2.382941120983047"><ele>7.0</ele><time>2026-03-28T14:02:35.999Z</time></trkpt><trkpt lat="51.04350315658883" lon="2.3827932334477526"><ele>7.0</ele><time>2026-03-28T14:02:37.999Z</time></trkpt><trkpt lat="51.04354256393232" lon="2.3826801206356865"><ele>7.0</ele><time>2026-03-28T14:02:39.999Z</time></trkpt><trkpt lat="51.043570404093" lon="2.3825798160914284"><ele>7.000000000000001</ele><time>2026-03-28T14:02:41.999Z</time></trkpt><trkpt lat="51.04358825752722" lon="2.3824580388061927"><ele>7.0</ele><time>2026-03-28T14:02:44.999Z</time></trkpt><trkpt lat="51.04363197419278" lon="2.3823434839422757"><ele>7.000000000000001</ele><time>2026-03-28T14:02:47.999Z</time></trkpt><trkpt lat="51.043708513263354" lon="2.3822602272490796"><ele>7.0</ele><time>2026-03-28T14:02:49.999Z</time></trkpt><trkpt lat="51.043774132763765" lon="2.3821998121980545"><ele>7.0</ele><time>2026-03-28T14:02:51.999Z</time></trkpt><trkpt lat="51.043830983345124" lon="2.3821512892855226"><ele>7.0</ele><time>2026-03-28T14:02:53.999Z</time></trkpt><trkpt lat="51.0438904516708" lon="2.382103572379057"><ele>7.000000000000001</ele><time>2026-03-28T14:02:55.999Z</time></trkpt><trkpt lat="51.04395975101446" lon="2.382031708590479"><ele>7.0</ele><time>2026-03-28T14:02:58.999Z</time></trkpt><trkpt lat="51.04401427134227" lon="2.38190933813759"><ele>6.833333333333334</ele><time>2026-03-28T14:03:01.999Z</time></trkpt><trkpt lat="51.044006942013475" lon="2.3817620066909275"><ele>6.666666666666667</ele><time>2026-03-28T14:03:04.999Z</time></trkpt><trkpt lat="51.043956883306535" lon="2.381641037608536"><ele>6.5</ele><time>2026-03-28T14:03:07.999Z</time></trkpt><trkpt lat="51.043916418134636" lon="2.381549620570492"><ele>6.333333333333334</ele><time>2026-03-28T14:03:09.999Z</time></trkpt><trkpt lat="51.043872478651586" lon="2.381462901122286"><ele>6.166666666666667</ele><time>2026-03-28T14:03:11.999Z</time></trkpt><trkpt lat="51.04382441415427" lon="2.3813548308040033"><ele>6.0</ele><time>2026-03-28T14:03:13.999Z</time></trkpt><trkpt lat="51.043773884870774" lon="2.381237334801272"><ele>6.0</ele><time>2026-03-28T14:03:15.999Z</time></trkpt><trkpt lat="51.043730760463745" lon="2.381138361117781"><ele>6.0</ele><time>2026-03-28T14:03:18.999Z</time></trkpt><trkpt lat="51.04367229044962" lon="2.381022341206174"><ele>6.0</ele><time>2026-03-28T14:03:21.999Z</time></trkpt><trkpt lat="51.043633705868345" lon="2.380942998612513"><ele>6.0</ele><time>2026-03-28T14:03:23.999Z</time></trkpt><trkpt lat="51.043581238581105" lon="2.3808253514098943"><ele>6.0</ele><time>2026-03-28T14:03:25.999Z</time></trkpt><trkpt lat="51.04353686841163" lon="2.380723555148881"><ele>6.0</ele><time>2026-03-28T14:03:27.999Z</time></trkpt><trkpt lat="51.043489371772765" lon="2.380616962778413"><ele>5.833333333333333</ele><time>2026-03-28T14:03:29.998Z</time></trkpt><trkpt lat="51.04343317385203" lon="2.3805046169617188"><ele>5.666666666666667</ele><time>2026-03-28T14:03:33Z</time></trkpt><trkpt lat="51.04338567680669" lon="2.38042764621148"><ele>5.5</ele><time>2026-03-28T14:03:35Z</time></trkpt><trkpt lat="51.043330645186536" lon="2.380301558177442"><ele>5.333333333333334</ele><time>2026-03-28T14:03:38Z</time></trkpt><trkpt lat="51.04326636306629" lon="2.3802114706319757"><ele>5.166666666666667</ele><time>2026-03-28T14:03:41Z</time></trkpt><trkpt lat="51.043219247553864" lon="2.3801018661570685"><ele>5.0</ele><time>2026-03-28T14:03:44Z</time></trkpt><trkpt lat="51.04317560904601" lon="2.379976327998808"><ele>5.333333333333334</ele><time>2026-03-28T14:03:46Z</time></trkpt><trkpt lat="51.04311521791161" lon="2.3798863919563464"><ele>5.666666666666667</ele><time>2026-03-28T14:03:48Z</time></trkpt><trkpt lat="51.0430463042816" lon="2.3797986202553822"><ele>6.0</ele><time>2026-03-28T14:03:50Z</time></trkpt><trkpt lat="51.04297404662129" lon="2.379724288083805"><ele>6.333333333333334</ele><time>2026-03-28T14:03:53Z</time></trkpt><trkpt lat="51.042919760467754" lon="2.3796348698205385"><ele>6.666666666666667</ele><time>2026-03-28T14:03:56Z</time></trkpt><trkpt lat="51.04287964624335" lon="2.379502448902689"><ele>7.0</ele><time>2026-03-28T14:03:59Z</time></trkpt><trkpt lat="51.04287105502483" lon="2.379386339141479"><ele>7.166666666666667</ele><time>2026-03-28T14:04:01Z</time></trkpt><trkpt lat="51.04282513024181" lon="2.3793018614272397"><ele>7.333333333333334</ele><time>2026-03-28T14:04:03Z</time></trkpt><trkpt lat="51.042787839669906" lon="2.3792154606966367"><ele>7.5</ele><time>2026-03-28T14:04:05Z</time></trkpt><trkpt lat="51.04273203210386" lon="2.3790997222590122"><ele>7.666666666666666</ele><time>2026-03-28T14:04:08Z</time></trkpt><trkpt lat="51.04269308039617" lon="2.3790056695893638"><ele>7.833333333333333</ele><time>2026-03-28T14:04:10Z</time></trkpt><trkpt lat="51.04265176873039" lon="2.378905877929255"><ele>8.0</ele><time>2026-03-28T14:04:12Z</time></trkpt><trkpt lat="51.04259725467637" lon="2.378784488321434"><ele>7.666666666666666</ele><time>2026-03-28T14:04:14Z</time></trkpt><trkpt lat="51.04253808637144" lon="2.3786701954788243"><ele>7.333333333333333</ele><time>2026-03-28T14:04:16Z</time></trkpt><trkpt lat="51.04247048725057" lon="2.3785616259607183"><ele>7.0</ele><time>2026-03-28T14:04:18Z</time></trkpt><trkpt lat="51.04237861118891" lon="2.3785682956963803"><ele>6.666666666666666</ele><time>2026-03-28T14:04:20Z</time></trkpt><trkpt lat="51.04230076216566" lon="2.378562503926753"><ele>6.333333333333333</ele><time>2026-03-28T14:04:22Z</time></trkpt><trkpt lat="51.04221487831868" lon="2.3785996323096468"><ele>6.0</ele><time>2026-03-28T14:04:24.999Z</time></trkpt><trkpt lat="51.042146968195276" lon="2.3786149898437716"><ele>5.75</ele><time>2026-03-28T14:04:27.999Z</time></trkpt><trkpt lat="51.0420958106999" lon="2.378521449198827"><ele>5.5</ele><time>2026-03-28T14:04:31.999Z</time></trkpt><trkpt lat="51.04214809247839" lon="2.3784025450976607"><ele>5.25</ele><time>2026-03-28T14:04:42.999Z</time></trkpt><trkpt lat="51.04218400356578" lon="2.378239661568292"><ele>5.0</ele><time>2026-03-28T14:04:50.999Z</time></trkpt><trkpt lat="51.042218083302394" lon="2.3785181010088112"><ele>5.0</ele><time>2026-03-28T14:05:06.999Z</time></trkpt><trkpt lat="51.04206702865115" lon="2.3784993007317374"><ele>5.0</ele><time>2026-03-28T14:06:56.997Z</time></trkpt><trkpt lat="51.041941064798976" lon="2.3785303978412378"><ele>5.0</ele><time>2026-03-28T14:06:59.997Z</time></trkpt><trkpt lat="51.042007873251485" lon="2.378558430835567"><ele>5.0</ele><time>2026-03-28T14:07:03.997Z</time></trkpt><trkpt lat="51.04204366711862" lon="2.378306232403573"><ele>5.0</ele><time>2026-03-28T14:07:09Z</time></trkpt><trkpt lat="51.04209416071219" lon="2.3781992256280375"><ele>5.0</ele><time>2026-03-28T14:07:17Z</time></trkpt><trkpt lat="51.04206086151362" lon="2.378291184216567"><ele>5.0</ele><time>2026-03-28T14:08:12.999Z</time></trkpt><trkpt lat="51.04207168735923" lon="2.378403184500238"><ele>5.0</ele><time>2026-03-28T14:08:16.999Z</time></trkpt><trkpt lat="51.042134460417344" lon="2.3784643624956523"><ele>5.0</ele><time>2026-03-28T14:09:20Z</time></trkpt><trkpt lat="51.042179551458254" lon="2.378538533235574"><ele>5.0</ele><time>2026-03-28T14:09:22Z</time></trkpt><trkpt lat="51.042242904025336" lon="2.3785347635980654"><ele>5.0</ele><time>2026-03-28T14:09:26Z</time></trkpt><trkpt lat="51.04229060178938" lon="2.378442462924111"><ele>5.0</ele><time>2026-03-28T14:09:28Z</time></trkpt><trkpt lat="51.042288234732496" lon="2.3783307169753116"><ele>5.0</ele><time>2026-03-28T14:09:33Z</time></trkpt><trkpt lat="51.04223692212602" lon="2.378262172425592"><ele>5.0</ele><time>2026-03-28T14:09:37Z</time></trkpt><trkpt lat="51.042175293286455" lon="2.3782038369277627"><ele>5.0</ele><time>2026-03-28T14:09:40Z</time></trkpt><trkpt lat="51.04210126461343" lon="2.3782166865898775"><ele>5.0</ele><time>2026-03-28T14:09:43Z</time></trkpt><trkpt lat="51.04202424188858" lon="2.37826059831315"><ele>5.0</ele><time>2026-03-28T14:09:46Z</time></trkpt><trkpt lat="51.04194101630381" lon="2.378291913396972"><ele>5.0</ele><time>2026-03-28T14:09:49Z</time></trkpt><trkpt lat="51.041898883412095" lon="2.3783869504067034"><ele>5.0</ele><time>2026-03-28T14:09:52Z</time></trkpt><trkpt lat="51.041919990005454" lon="2.3785006795215295"><ele>5.0</ele><time>2026-03-28T14:09:55Z</time></trkpt><trkpt lat="51.04192678647364" lon="2.3786271178215737"><ele>5.0</ele><time>2026-03-28T14:09:59Z</time></trkpt><trkpt lat="51.041893427020064" lon="2.378756521849109"><ele>5.0</ele><time>2026-03-28T14:10:02Z</time></trkpt><trkpt lat="51.04185701701078" lon="2.3788545026286014"><ele>5.0</ele><time>2026-03-28T14:10:04.999Z</time></trkpt><trkpt lat="51.04189376643859" lon="2.3789369987619353"><ele>5.0</ele><time>2026-03-28T14:10:15.999Z</time></trkpt><trkpt lat="51.04191966267342" lon="2.378797959986599"><ele>5.0</ele><time>2026-03-28T14:11:22Z</time></trkpt><trkpt lat="51.04196908451711" lon="2.378733420752678"><ele>5.0</ele><time>2026-03-28T14:11:24Z</time></trkpt><trkpt lat="51.041966004196865" lon="2.3786308457321677"><ele>5.0</ele><time>2026-03-28T14:11:27Z</time></trkpt><trkpt lat="51.04195410668849" lon="2.3785193258629493"><ele>5.0</ele><time>2026-03-28T14:11:29Z</time></trkpt><trkpt lat="51.04194275810451" lon="2.3783740344679565"><ele>5.0</ele><time>2026-03-28T14:11:32Z</time></trkpt><trkpt lat="51.04202568383032" lon="2.3782890371211582"><ele>5.0</ele><time>2026-03-28T14:11:37Z</time></trkpt><trkpt lat="51.042094540214656" lon="2.378276564108823"><ele>5.0</ele><time>2026-03-28T14:11:39Z</time></trkpt><trkpt lat="51.042163354858445" lon="2.3782309153235106"><ele>5.0</ele><time>2026-03-28T14:11:42Z</time></trkpt><trkpt lat="51.04221663326113" lon="2.3783024285696004"><ele>5.0</ele><time>2026-03-28T14:11:45Z</time></trkpt><trkpt lat="51.04226630187399" lon="2.378378579736585"><ele>5.0</ele><time>2026-03-28T14:11:48Z</time></trkpt><trkpt lat="51.042313332765" lon="2.3784925173913005"><ele>5.0</ele><time>2026-03-28T14:11:51Z</time></trkpt><trkpt lat="51.042358391932424" lon="2.3785942501825317"><ele>5.0</ele><time>2026-03-28T14:11:54Z</time></trkpt><trkpt lat="51.04241278475727" lon="2.3787111874437197"><ele>5.166666666666667</ele><time>2026-03-28T14:11:57Z</time></trkpt><trkpt lat="51.04246900827633" lon="2.3787976889309195"><ele>5.333333333333334</ele><time>2026-03-28T14:12:00Z</time></trkpt><trkpt lat="51.04252675224634" lon="2.3789109056122446"><ele>5.5</ele><time>2026-03-28T14:12:03Z</time></trkpt><trkpt lat="51.04258962967021" lon="2.3790047506416503"><ele>5.666666666666667</ele><time>2026-03-28T14:12:05Z</time></trkpt><trkpt lat="51.0426561693457" lon="2.37909676453073"><ele>5.833333333333333</ele><time>2026-03-28T14:12:07Z</time></trkpt><trkpt lat="51.042698027774215" lon="2.3792168708325234"><ele>6.0</ele><time>2026-03-28T14:12:09.999Z</time></trkpt><trkpt lat="51.042754140057774" lon="2.3793075254341614"><ele>6.166666666666667</ele><time>2026-03-28T14:12:12.999Z</time></trkpt><trkpt lat="51.04280881265167" lon="2.37941562549936"><ele>6.333333333333334</ele><time>2026-03-28T14:12:15.999Z</time></trkpt><trkpt lat="51.04286736982823" lon="2.3794847182094827"><ele>6.5</ele><time>2026-03-28T14:12:17.999Z</time></trkpt><trkpt lat="51.04291501906653" lon="2.379558799483497"><ele>6.666666666666667</ele><time>2026-03-28T14:12:20.999Z</time></trkpt><trkpt lat="51.042939919031255" lon="2.37965403304479"><ele>6.833333333333334</ele><time>2026-03-28T14:12:23.999Z</time></trkpt><trkpt lat="51.04296931675178" lon="2.3797534109134433"><ele>7.0</ele><time>2026-03-28T14:12:25.999Z</time></trkpt><trkpt lat="51.04301020629075" lon="2.3798814630462655"><ele>7.000000000000001</ele><time>2026-03-28T14:12:28.999Z</time></trkpt><trkpt lat="51.04304880007588" lon="2.3800032565155087"><ele>7.0</ele><time>2026-03-28T14:12:31.999Z</time></trkpt><trkpt lat="51.04311077825846" lon="2.380077267794883"><ele>7.0</ele><time>2026-03-28T14:12:34.999Z</time></trkpt><trkpt lat="51.04316162973286" lon="2.3801596863007255"><ele>7.0</ele><time>2026-03-28T14:12:37.999Z</time></trkpt><trkpt lat="51.043208503254185" lon="2.3802636554198084"><ele>7.000000000000001</ele><time>2026-03-28T14:12:39.999Z</time></trkpt><trkpt lat="51.04326146846866" lon="2.380393764914048"><ele>7.0</ele><time>2026-03-28T14:12:41.999Z</time></trkpt><trkpt lat="51.0433057186575" lon="2.380502544009794"><ele>6.833333333333334</ele><time>2026-03-28T14:12:43.999Z</time></trkpt><trkpt lat="51.04334738698609" lon="2.3805862655138306"><ele>6.666666666666667</ele><time>2026-03-28T14:12:45.999Z</time></trkpt><trkpt lat="51.04339070589826" lon="2.380698669318092"><ele>6.5</ele><time>2026-03-28T14:12:48.999Z</time></trkpt><trkpt lat="51.04343026167563" lon="2.380818306501885"><ele>6.333333333333334</ele><time>2026-03-28T14:12:51.999Z</time></trkpt><trkpt lat="51.043481423823714" lon="2.3809187563508165"><ele>6.166666666666667</ele><time>2026-03-28T14:12:54.999Z</time></trkpt><trkpt lat="51.04353146600235" lon="2.381035373154189"><ele>6.0</ele><time>2026-03-28T14:12:57.999Z</time></trkpt><trkpt lat="51.043590904385965" lon="2.3811282816682318"><ele>6.0</ele><time>2026-03-28T14:13:00.999Z</time></trkpt><trkpt lat="51.043636508136395" lon="2.381221678459105"><ele>6.0</ele><time>2026-03-28T14:13:02.999Z</time></trkpt><trkpt lat="51.04368825844808" lon="2.3813226786078032"><ele>6.0</ele><time>2026-03-28T14:13:05.999Z</time></trkpt><trkpt lat="51.04374296896756" lon="2.3813961043085334"><ele>6.0</ele><time>2026-03-28T14:13:08.999Z</time></trkpt><trkpt lat="51.04380028864075" lon="2.381473074806841"><ele>6.0</ele><time>2026-03-28T14:13:14.999Z</time></trkpt><trkpt lat="51.04385346749454" lon="2.3815490051195054"><ele>6.0</ele><time>2026-03-28T14:13:17.999Z</time></trkpt><trkpt lat="51.043905807836516" lon="2.381650548812858"><ele>6.0</ele><time>2026-03-28T14:13:20.998Z</time></trkpt><trkpt lat="51.043959500546705" lon="2.3817517781279935"><ele>6.0</ele><time>2026-03-28T14:13:23.998Z</time></trkpt><trkpt lat="51.04399825039319" lon="2.381860789109125"><ele>6.0</ele><time>2026-03-28T14:13:27Z</time></trkpt><trkpt lat="51.04395219703571" lon="2.3819557528935755"><ele>6.0</ele><time>2026-03-28T14:13:31Z</time></trkpt><trkpt lat="51.04389513230792" lon="2.382038313605884"><ele>6.0</ele><time>2026-03-28T14:13:34Z</time></trkpt><trkpt lat="51.0438190035874" lon="2.3821177014478794"><ele>6.0</ele><time>2026-03-28T14:13:37Z</time></trkpt><trkpt lat="51.04390437713163" lon="2.382081745816397"><ele>6.0</ele><time>2026-03-28T14:14:33.999Z</time></trkpt><trkpt lat="51.043952671500925" lon="2.382004227818676"><ele>6.0</ele><time>2026-03-28T14:14:36.999Z</time></trkpt><trkpt lat="51.04394667906707" lon="2.382109890056771"><ele>6.0</ele><time>2026-03-28T14:14:39.999Z</time></trkpt><trkpt lat="51.043878713034374" lon="2.382120669959759"><ele>6.0</ele><time>2026-03-28T14:14:41.999Z</time></trkpt><trkpt lat="51.04380467574422" lon="2.382179579311876"><ele>6.0</ele><time>2026-03-28T14:14:44.999Z</time></trkpt><trkpt lat="51.04372889350713" lon="2.3822579195180267"><ele>6.0</ele><time>2026-03-28T14:14:47.999Z</time></trkpt><trkpt lat="51.04365673864398" lon="2.382303435313036"><ele>6.142857142857142</ele><time>2026-03-28T14:14:50.999Z</time></trkpt><trkpt lat="51.04360987421497" lon="2.382386163156152"><ele>6.285714285714286</ele><time>2026-03-28T14:14:54.999Z</time></trkpt><trkpt lat="51.04365512951817" lon="2.3823006206710398"><ele>6.428571428571429</ele><time>2026-03-28T14:15:02.999Z</time></trkpt><trkpt lat="51.043711542991055" lon="2.3823505056510714"><ele>6.571428571428571</ele><time>2026-03-28T14:15:05.999Z</time></trkpt><trkpt lat="51.04374083316559" lon="2.3824596240812776"><ele>6.714285714285714</ele><time>2026-03-28T14:15:08.999Z</time></trkpt><trkpt lat="51.04374340966722" lon="2.38258806321733"><ele>6.857142857142857</ele><time>2026-03-28T14:15:12.999Z</time></trkpt><trkpt lat="51.04370497044447" lon="2.382675895495207"><ele>7.0</ele><time>2026-03-28T14:15:14.999Z</time></trkpt><trkpt lat="51.043660587369544" lon="2.38278078156126"><ele>7.0</ele><time>2026-03-28T14:15:17.999Z</time></trkpt><trkpt lat="51.043621749648" lon="2.3828829316957734"><ele>7.0</ele><time>2026-03-28T14:15:20.999Z</time></trkpt><trkpt lat="51.043611546470196" lon="2.3829864739200977"><ele>7.0</ele><time>2026-03-28T14:15:23.999Z</time></trkpt><trkpt lat="51.04357772857764" lon="2.383105846392164"><ele>7.0</ele><time>2026-03-28T14:15:27.998Z</time></trkpt><trkpt lat="51.04360471023747" lon="2.3832003424165995"><ele>7.0</ele><time>2026-03-28T14:15:30.998Z</time></trkpt><trkpt lat="51.04363945357554" lon="2.3833317025736314"><ele>7.0</ele><time>2026-03-28T14:15:34Z</time></trkpt><trkpt lat="51.04369738348128" lon="2.383371450022155"><ele>7.0</ele><time>2026-03-28T14:15:36Z</time></trkpt><trkpt lat="51.04378102690672" lon="2.3834446753415457"><ele>7.0</ele><time>2026-03-28T14:15:39Z</time></trkpt><trkpt lat="51.04383686151853" lon="2.3835182128342245"><ele>7.0</ele><time>2026-03-28T14:15:41Z</time></trkpt><trkpt lat="51.04391891500862" lon="2.383509827861816"><ele>7.0</ele><time>2026-03-28T14:15:43Z</time></trkpt><trkpt lat="51.04399373376273" lon="2.3835015822481225"><ele>7.0</ele><time>2026-03-28T14:15:45Z</time></trkpt><trkpt lat="51.04406363147194" lon="2.383485607437546"><ele>7.0</ele><time>2026-03-28T14:15:47Z</time></trkpt><trkpt lat="51.044120394023174" lon="2.3834098416911296"><ele>7.0</ele><time>2026-03-28T14:15:49Z</time></trkpt><trkpt lat="51.044163448109515" lon="2.383326034202626"><ele>7.0</ele><time>2026-03-28T14:15:51Z</time></trkpt><trkpt lat="51.04423802963453" lon="2.3833063082408406"><ele>6.8</ele><time>2026-03-28T14:15:55Z</time></trkpt><trkpt lat="51.044301549226844" lon="2.383352606529849"><ele>6.6</ele><time>2026-03-28T14:15:58Z</time></trkpt><trkpt lat="51.04435032117992" lon="2.3832586072276745"><ele>6.3999999999999995</ele><time>2026-03-28T14:16:00Z</time></trkpt><trkpt lat="51.044419793387064" lon="2.3831521359020473"><ele>6.199999999999999</ele><time>2026-03-28T14:16:02Z</time></trkpt><trkpt lat="51.04458565544845" lon="2.383042142951814"><ele>6.0</ele><time>2026-03-28T14:16:09Z</time></trkpt><trkpt lat="51.0446565110954" lon="2.3830776603525803"><ele>5.999999999999999</ele><time>2026-03-28T14:16:11Z</time></trkpt><trkpt lat="51.04471961809347" lon="2.3831398385967613"><ele>6.0</ele><time>2026-03-28T14:16:13Z</time></trkpt><trkpt lat="51.04478864952635" lon="2.38317463287996"><ele>6.0</ele><time>2026-03-28T14:16:15Z</time></trkpt><trkpt lat="51.044806482416114" lon="2.383308886359582"><ele>6.0</ele><time>2026-03-28T14:16:18Z</time></trkpt><trkpt lat="51.04479418327097" lon="2.383418745380026"><ele>6.0</ele><time>2026-03-28T14:16:20Z</time></trkpt><trkpt lat="51.044812045811426" lon="2.383520752838146"><ele>5.999999999999999</ele><time>2026-03-28T14:16:21.999Z</time></trkpt><trkpt lat="51.04485396480495" lon="2.3835959317210134"><ele>6.0</ele><time>2026-03-28T14:16:23.999Z</time></trkpt><trkpt lat="51.044919597631534" lon="2.3836994250693864"><ele>5.833333333333333</ele><time>2026-03-28T14:16:26.999Z</time></trkpt><trkpt lat="51.04499403929515" lon="2.3837795042563776"><ele>5.666666666666667</ele><time>2026-03-28T14:16:29.999Z</time></trkpt><trkpt lat="51.04498830904546" lon="2.383887596090679"><ele>5.5</ele><time>2026-03-28T14:16:32.999Z</time></trkpt><trkpt lat="51.04498267017026" lon="2.3840144798010026"><ele>5.333333333333334</ele><time>2026-03-28T14:16:36.999Z</time></trkpt><trkpt lat="51.04500844887413" lon="2.3841526617624536"><ele>5.166666666666667</ele><time>2026-03-28T14:16:40.999Z</time></trkpt><trkpt lat="51.044990079683906" lon="2.384260837691551"><ele>5.0</ele><time>2026-03-28T14:16:44.999Z</time></trkpt><trkpt lat="51.04502369012315" lon="2.384163139828216"><ele>5.0</ele><time>2026-03-28T14:16:50.999Z</time></trkpt><trkpt lat="51.04501551376638" lon="2.3840388110279394"><ele>5.0</ele><time>2026-03-28T14:16:53.999Z</time></trkpt><trkpt lat="51.04500887176078" lon="2.3839305057463975"><ele>5.0</ele><time>2026-03-28T14:16:56.999Z</time></trkpt><trkpt lat="51.04503279863536" lon="2.3838163496798184"><ele>5.0</ele><time>2026-03-28T14:16:59.999Z</time></trkpt><trkpt lat="51.045015733464645" lon="2.3837148398782033"><ele>5.0</ele><time>2026-03-28T14:17:02.999Z</time></trkpt><trkpt lat="51.04500677542394" lon="2.383820703099933"><ele>5.0</ele><time>2026-03-28T14:17:58Z</time></trkpt><trkpt lat="51.04499615597275" lon="2.383935742563296"><ele>5.0</ele><time>2026-03-28T14:18:02Z</time></trkpt><trkpt lat="51.04500650855336" lon="2.3840679679869834"><ele>5.0</ele><time>2026-03-28T14:18:05Z</time></trkpt><trkpt lat="51.0449890862585" lon="2.3842037254362958"><ele>5.0</ele><time>2026-03-28T14:18:08Z</time></trkpt><trkpt lat="51.045011713742994" lon="2.38430109054915"><ele>5.0</ele><time>2026-03-28T14:18:11Z</time></trkpt><trkpt lat="51.045027944635834" lon="2.3841799428223527"><ele>5.0</ele><time>2026-03-28T14:18:15Z</time></trkpt><trkpt lat="51.04502145056025" lon="2.38408023091707"><ele>5.0</ele><time>2026-03-28T14:18:17Z</time></trkpt><trkpt lat="51.045024290714814" lon="2.383948424007186"><ele>5.0</ele><time>2026-03-28T14:18:20Z</time></trkpt><trkpt lat="51.04501918748518" lon="2.38381464595903"><ele>5.0</ele><time>2026-03-28T14:18:23Z</time></trkpt><trkpt lat="51.04499394929566" lon="2.38372254704568"><ele>5.0</ele><time>2026-03-28T14:18:25Z</time></trkpt><trkpt lat="51.04491540617684" lon="2.3836538328763375"><ele>5.0</ele><time>2026-03-28T14:18:28Z</time></trkpt><trkpt lat="51.04485755047874" lon="2.3835649249968323"><ele>5.0</ele><time>2026-03-28T14:18:30.999Z</time></trkpt><trkpt lat="51.044824031960616" lon="2.3834751289147773"><ele>5.0</ele><time>2026-03-28T14:18:32.999Z</time></trkpt><trkpt lat="51.04481683322328" lon="2.383333446931484"><ele>5.0</ele><time>2026-03-28T14:18:35.999Z</time></trkpt><trkpt lat="51.044824000162194" lon="2.38319542424656"><ele>5.166666666666667</ele><time>2026-03-28T14:18:38.999Z</time></trkpt><trkpt lat="51.04475642876949" lon="2.383109354592754"><ele>5.333333333333334</ele><time>2026-03-28T14:18:41.999Z</time></trkpt><trkpt lat="51.04469870984607" lon="2.383067047173962"><ele>5.5</ele><time>2026-03-28T14:18:43.999Z</time></trkpt><trkpt lat="51.04462433970115" lon="2.382975556691442"><ele>5.666666666666667</ele><time>2026-03-28T14:18:45.999Z</time></trkpt><trkpt lat="51.04454290233911" lon="2.38295586415085"><ele>5.833333333333333</ele><time>2026-03-28T14:18:47.999Z</time></trkpt><trkpt lat="51.04446795789762" lon="2.3830425953953336"><ele>6.0</ele><time>2026-03-28T14:18:49.999Z</time></trkpt><trkpt lat="51.044402447018065" lon="2.383126897288404"><ele>6.0</ele><time>2026-03-28T14:18:51.999Z</time></trkpt><trkpt lat="51.044360863509766" lon="2.3832421630493674"><ele>6.0</ele><time>2026-03-28T14:18:53.999Z</time></trkpt><trkpt lat="51.04429326969638" lon="2.3832761532795286"><ele>6.0</ele><time>2026-03-28T14:18:55.999Z</time></trkpt><trkpt lat="51.04421865814101" lon="2.383231357896764"><ele>6.0</ele><time>2026-03-28T14:18:57.999Z</time></trkpt><trkpt lat="51.04418773357597" lon="2.38309221123944"><ele>6.0</ele><time>2026-03-28T14:18:59.999Z</time></trkpt><trkpt lat="51.044226931083365" lon="2.3830037032580154"><ele>6.0</ele><time>2026-03-28T14:19:03.999Z</time></trkpt><trkpt lat="51.0442490070538" lon="2.3829000704937466"><ele>5.999999999999999</ele><time>2026-03-28T14:19:07.999Z</time></trkpt><trkpt lat="51.04428966486264" lon="2.382809445830087"><ele>6.0</ele><time>2026-03-28T14:19:11.999Z</time></trkpt><trkpt lat="51.04436735556044" lon="2.382768491924591"><ele>6.0</ele><time>2026-03-28T14:19:16.999Z</time></trkpt><trkpt lat="51.04442127416302" lon="2.3826775418888673"><ele>6.0</ele><time>2026-03-28T14:19:20.999Z</time></trkpt><trkpt lat="51.044465750394814" lon="2.3826007922833328"><ele>6.0</ele><time>2026-03-28T14:19:23.999Z</time></trkpt><trkpt lat="51.04451749343642" lon="2.3825375525868546"><ele>5.999999999999999</ele><time>2026-03-28T14:19:26.999Z</time></trkpt><trkpt lat="51.04458706221536" lon="2.3826018946805014"><ele>6.0</ele><time>2026-03-28T14:19:36.999Z</time></trkpt><trkpt lat="51.04455388959224" lon="2.3824798820656374"><ele>5.999999999999999</ele><time>2026-03-28T14:19:41.998Z</time></trkpt><trkpt lat="51.044484631493134" lon="2.3824698436979497"><ele>6.0</ele><time>2026-03-28T14:19:46Z</time></trkpt><trkpt lat="51.04444716362343" lon="2.3825511396730965"><ele>6.0</ele><time>2026-03-28T14:19:49Z</time></trkpt><trkpt lat="51.04439221747428" lon="2.3826094056945366"><ele>6.0</ele><time>2026-03-28T14:19:54Z</time></trkpt><trkpt lat="51.044329486044326" lon="2.3826609482033896"><ele>6.0</ele><time>2026-03-28T14:19:57Z</time></trkpt><trkpt lat="51.04425992998378" lon="2.3827149468902302"><ele>5.999999999999999</ele><time>2026-03-28T14:20:00Z</time></trkpt><trkpt lat="51.044212677561326" lon="2.382799286466637"><ele>6.0</ele><time>2026-03-28T14:20:03Z</time></trkpt><trkpt lat="51.04420983703042" lon="2.382903653112843"><ele>6.0</ele><time>2026-03-28T14:20:05Z</time></trkpt><trkpt lat="51.04418624071729" lon="2.383019942240321"><ele>6.0</ele><time>2026-03-28T14:20:08Z</time></trkpt><trkpt lat="51.04417799392619" lon="2.38314329573748"><ele>6.0</ele><time>2026-03-28T14:20:11Z</time></trkpt><trkpt lat="51.04423988103679" lon="2.383236728917821"><ele>6.0</ele><time>2026-03-28T14:20:13Z</time></trkpt><trkpt lat="51.044337685559505" lon="2.3832576414212774"><ele>6.0</ele><time>2026-03-28T14:20:15Z</time></trkpt><trkpt lat="51.0444068799835" lon="2.3831671684409654"><ele>6.0</ele><time>2026-03-28T14:20:17Z</time></trkpt><trkpt lat="51.04441479281725" lon="2.3830279098160876"><ele>6.0</ele><time>2026-03-28T14:20:19Z</time></trkpt><trkpt lat="51.04447530985396" lon="2.382945580860653"><ele>6.0</ele><time>2026-03-28T14:20:25Z</time></trkpt><trkpt lat="51.04452877695144" lon="2.3828848078224647"><ele>6.0</ele><time>2026-03-28T14:20:29Z</time></trkpt><trkpt lat="51.04459624969165" lon="2.3829100581384552"><ele>6.0</ele><time>2026-03-28T14:20:32.999Z</time></trkpt><trkpt lat="51.044670788097044" lon="2.382905410960685"><ele>6.0</ele><time>2026-03-28T14:20:36.999Z</time></trkpt><trkpt lat="51.04475162221107" lon="2.3828936364483577"><ele>6.0</ele><time>2026-03-28T14:20:40.999Z</time></trkpt><trkpt lat="51.04483207555926" lon="2.382887939203861"><ele>6.0</ele><time>2026-03-28T14:20:43.999Z</time></trkpt><trkpt lat="51.04491087154077" lon="2.3828543935099815"><ele>6.0</ele><time>2026-03-28T14:20:46.999Z</time></trkpt><trkpt lat="51.044979849945406" lon="2.382783506130621"><ele>6.0</ele><time>2026-03-28T14:20:49.999Z</time></trkpt><trkpt lat="51.04503488744264" lon="2.382724851537047"><ele>6.0</ele><time>2026-03-28T14:20:52.999Z</time></trkpt><trkpt lat="51.04507038475824" lon="2.3826420413488134"><ele>6.0</ele><time>2026-03-28T14:20:57.999Z</time></trkpt><trkpt lat="51.04512271922126" lon="2.3825650877008595"><ele>6.0</ele><time>2026-03-28T14:21:53Z</time></trkpt><trkpt lat="51.0451881881397" lon="2.382457228984184"><ele>6.199999999999999</ele><time>2026-03-28T14:21:56Z</time></trkpt><trkpt lat="51.045242410850285" lon="2.3823611595522336"><ele>6.3999999999999995</ele><time>2026-03-28T14:21:58Z</time></trkpt><trkpt lat="51.045310437433386" lon="2.3822538254566727"><ele>6.6</ele><time>2026-03-28T14:22:00Z</time></trkpt><trkpt lat="51.045386321943205" lon="2.3821428752641114"><ele>6.8</ele><time>2026-03-28T14:22:02Z</time></trkpt><trkpt lat="51.04548543037068" lon="2.382034071810205"><ele>7.0</ele><time>2026-03-28T14:22:04Z</time></trkpt><trkpt lat="51.04557372777001" lon="2.381955535494433"><ele>7.000000000000001</ele><time>2026-03-28T14:22:06Z</time></trkpt><trkpt lat="51.0456494467819" lon="2.3819052365453364"><ele>7.0</ele><time>2026-03-28T14:22:08Z</time></trkpt><trkpt lat="51.04571035874321" lon="2.381841415147453"><ele>7.0</ele><time>2026-03-28T14:22:10Z</time></trkpt><trkpt lat="51.04577140951061" lon="2.3817493924833073"><ele>7.0</ele><time>2026-03-28T14:22:12Z</time></trkpt><trkpt lat="51.04583760951893" lon="2.381686673121915"><ele>7.000000000000001</ele><time>2026-03-28T14:22:15Z</time></trkpt><trkpt lat="51.045911162176196" lon="2.3816521658237044"><ele>7.0</ele><time>2026-03-28T14:22:19Z</time></trkpt><trkpt lat="51.045993271182006" lon="2.3816404822890354"><ele>6.833333333333334</ele><time>2026-03-28T14:22:22Z</time></trkpt><trkpt lat="51.04607547286777" lon="2.3816264514341583"><ele>6.666666666666667</ele><time>2026-03-28T14:22:26Z</time></trkpt><trkpt lat="51.04614664033762" lon="2.381632132350926"><ele>6.5</ele><time>2026-03-28T14:22:29Z</time></trkpt><trkpt lat="51.04623061464172" lon="2.3816236376383584"><ele>6.333333333333334</ele><time>2026-03-28T14:22:32Z</time></trkpt><trkpt lat="51.046323145820374" lon="2.38161909831806"><ele>6.166666666666667</ele><time>2026-03-28T14:22:35Z</time></trkpt><trkpt lat="51.046389424059505" lon="2.381624795265329"><ele>6.0</ele><time>2026-03-28T14:22:36.999Z</time></trkpt><trkpt lat="51.04645058281795" lon="2.3816676571726316"><ele>5.999999999999999</ele><time>2026-03-28T14:22:39.999Z</time></trkpt><trkpt lat="51.046511768850436" lon="2.3816928269018915"><ele>6.0</ele><time>2026-03-28T14:22:43.999Z</time></trkpt><trkpt lat="51.046576242746326" lon="2.381665355641203"><ele>6.0</ele><time>2026-03-28T14:22:49.999Z</time></trkpt><trkpt lat="51.04650482257987" lon="2.381628747700798"><ele>6.0</ele><time>2026-03-28T14:22:53.999Z</time></trkpt><trkpt lat="51.04643189014417" lon="2.3816324705443073"><ele>6.0</ele><time>2026-03-28T14:22:56.999Z</time></trkpt><trkpt lat="51.046405354216134" lon="2.3815372215510147"><ele>5.999999999999999</ele><time>2026-03-28T14:22:58.999Z</time></trkpt><trkpt lat="51.04634259295811" lon="2.3814595371467413"><ele>6.0</ele><time>2026-03-28T14:23:03.999Z</time></trkpt><trkpt lat="51.04625915431317" lon="2.381432827198523"><ele>6.0</ele><time>2026-03-28T14:23:07.999Z</time></trkpt><trkpt lat="51.04617777381051" lon="2.3814383817952827"><ele>6.0</ele><time>2026-03-28T14:23:10.999Z</time></trkpt><trkpt lat="51.04609802682266" lon="2.38145359403043"><ele>6.0</ele><time>2026-03-28T14:23:14.999Z</time></trkpt><trkpt lat="51.04603150848768" lon="2.3814688063875913"><ele>6.0</ele><time>2026-03-28T14:23:17.999Z</time></trkpt><trkpt lat="51.045965998340755" lon="2.3814779918921007"><ele>6.0</ele><time>2026-03-28T14:23:20.999Z</time></trkpt><trkpt lat="51.04589360109905" lon="2.3814968668037184"><ele>6.0</ele><time>2026-03-28T14:23:24.999Z</time></trkpt><trkpt lat="51.045819794940016" lon="2.3815541149557835"><ele>6.199999999999999</ele><time>2026-03-28T14:23:27.999Z</time></trkpt><trkpt lat="51.04576319928898" lon="2.3816942918589756"><ele>6.3999999999999995</ele><time>2026-03-28T14:23:29.999Z</time></trkpt><trkpt lat="51.04570384474422" lon="2.3818627711023246"><ele>6.6</ele><time>2026-03-28T14:23:31.999Z</time></trkpt><trkpt lat="51.04562575212998" lon="2.3819149610119505"><ele>6.8</ele><time>2026-03-28T14:23:33.999Z</time></trkpt><trkpt lat="51.04555043001704" lon="2.3819544187255026"><ele>7.0</ele><time>2026-03-28T14:23:35.999Z</time></trkpt><trkpt lat="51.045489560794266" lon="2.3820171581281526"><ele>7.000000000000001</ele><time>2026-03-28T14:23:37.999Z</time></trkpt><trkpt lat="51.045436716554" lon="2.3820917333742955"><ele>7.0</ele><time>2026-03-28T14:23:39.999Z</time></trkpt><trkpt lat="51.04536022817727" lon="2.382178298664723"><ele>7.0</ele><time>2026-03-28T14:23:41.999Z</time></trkpt><trkpt lat="51.04529496050466" lon="2.382295621938215"><ele>7.0</ele><time>2026-03-28T14:23:43.999Z</time></trkpt><trkpt lat="51.0452410478993" lon="2.382361955141892"><ele>7.000000000000001</ele><time>2026-03-28T14:23:45.999Z</time></trkpt><trkpt lat="51.045197623053575" lon="2.3824448458401717"><ele>7.0</ele><time>2026-03-28T14:23:49.998Z</time></trkpt><trkpt lat="51.04514786790049" lon="2.3825365782494567"><ele>7.000000000000001</ele><time>2026-03-28T14:23:52.998Z</time></trkpt><trkpt lat="51.04509813999171" lon="2.3826108610758006"><ele>7.0</ele><time>2026-03-28T14:23:56Z</time></trkpt><trkpt lat="51.04503899012442" lon="2.3826937386353078"><ele>7.0</ele><time>2026-03-28T14:24:00Z</time></trkpt><trkpt lat="51.04499246095975" lon="2.3827615461105696"><ele>7.0</ele><time>2026-03-28T14:24:36Z</time></trkpt><trkpt lat="51.04489801849642" lon="2.382797300097603"><ele>7.000000000000001</ele><time>2026-03-28T14:24:39Z</time></trkpt><trkpt lat="51.04479915474703" lon="2.3828307376516396"><ele>7.0</ele><time>2026-03-28T14:24:41Z</time></trkpt><trkpt lat="51.044735950776605" lon="2.3828139585215515"><ele>6.75</ele><time>2026-03-28T14:24:42Z</time></trkpt><trkpt lat="51.0446337559283" lon="2.3825980789540213"><ele>6.5</ele><time>2026-03-28T14:24:44Z</time></trkpt><trkpt lat="51.04452282571664" lon="2.3825793596130116"><ele>6.25</ele><time>2026-03-28T14:24:45.999Z</time></trkpt><trkpt lat="51.04445967136531" lon="2.382621134389577"><ele>6.0</ele><time>2026-03-28T14:24:46.999Z</time></trkpt><trkpt lat="51.044388468546465" lon="2.3830695395532695"><ele>6.0</ele><time>2026-03-28T14:24:49.999Z</time></trkpt><trkpt lat="51.04435605511158" lon="2.383242376054065"><ele>6.0</ele><time>2026-03-28T14:24:51.999Z</time></trkpt><trkpt lat="51.044262139102365" lon="2.3832639570542233"><ele>6.0</ele><time>2026-03-28T14:24:53.999Z</time></trkpt><trkpt lat="51.044202421055" lon="2.3832054046498503"><ele>6.0</ele><time>2026-03-28T14:24:54.999Z</time></trkpt><trkpt lat="51.04412599226075" lon="2.3832072726118874"><ele>6.0</ele><time>2026-03-28T14:24:56.999Z</time></trkpt><trkpt lat="51.044067532424" lon="2.3832934592211448"><ele>6.0</ele><time>2026-03-28T14:24:58.999Z</time></trkpt><trkpt lat="51.04405344400352" lon="2.3834263237943163"><ele>6.0</ele><time>2026-03-28T14:25:00.999Z</time></trkpt><trkpt lat="51.04406570382519" lon="2.3835730449250083"><ele>6.0</ele><time>2026-03-28T14:25:02.999Z</time></trkpt><trkpt lat="51.04412507849215" lon="2.383620536175915"><ele>6.0</ele><time>2026-03-28T14:25:04.999Z</time></trkpt><trkpt lat="51.044199789472295" lon="2.383723662870607"><ele>6.0</ele><time>2026-03-28T14:25:07.999Z</time></trkpt><trkpt lat="51.044247301495" lon="2.3838406410715547"><ele>6.0</ele><time>2026-03-28T14:25:09.999Z</time></trkpt><trkpt lat="51.04431310303377" lon="2.3839273954717197"><ele>6.0</ele><time>2026-03-28T14:25:11.999Z</time></trkpt><trkpt lat="51.044389750389456" lon="2.383931134187996"><ele>5.999999999999999</ele><time>2026-03-28T14:25:13.999Z</time></trkpt><trkpt lat="51.04444971629673" lon="2.3838672668609937"><ele>6.0</ele><time>2026-03-28T14:25:15.999Z</time></trkpt><trkpt lat="51.044490554809535" lon="2.3837682697642455"><ele>6.0</ele><time>2026-03-28T14:25:19.999Z</time></trkpt><trkpt lat="51.04456057467742" lon="2.3837293287275383"><ele>6.0</ele><time>2026-03-28T14:29:07.999Z</time></trkpt><trkpt lat="51.04463129257664" lon="2.383761691492502"><ele>6.0</ele><time>2026-03-28T14:29:14.999Z</time></trkpt><trkpt lat="51.044661491847" lon="2.383864883515777"><ele>5.999999999999999</ele><time>2026-03-28T14:29:21.999Z</time></trkpt><trkpt lat="51.0446892886341" lon="2.383974766164171"><ele>6.0</ele><time>2026-03-28T14:29:28.999Z</time></trkpt><trkpt lat="51.044701031507444" lon="2.3840860607434515"><ele>6.142857142857142</ele><time>2026-03-28T14:29:33.999Z</time></trkpt><trkpt lat="51.04475688334697" lon="2.3841330590042538"><ele>6.285714285714286</ele><time>2026-03-28T14:29:37.999Z</time></trkpt><trkpt lat="51.044822138989495" lon="2.384152888371102"><ele>6.428571428571429</ele><time>2026-03-28T14:29:42.999Z</time></trkpt><trkpt lat="51.04488146775948" lon="2.3841906899504557"><ele>6.571428571428571</ele><time>2026-03-28T14:29:47.999Z</time></trkpt><trkpt lat="51.0449588851054" lon="2.3842180260098096"><ele>6.714285714285714</ele><time>2026-03-28T14:29:52.999Z</time></trkpt><trkpt lat="51.04502575620154" lon="2.3842094753192007"><ele>6.857142857142857</ele><time>2026-03-28T14:29:56.999Z</time></trkpt><trkpt lat="51.04501344045325" lon="2.3840741620322103"><ele>7.0</ele><time>2026-03-28T14:29:59.999Z</time></trkpt><trkpt lat="51.045004207335104" lon="2.383960362286121"><ele>6.857142857142857</ele><time>2026-03-28T14:30:02.999Z</time></trkpt><trkpt lat="51.04500680824482" lon="2.3838525789474545"><ele>6.714285714285714</ele><time>2026-03-28T14:30:04.999Z</time></trkpt><trkpt lat="51.044966436618125" lon="2.3837314105369636"><ele>6.571428571428571</ele><time>2026-03-28T14:30:07.998Z</time></trkpt><trkpt lat="51.0449051960717" lon="2.3836650241773896"><ele>6.428571428571429</ele><time>2026-03-28T14:30:09.998Z</time></trkpt><trkpt lat="51.04486271999295" lon="2.3835857454531397"><ele>6.285714285714286</ele><time>2026-03-28T14:30:12.998Z</time></trkpt><trkpt lat="51.04483952843991" lon="2.3834859621641034"><ele>6.142857142857142</ele><time>2026-03-28T14:30:16Z</time></trkpt><trkpt lat="51.04482086405292" lon="2.3833560816139103"><ele>6.0</ele><time>2026-03-28T14:30:19Z</time></trkpt><trkpt lat="51.04482074621084" lon="2.383255740714832"><ele>6.0</ele><time>2026-03-28T14:30:21Z</time></trkpt><trkpt lat="51.044779802135515" lon="2.3831647311292916"><ele>6.0</ele><time>2026-03-28T14:30:24Z</time></trkpt><trkpt lat="51.04472490829802" lon="2.3830962460418155"><ele>6.0</ele><time>2026-03-28T14:30:26Z</time></trkpt><trkpt lat="51.044649890772526" lon="2.38303417843066"><ele>6.0</ele><time>2026-03-28T14:30:29Z</time></trkpt><trkpt lat="51.04457201270506" lon="2.3829970607520146"><ele>6.0</ele><time>2026-03-28T14:30:32Z</time></trkpt><trkpt lat="51.04450022724997" lon="2.3830419442327044"><ele>6.0</ele><time>2026-03-28T14:30:35Z</time></trkpt><trkpt lat="51.04442975255329" lon="2.3830947326370584"><ele>6.0</ele><time>2026-03-28T14:30:39Z</time></trkpt><trkpt lat="51.04436896576464" lon="2.38319624897275"><ele>6.0</ele><time>2026-03-28T14:30:42Z</time></trkpt><trkpt lat="51.04430249214439" lon="2.383274921074759"><ele>6.0</ele><time>2026-03-28T14:30:45Z</time></trkpt><trkpt lat="51.04424246052722" lon="2.383240076961238"><ele>6.0</ele><time>2026-03-28T14:30:47Z</time></trkpt><trkpt lat="51.044162221483234" lon="2.383248889344606"><ele>6.0</ele><time>2026-03-28T14:30:50Z</time></trkpt><trkpt lat="51.04409095014924" lon="2.383343052919592"><ele>6.0</ele><time>2026-03-28T14:30:53Z</time></trkpt><trkpt lat="51.0440619831255" lon="2.3834422715154986"><ele>5.999999999999999</ele><time>2026-03-28T14:30:55Z</time></trkpt><trkpt lat="51.044053717285195" lon="2.3835494166204203"><ele>6.0</ele><time>2026-03-28T14:30:57Z</time></trkpt><trkpt lat="51.04411325242823" lon="2.383616784202235"><ele>6.0</ele><time>2026-03-28T14:30:59Z</time></trkpt><trkpt lat="51.04417233987823" lon="2.3836921483217077"><ele>6.0</ele><time>2026-03-28T14:31:00.999Z</time></trkpt><trkpt lat="51.04422623512223" lon="2.383793424185746"><ele>6.0</ele><time>2026-03-28T14:31:03.999Z</time></trkpt><trkpt lat="51.044292998744126" lon="2.3838518862717892"><ele>5.999999999999999</ele><time>2026-03-28T14:31:07.999Z</time></trkpt><trkpt lat="51.044354595698515" lon="2.3838730090407734"><ele>6.0</ele><time>2026-03-28T14:31:11.999Z</time></trkpt><trkpt lat="51.04443277735056" lon="2.383882658327934"><ele>6.0</ele><time>2026-03-28T14:31:15.999Z</time></trkpt><trkpt lat="51.044484262757145" lon="2.383777686332726"><ele>6.0</ele><time>2026-03-28T14:31:19.999Z</time></trkpt><trkpt lat="51.04454810991161" lon="2.3837389049179776"><ele>6.0</ele><time>2026-03-28T14:32:00.999Z</time></trkpt><trkpt lat="51.04462034388785" lon="2.383790515560244"><ele>6.0</ele><time>2026-03-28T14:32:04.999Z</time></trkpt><trkpt lat="51.04466804312937" lon="2.3838834333668135"><ele>6.0</ele><time>2026-03-28T14:32:07.999Z</time></trkpt><trkpt lat="51.044674367009286" lon="2.3839925127139256"><ele>6.0</ele><time>2026-03-28T14:32:10.999Z</time></trkpt><trkpt lat="51.04472230823722" lon="2.384100760986203"><ele>6.142857142857142</ele><time>2026-03-28T14:32:14.998Z</time></trkpt><trkpt lat="51.044792303616596" lon="2.384143401127897"><ele>6.285714285714286</ele><time>2026-03-28T14:32:17.998Z</time></trkpt><trkpt lat="51.04485352949623" lon="2.38416809269847"><ele>6.428571428571429</ele><time>2026-03-28T14:32:21Z</time></trkpt><trkpt lat="51.044915044733855" lon="2.384201288707853"><ele>6.571428571428571</ele><time>2026-03-28T14:32:24Z</time></trkpt><trkpt lat="51.04497626201143" lon="2.384248051721963"><ele>6.714285714285714</ele><time>2026-03-28T14:32:27Z</time></trkpt><trkpt lat="51.045041336625744" lon="2.384264500427023"><ele>6.857142857142857</ele><time>2026-03-28T14:32:30Z</time></trkpt><trkpt lat="51.04510228832865" lon="2.384173116331711"><ele>7.0</ele><time>2026-03-28T14:33:05.999Z</time></trkpt><trkpt lat="51.045043835733786" lon="2.384131608148839"><ele>7.000000000000001</ele><time>2026-03-28T14:33:12.999Z</time></trkpt><trkpt lat="51.04497072467193" lon="2.384180795359563"><ele>7.0</ele><time>2026-03-28T14:33:15.999Z</time></trkpt><trkpt lat="51.044906605206904" lon="2.3841657625090726"><ele>7.0</ele><time>2026-03-28T14:33:18.999Z</time></trkpt><trkpt lat="51.04484373678637" lon="2.3841447294115157"><ele>7.0</ele><time>2026-03-28T14:33:21.999Z</time></trkpt><trkpt lat="51.04476474399126" lon="2.3841268414574373"><ele>7.000000000000001</ele><time>2026-03-28T14:33:25.999Z</time></trkpt><trkpt lat="51.04469120128112" lon="2.3840775146969433"><ele>7.0</ele><time>2026-03-28T14:33:28.999Z</time></trkpt><trkpt lat="51.044612445105116" lon="2.3840287170339987"><ele>7.0</ele><time>2026-03-28T14:33:31.999Z</time></trkpt><trkpt lat="51.04453820266042" lon="2.383998547298276"><ele>7.0</ele><time>2026-03-28T14:33:34.999Z</time></trkpt><trkpt lat="51.04447223556106" lon="2.3839627730936304"><ele>7.0</ele><time>2026-03-28T14:33:37.999Z</time></trkpt><trkpt lat="51.044409136089854" lon="2.383927916798721"><ele>7.0</ele><time>2026-03-28T14:33:39.999Z</time></trkpt><trkpt lat="51.04434707510702" lon="2.3838946137003574"><ele>7.0</ele><time>2026-03-28T14:33:41.999Z</time></trkpt><trkpt lat="51.04428285355447" lon="2.383841053230826"><ele>7.0</ele><time>2026-03-28T14:33:43.999Z</time></trkpt><trkpt lat="51.04422860431286" lon="2.3837847090205027"><ele>7.0</ele><time>2026-03-28T14:33:45.999Z</time></trkpt><trkpt lat="51.04415538573492" lon="2.383707430215375"><ele>7.0</ele><time>2026-03-28T14:33:48.999Z</time></trkpt><trkpt lat="51.04409690417838" lon="2.38362843856412"><ele>7.0</ele><time>2026-03-28T14:33:51.999Z</time></trkpt><trkpt lat="51.04405025615121" lon="2.383546761271844"><ele>7.0</ele><time>2026-03-28T14:33:54.999Z</time></trkpt><trkpt lat="51.044066737159746" lon="2.383427211329817"><ele>7.0</ele><time>2026-03-28T14:33:58.999Z</time></trkpt><trkpt lat="51.044120254358425" lon="2.3833436315784504"><ele>7.0</ele><time>2026-03-28T14:34:02.999Z</time></trkpt><trkpt lat="51.04415972244914" lon="2.3832617308306565"><ele>7.0</ele><time>2026-03-28T14:34:06.999Z</time></trkpt><trkpt lat="51.044225140108736" lon="2.3832613833521736"><ele>7.0</ele><time>2026-03-28T14:34:09.999Z</time></trkpt><trkpt lat="51.04428883168789" lon="2.3832279741131717"><ele>6.857142857142857</ele><time>2026-03-28T14:34:12.999Z</time></trkpt><trkpt lat="51.04434642426799" lon="2.383185795068483"><ele>6.714285714285714</ele><time>2026-03-28T14:34:15.998Z</time></trkpt><trkpt lat="51.044407737076455" lon="2.383132194651847"><ele>6.571428571428571</ele><time>2026-03-28T14:34:19.998Z</time></trkpt><trkpt lat="51.04442130477972" lon="2.383032293094321"><ele>6.428571428571429</ele><time>2026-03-28T14:34:30Z</time></trkpt><trkpt lat="51.04444128027143" lon="2.3829342084828555"><ele>6.285714285714286</ele><time>2026-03-28T14:34:36Z</time></trkpt><trkpt lat="51.04447190583101" lon="2.3828448130790756"><ele>6.142857142857142</ele><time>2026-03-28T14:34:43Z</time></trkpt><trkpt lat="51.04453236353567" lon="2.382812394019206"><ele>6.0</ele><time>2026-03-28T14:34:50Z</time></trkpt><trkpt lat="51.04459833926819" lon="2.382821854573202"><ele>5.999999999999999</ele><time>2026-03-28T14:34:56Z</time></trkpt><trkpt lat="51.04466911577919" lon="2.382822685939722"><ele>6.0</ele><time>2026-03-28T14:35:03Z</time></trkpt><trkpt lat="51.04473640627916" lon="2.382831544291468"><ele>6.0</ele><time>2026-03-28T14:35:11.999Z</time></trkpt><trkpt lat="51.044809331089645" lon="2.382836050333164"><ele>6.0</ele><time>2026-03-28T14:35:18.999Z</time></trkpt><trkpt lat="51.04487587056409" lon="2.3828354949367814"><ele>6.0</ele><time>2026-03-28T14:35:24.999Z</time></trkpt><trkpt lat="51.04493317758131" lon="2.382791460995152"><ele>5.999999999999999</ele><time>2026-03-28T14:35:30.999Z</time></trkpt><trkpt lat="51.04499162542237" lon="2.3827505684649317"><ele>6.0</ele><time>2026-03-28T14:35:38.999Z</time></trkpt><trkpt lat="51.04503573235307" lon="2.3826788638891148"><ele>6.0</ele><time>2026-03-28T14:35:44.999Z</time></trkpt><trkpt lat="51.04501378674836" lon="2.3827865775464567"><ele>6.0</ele><time>2026-03-28T14:38:35.999Z</time></trkpt><trkpt lat="51.04495356786936" lon="2.3828185430653983"><ele>6.0</ele><time>2026-03-28T14:38:40Z</time></trkpt><trkpt lat="51.044870456640304" lon="2.3828331485521086"><ele>6.0</ele><time>2026-03-28T14:38:44Z</time></trkpt><trkpt lat="51.044799111099294" lon="2.3828393226141547"><ele>6.0</ele><time>2026-03-28T14:38:47Z</time></trkpt><trkpt lat="51.04468675977148" lon="2.382852748745655"><ele>6.0</ele><time>2026-03-28T14:38:50Z</time></trkpt><trkpt lat="51.044604971069965" lon="2.3828328225469075"><ele>6.0</ele><time>2026-03-28T14:38:52Z</time></trkpt><trkpt lat="51.044509332687085" lon="2.382862650894079"><ele>6.0</ele><time>2026-03-28T14:38:54Z</time></trkpt><trkpt lat="51.04444783717816" lon="2.383008997826841"><ele>6.0</ele><time>2026-03-28T14:38:57Z</time></trkpt><trkpt lat="51.04439321598862" lon="2.3831588604120726"><ele>6.0</ele><time>2026-03-28T14:38:59Z</time></trkpt><trkpt lat="51.044308216793986" lon="2.3832111318640754"><ele>6.0</ele><time>2026-03-28T14:39:01Z</time></trkpt><trkpt lat="51.04421768612861" lon="2.383159976668161"><ele>6.0</ele><time>2026-03-28T14:39:03Z</time></trkpt><trkpt lat="51.044203858432574" lon="2.383038025915667"><ele>6.0</ele><time>2026-03-28T14:39:08Z</time></trkpt><trkpt lat="51.04419127154657" lon="2.382927950324066"><ele>6.0</ele><time>2026-03-28T14:39:11Z</time></trkpt><trkpt lat="51.04421686373198" lon="2.382818742907877"><ele>6.0</ele><time>2026-03-28T14:39:16Z</time></trkpt><trkpt lat="51.044256758323094" lon="2.382735994951296"><ele>6.0</ele><time>2026-03-28T14:39:20Z</time></trkpt><trkpt lat="51.044323518455656" lon="2.382665552892526"><ele>6.0</ele><time>2026-03-28T14:39:23Z</time></trkpt><trkpt lat="51.0444017551581" lon="2.382595982211637"><ele>6.0</ele><time>2026-03-28T14:39:25Z</time></trkpt><trkpt lat="51.04447432272459" lon="2.382533430054948"><ele>6.0</ele><time>2026-03-28T14:39:27Z</time></trkpt><trkpt lat="51.04454004334166" lon="2.3824750148003857"><ele>6.0</ele><time>2026-03-28T14:39:29Z</time></trkpt><trkpt lat="51.044623117234536" lon="2.3824626398325655"><ele>6.0</ele><time>2026-03-28T14:39:32Z</time></trkpt><trkpt lat="51.04466299108853" lon="2.3825803633185347"><ele>6.0</ele><time>2026-03-28T14:39:35Z</time></trkpt><trkpt lat="51.04476384672487" lon="2.382605704590863"><ele>6.0</ele><time>2026-03-28T14:39:40.999Z</time></trkpt><trkpt lat="51.04475210567755" lon="2.3827175207274025"><ele>6.0</ele><time>2026-03-28T14:39:47.999Z</time></trkpt><trkpt lat="51.04469398062871" lon="2.3827812860346254"><ele>6.0</ele><time>2026-03-28T14:39:51.999Z</time></trkpt><trkpt lat="51.04477210369879" lon="2.3828501024953455"><ele>6.0</ele><time>2026-03-28T14:39:59.999Z</time></trkpt><trkpt lat="51.04486706152312" lon="2.382849230745707"><ele>6.0</ele><time>2026-03-28T14:40:05.999Z</time></trkpt><trkpt lat="51.04492312327578" lon="2.3827777877129077"><ele>6.0</ele><time>2026-03-28T14:40:08.999Z</time></trkpt><trkpt lat="51.04497960881719" lon="2.382729688659481"><ele>6.0</ele><time>2026-03-28T14:40:11.999Z</time></trkpt><trkpt lat="51.045039503953156" lon="2.382679880566566"><ele>6.166666666666667</ele><time>2026-03-28T14:40:15.999Z</time></trkpt><trkpt lat="51.04508779060424" lon="2.3826147075215465"><ele>6.333333333333334</ele><time>2026-03-28T14:40:22.999Z</time></trkpt><trkpt lat="51.045150037333286" lon="2.3825644755397795"><ele>6.5</ele><time>2026-03-28T14:48:30.999Z</time></trkpt><trkpt lat="51.0452028812546" lon="2.382448707086005"><ele>6.666666666666667</ele><time>2026-03-28T14:48:33.999Z</time></trkpt><trkpt lat="51.04525776183519" lon="2.382335246956089"><ele>6.833333333333334</ele><time>2026-03-28T14:48:35.999Z</time></trkpt><trkpt lat="51.04533269179316" lon="2.382222856441958"><ele>7.0</ele><time>2026-03-28T14:48:37.999Z</time></trkpt><trkpt lat="51.04540496579717" lon="2.3821206423179895"><ele>7.000000000000001</ele><time>2026-03-28T14:48:39.999Z</time></trkpt><trkpt lat="51.04548430717385" lon="2.3820253555424133"><ele>7.0</ele><time>2026-03-28T14:48:41.999Z</time></trkpt><trkpt lat="51.04553826107749" lon="2.381963795242495"><ele>7.0</ele><time>2026-03-28T14:48:44.999Z</time></trkpt><trkpt lat="51.04547226066761" lon="2.3820193909975114"><ele>7.0</ele><time>2026-03-28T14:57:03.999Z</time></trkpt><trkpt lat="51.045399749409164" lon="2.3820688980312488"><ele>7.000000000000001</ele><time>2026-03-28T14:57:07.999Z</time></trkpt><trkpt lat="51.04534186812124" lon="2.3821336437952123"><ele>7.0</ele><time>2026-03-28T14:57:13.999Z</time></trkpt><trkpt lat="51.04529448855076" lon="2.3822292503052944"><ele>7.0</ele><time>2026-03-28T14:57:20.999Z</time></trkpt><trkpt lat="51.045237661986725" lon="2.382313185889725"><ele>7.0</ele><time>2026-03-28T14:57:25.998Z</time></trkpt><trkpt lat="51.04519491418002" lon="2.3824095662933926"><ele>7.0</ele><time>2026-03-28T14:57:30.998Z</time></trkpt><trkpt lat="51.045150238260995" lon="2.3824925482392065"><ele>7.0</ele><time>2026-03-28T14:57:36Z</time></trkpt><trkpt lat="51.04512261732444" lon="2.382583311081917"><ele>7.0</ele><time>2026-03-28T14:57:41Z</time></trkpt><trkpt lat="51.04506187118556" lon="2.382652693407218"><ele>7.0</ele><time>2026-03-28T14:57:49Z</time></trkpt><trkpt lat="51.04500853634042" lon="2.382718015033109"><ele>7.0</ele><time>2026-03-28T14:57:54Z</time></trkpt><trkpt lat="51.044936186068625" lon="2.382760149972112"><ele>6.857142857142857</ele><time>2026-03-28T14:57:58Z</time></trkpt><trkpt lat="51.04487791572777" lon="2.3828019025793377"><ele>6.714285714285714</ele><time>2026-03-28T14:58:00Z</time></trkpt><trkpt lat="51.04480745782893" lon="2.3828335370564044"><ele>6.571428571428571</ele><time>2026-03-28T14:58:02Z</time></trkpt><trkpt lat="51.04472910215289" lon="2.3828162687141887"><ele>6.428571428571429</ele><time>2026-03-28T14:58:04Z</time></trkpt><trkpt lat="51.044668990220316" lon="2.3827784630939526"><ele>6.285714285714286</ele><time>2026-03-28T14:58:06Z</time></trkpt><trkpt lat="51.0445958843285" lon="2.3827740427165236"><ele>6.142857142857142</ele><time>2026-03-28T14:58:09Z</time></trkpt><trkpt lat="51.04452482564527" lon="2.3828029295099284"><ele>6.0</ele><time>2026-03-28T14:58:13Z</time></trkpt><trkpt lat="51.044454367845084" lon="2.3828797759466656"><ele>6.0</ele><time>2026-03-28T14:58:17Z</time></trkpt><trkpt lat="51.04443307941475" lon="2.3830223707995386"><ele>6.0</ele><time>2026-03-28T14:58:20.999Z</time></trkpt><trkpt lat="51.044649757185795" lon="2.3830990289077523"><ele>6.0</ele><time>2026-03-28T14:58:34.999Z</time></trkpt><trkpt lat="51.04473364647133" lon="2.3831595617414356"><ele>6.0</ele><time>2026-03-28T14:58:36.999Z</time></trkpt><trkpt lat="51.044796692337094" lon="2.383195011721921"><ele>6.0</ele><time>2026-03-28T14:58:38.999Z</time></trkpt><trkpt lat="51.04482383521533" lon="2.383313447667283"><ele>6.0</ele><time>2026-03-28T14:58:41.999Z</time></trkpt><trkpt lat="51.044815830041784" lon="2.383456626938637"><ele>6.0</ele><time>2026-03-28T14:58:43.999Z</time></trkpt><trkpt lat="51.04482606316014" lon="2.3835934363788196"><ele>6.0</ele><time>2026-03-28T14:58:46.999Z</time></trkpt><trkpt lat="51.044902187358964" lon="2.3836680921216065"><ele>6.0</ele><time>2026-03-28T14:58:48.999Z</time></trkpt><trkpt lat="51.04497458171723" lon="2.3837518159802924"><ele>6.0</ele><time>2026-03-28T14:58:51.999Z</time></trkpt><trkpt lat="51.04505266038094" lon="2.3836658555545838"><ele>5.857142857142857</ele><time>2026-03-28T15:01:31.999Z</time></trkpt><trkpt lat="51.045033516848434" lon="2.3837875343136807"><ele>5.714285714285714</ele><time>2026-03-28T15:05:15.999Z</time></trkpt><trkpt lat="51.04500540369155" lon="2.3838973594328894"><ele>5.571428571428571</ele><time>2026-03-28T15:05:18.999Z</time></trkpt><trkpt lat="51.04501820298387" lon="2.3839982486636497"><ele>5.428571428571429</ele><time>2026-03-28T15:05:22.999Z</time></trkpt><trkpt lat="51.04502032677519" lon="2.384120764273548"><ele>5.285714285714286</ele><time>2026-03-28T15:05:27.999Z</time></trkpt><trkpt lat="51.044983605443015" lon="2.3842085175200673"><ele>5.142857142857142</ele><time>2026-03-28T15:05:33.999Z</time></trkpt><trkpt lat="51.04491618308421" lon="2.384154662627482"><ele>5.0</ele><time>2026-03-28T15:05:37.999Z</time></trkpt><trkpt lat="51.04484658696722" lon="2.3841222409858194"><ele>5.333333333333334</ele><time>2026-03-28T15:05:40.999Z</time></trkpt><trkpt lat="51.044785152619795" lon="2.384068498800127"><ele>5.666666666666667</ele><time>2026-03-28T15:05:43.999Z</time></trkpt><trkpt lat="51.044713641055814" lon="2.3840463198362873"><ele>6.0</ele><time>2026-03-28T15:05:46.998Z</time></trkpt><trkpt lat="51.04464624883397" lon="2.384077957605169"><ele>6.333333333333334</ele><time>2026-03-28T15:05:48.998Z</time></trkpt><trkpt lat="51.04459657664661" lon="2.3841840738014497"><ele>6.666666666666667</ele><time>2026-03-28T15:05:51.998Z</time></trkpt><trkpt lat="51.04462794345544" lon="2.3843159850795272"><ele>7.0</ele><time>2026-03-28T15:05:54.998Z</time></trkpt><trkpt lat="51.044658123342" lon="2.3844245858801165"><ele>7.0</ele><time>2026-03-28T15:05:58Z</time></trkpt><trkpt lat="51.04461985048459" lon="2.3845047764417275"><ele>7.0</ele><time>2026-03-28T15:06:02Z</time></trkpt><trkpt lat="51.04455605696008" lon="2.3845696535192458"><ele>7.0</ele><time>2026-03-28T15:06:05Z</time></trkpt><trkpt lat="51.044521658604125" lon="2.384660826637826"><ele>7.0</ele><time>2026-03-28T15:06:08Z</time></trkpt><trkpt lat="51.04449664224903" lon="2.3847655175992246"><ele>7.0</ele><time>2026-03-28T15:06:11Z</time></trkpt><trkpt lat="51.04444924372837" lon="2.3848539131183477"><ele>7.0</ele><time>2026-03-28T15:06:14Z</time></trkpt><trkpt lat="51.044382647490956" lon="2.3849010649218028"><ele>7.0</ele><time>2026-03-28T15:06:17Z</time></trkpt><trkpt lat="51.04433010926562" lon="2.384957677975885"><ele>7.000000000000001</ele><time>2026-03-28T15:06:20Z</time></trkpt><trkpt lat="51.044259878652376" lon="2.3850452855572466"><ele>7.0</ele><time>2026-03-28T15:06:23Z</time></trkpt><trkpt lat="51.044171739001335" lon="2.3851200209494157"><ele>7.0</ele><time>2026-03-28T15:06:26Z</time></trkpt><trkpt lat="51.04410930772837" lon="2.3851472015761495"><ele>7.0</ele><time>2026-03-28T15:06:28Z</time></trkpt><trkpt lat="51.044035446561075" lon="2.3851910307760855"><ele>7.000000000000001</ele><time>2026-03-28T15:06:31Z</time></trkpt><trkpt lat="51.043962938222634" lon="2.385252613812978"><ele>7.0</ele><time>2026-03-28T15:06:34Z</time></trkpt><trkpt lat="51.043880490201495" lon="2.3852702602204294"><ele>7.000000000000001</ele><time>2026-03-28T15:06:38Z</time></trkpt><trkpt lat="51.04381005171048" lon="2.38525661268636"><ele>7.0</ele><time>2026-03-28T15:06:42Z</time></trkpt><trkpt lat="51.04373308835011" lon="2.385314314840161"><ele>7.0</ele><time>2026-03-28T15:06:44.999Z</time></trkpt><trkpt lat="51.043678753658696" lon="2.3853767225860065"><ele>7.0</ele><time>2026-03-28T15:06:46.999Z</time></trkpt><trkpt lat="51.04360312506366" lon="2.385422322894218"><ele>7.000000000000001</ele><time>2026-03-28T15:06:48.999Z</time></trkpt><trkpt lat="51.04354031555128" lon="2.3855670961733635"><ele>7.0</ele><time>2026-03-28T15:06:51.999Z</time></trkpt><trkpt lat="51.04348357385617" lon="2.385624436212515"><ele>6.833333333333334</ele><time>2026-03-28T15:06:53.999Z</time></trkpt><trkpt lat="51.043409440566016" lon="2.3856536160884563"><ele>6.666666666666667</ele><time>2026-03-28T15:06:56.999Z</time></trkpt><trkpt lat="51.043340310325384" lon="2.385691026441889"><ele>6.5</ele><time>2026-03-28T15:06:59.999Z</time></trkpt><trkpt lat="51.0432643998223" lon="2.3857361350720048"><ele>6.333333333333334</ele><time>2026-03-28T15:07:02.999Z</time></trkpt><trkpt lat="51.0431840687831" lon="2.3857477179288646"><ele>6.166666666666667</ele><time>2026-03-28T15:07:05.999Z</time></trkpt><trkpt lat="51.04309123627793" lon="2.3857251666114987"><ele>6.0</ele><time>2026-03-28T15:07:09.999Z</time></trkpt><trkpt lat="51.0429996558173" lon="2.3857044173989075"><ele>6.0</ele><time>2026-03-28T15:07:12.999Z</time></trkpt><trkpt lat="51.04293762948619" lon="2.385677999361207"><ele>6.0</ele><time>2026-03-28T15:07:14.999Z</time></trkpt><trkpt lat="51.04287123840866" lon="2.3856605136001754"><ele>6.0</ele><time>2026-03-28T15:07:17.999Z</time></trkpt><trkpt lat="51.0427765510137" lon="2.3856292893400846"><ele>6.0</ele><time>2026-03-28T15:07:21.999Z</time></trkpt><trkpt lat="51.042695594017445" lon="2.385643238078725"><ele>6.0</ele><time>2026-03-28T15:07:23.999Z</time></trkpt><trkpt lat="51.04262739118205" lon="2.3856567163364772"><ele>6.0</ele><time>2026-03-28T15:07:25.999Z</time></trkpt><trkpt lat="51.0425380791337" lon="2.3856562942701"><ele>6.0</ele><time>2026-03-28T15:07:28.999Z</time></trkpt><trkpt lat="51.04245279576417" lon="2.385656857870798"><ele>6.0</ele><time>2026-03-28T15:07:31.999Z</time></trkpt><trkpt lat="51.04237101317122" lon="2.385657553989642"><ele>6.0</ele><time>2026-03-28T15:07:36.999Z</time></trkpt><trkpt lat="51.0422805030141" lon="2.385670489472111"><ele>6.0</ele><time>2026-03-28T15:07:39.999Z</time></trkpt><trkpt lat="51.042201889464245" lon="2.385660503485521"><ele>6.0</ele><time>2026-03-28T15:07:42.999Z</time></trkpt><trkpt lat="51.04213981258717" lon="2.3856283539141097"><ele>6.0</ele><time>2026-03-28T15:07:45.999Z</time></trkpt><trkpt lat="51.04206770972652" lon="2.3856385204090134"><ele>5.999999999999999</ele><time>2026-03-28T15:07:48.999Z</time></trkpt><trkpt lat="51.04199649139812" lon="2.3856207352152863"><ele>6.0</ele><time>2026-03-28T15:07:51.999Z</time></trkpt><trkpt lat="51.04191925595614" lon="2.3856053404856614"><ele>6.0</ele><time>2026-03-28T15:07:54.998Z</time></trkpt><trkpt lat="51.0418433489724" lon="2.385606273729367"><ele>6.0</ele><time>2026-03-28T15:07:57.998Z</time></trkpt><trkpt lat="51.041777178311946" lon="2.3856132755312656"><ele>6.0</ele><time>2026-03-28T15:07:59.998Z</time></trkpt><trkpt lat="51.041695006901016" lon="2.385606494204528"><ele>5.999999999999999</ele><time>2026-03-28T15:08:03Z</time></trkpt><trkpt lat="51.04163220879571" lon="2.38562861922151"><ele>6.0</ele><time>2026-03-28T15:08:05Z</time></trkpt><trkpt lat="51.04154471673727" lon="2.385632496132506"><ele>5.833333333333333</ele><time>2026-03-28T15:08:08Z</time></trkpt><trkpt lat="51.041463111099425" lon="2.3856010521853896"><ele>5.666666666666667</ele><time>2026-03-28T15:08:11Z</time></trkpt><trkpt lat="51.041389314984926" lon="2.3855923718765477"><ele>5.5</ele><time>2026-03-28T15:08:14Z</time></trkpt><trkpt lat="51.04131845963063" lon="2.3855750507931597"><ele>5.333333333333334</ele><time>2026-03-28T15:08:17Z</time></trkpt><trkpt lat="51.04124123808589" lon="2.3855701189787624"><ele>5.166666666666667</ele><time>2026-03-28T15:08:20Z</time></trkpt><trkpt lat="51.04116106068719" lon="2.3855965195575797"><ele>5.0</ele><time>2026-03-28T15:08:24Z</time></trkpt><trkpt lat="51.041087799933784" lon="2.385619929535394"><ele>5.0</ele><time>2026-03-28T15:09:01.999Z</time></trkpt><trkpt lat="51.04102513338892" lon="2.3856022500465377"><ele>5.0</ele><time>2026-03-28T15:09:04.999Z</time></trkpt><trkpt lat="51.040951279194914" lon="2.3856453834695555"><ele>5.0</ele><time>2026-03-28T15:09:07.999Z</time></trkpt><trkpt lat="51.04088306279679" lon="2.3856581731921436"><ele>5.0</ele><time>2026-03-28T15:09:10.999Z</time></trkpt><trkpt lat="51.040812070608254" lon="2.385669791484166"><ele>5.0</ele><time>2026-03-28T15:09:13.999Z</time></trkpt><trkpt lat="51.04074281366437" lon="2.3856375188388688"><ele>5.0</ele><time>2026-03-28T15:09:16.999Z</time></trkpt><trkpt lat="51.0406787018151" lon="2.3856474294008216"><ele>5.0</ele><time>2026-03-28T15:09:19.999Z</time></trkpt><trkpt lat="51.04059398468725" lon="2.3856034954748933"><ele>5.5</ele><time>2026-03-28T15:09:23.999Z</time></trkpt><trkpt lat="51.0405201642413" lon="2.385623784666163"><ele>6.0</ele><time>2026-03-28T15:09:25.999Z</time></trkpt><trkpt lat="51.04044934391246" lon="2.3856306800491596"><ele>6.5</ele><time>2026-03-28T15:09:29.999Z</time></trkpt><trkpt lat="51.04037619089163" lon="2.385630686330985"><ele>7.0</ele><time>2026-03-28T15:09:32.999Z</time></trkpt><trkpt lat="51.04029148279115" lon="2.3856227860204635"><ele>7.499999999999999</ele><time>2026-03-28T15:09:35.999Z</time></trkpt><trkpt lat="51.04021288824396" lon="2.385643941442822"><ele>8.0</ele><time>2026-03-28T15:09:37.999Z</time></trkpt><trkpt lat="51.04014639073738" lon="2.3856912399602077"><ele>7.999999999999999</ele><time>2026-03-28T15:09:39.999Z</time></trkpt><trkpt lat="51.04008175501489" lon="2.38572843260108"><ele>8.0</ele><time>2026-03-28T15:09:41.999Z</time></trkpt><trkpt lat="51.03998542473036" lon="2.385740506352607"><ele>8.0</ele><time>2026-03-28T15:09:44.999Z</time></trkpt><trkpt lat="51.03990721673269" lon="2.385712957170491"><ele>8.0</ele><time>2026-03-28T15:09:47.999Z</time></trkpt><trkpt lat="51.03983225614844" lon="2.3857280262858467"><ele>7.999999999999999</ele><time>2026-03-28T15:09:50.999Z</time></trkpt><trkpt lat="51.039733400062275" lon="2.3857413025521366"><ele>8.0</ele><time>2026-03-28T15:09:53.999Z</time></trkpt><trkpt lat="51.03964318309504" lon="2.385730593980392"><ele>7.833333333333333</ele><time>2026-03-28T15:09:56.999Z</time></trkpt><trkpt lat="51.039557412065065" lon="2.3857599992318606"><ele>7.666666666666666</ele><time>2026-03-28T15:09:59.998Z</time></trkpt><trkpt lat="51.039492462855385" lon="2.3857507988705775"><ele>7.5</ele><time>2026-03-28T15:10:02.998Z</time></trkpt><trkpt lat="51.03939465602581" lon="2.385732968272824"><ele>7.333333333333334</ele><time>2026-03-28T15:10:05.998Z</time></trkpt><trkpt lat="51.039323767411204" lon="2.385748208180485"><ele>7.166666666666667</ele><time>2026-03-28T15:10:08Z</time></trkpt><trkpt lat="51.03923274937129" lon="2.385705903315008"><ele>7.0</ele><time>2026-03-28T15:10:11Z</time></trkpt><trkpt lat="51.03915426126087" lon="2.3857604311408487"><ele>7.0</ele><time>2026-03-28T15:10:13Z</time></trkpt><trkpt lat="51.03909149525491" lon="2.3857411610354884"><ele>7.0</ele><time>2026-03-28T15:10:15Z</time></trkpt><trkpt lat="51.03901292388253" lon="2.3857582430832944"><ele>7.0</ele><time>2026-03-28T15:10:19Z</time></trkpt><trkpt lat="51.03897325006108" lon="2.3858665385675524"><ele>7.0</ele><time>2026-03-28T15:10:21Z</time></trkpt><trkpt lat="51.03891610811615" lon="2.385923085172162"><ele>7.0</ele><time>2026-03-28T15:10:24Z</time></trkpt><trkpt lat="51.0388491636408" lon="2.385981667806974"><ele>7.0</ele><time>2026-03-28T15:10:27Z</time></trkpt><trkpt lat="51.038784350798345" lon="2.385971863304272"><ele>7.0</ele><time>2026-03-28T15:10:30Z</time></trkpt><trkpt lat="51.03872192999984" lon="2.386016329903531"><ele>7.000000000000001</ele><time>2026-03-28T15:10:34Z</time></trkpt><trkpt lat="51.038668293919294" lon="2.3860890582715335"><ele>7.0</ele><time>2026-03-28T15:10:37Z</time></trkpt><trkpt lat="51.03860150579035" lon="2.386165487279964"><ele>7.0</ele><time>2026-03-28T15:10:40Z</time></trkpt><trkpt lat="51.038527504616724" lon="2.386196014377676"><ele>7.0</ele><time>2026-03-28T15:10:43Z</time></trkpt><trkpt lat="51.03844232228447" lon="2.3862156017099636"><ele>7.000000000000001</ele><time>2026-03-28T15:10:46Z</time></trkpt><trkpt lat="51.03837564519113" lon="2.386272310742401"><ele>7.0</ele><time>2026-03-28T15:10:49Z</time></trkpt><trkpt lat="51.03831259289669" lon="2.386300852865319"><ele>7.285714285714286</ele><time>2026-03-28T15:10:52Z</time></trkpt><trkpt lat="51.03824501207363" lon="2.386320687222877"><ele>7.571428571428571</ele><time>2026-03-28T15:10:56Z</time></trkpt><trkpt lat="51.0381697242049" lon="2.3862700808000223"><ele>7.857142857142858</ele><time>2026-03-28T15:11:00.999Z</time></trkpt><trkpt lat="51.03810910828251" lon="2.3863028739816787"><ele>8.142857142857142</ele><time>2026-03-28T15:11:03.999Z</time></trkpt><trkpt lat="51.038043375949094" lon="2.3863354404570627"><ele>8.428571428571429</ele><time>2026-03-28T15:11:07.999Z</time></trkpt><trkpt lat="51.03797419293591" lon="2.38640213177586"><ele>8.714285714285715</ele><time>2026-03-28T15:11:11.999Z</time></trkpt><trkpt lat="51.03791051450357" lon="2.3864585595053778"><ele>9.0</ele><time>2026-03-28T15:11:14.999Z</time></trkpt><trkpt lat="51.03784364466144" lon="2.3864887539283806"><ele>9.000000000000002</ele><time>2026-03-28T15:11:17.999Z</time></trkpt><trkpt lat="51.03776294095898" lon="2.386539344496251"><ele>9.0</ele><time>2026-03-28T15:11:21.999Z</time></trkpt><trkpt lat="51.037695739230834" lon="2.3865889723265603"><ele>9.0</ele><time>2026-03-28T15:11:24.999Z</time></trkpt><trkpt lat="51.03763461026498" lon="2.386630550715309"><ele>9.0</ele><time>2026-03-28T15:11:27.999Z</time></trkpt><trkpt lat="51.037575468302414" lon="2.386677801785579"><ele>9.0</ele><time>2026-03-28T15:11:30.999Z</time></trkpt><trkpt lat="51.0374998256478" lon="2.386736762138941"><ele>9.000000000000002</ele><time>2026-03-28T15:11:35.999Z</time></trkpt><trkpt lat="51.03744693461509" lon="2.3868040245645026"><ele>9.0</ele><time>2026-03-28T15:11:38.999Z</time></trkpt><trkpt lat="51.037374179567124" lon="2.3868300261853768"><ele>8.571428571428573</ele><time>2026-03-28T15:11:43.999Z</time></trkpt><trkpt lat="51.037303552811785" lon="2.386887540474292"><ele>8.142857142857142</ele><time>2026-03-28T15:11:47.999Z</time></trkpt><trkpt lat="51.03724961236264" lon="2.386941531326087"><ele>7.714285714285714</ele><time>2026-03-28T15:11:50.999Z</time></trkpt><trkpt lat="51.03718928357011" lon="2.386991422341364"><ele>7.2857142857142865</ele><time>2026-03-28T15:12:22Z</time></trkpt><trkpt lat="51.037138145560135" lon="2.3870980704643485"><ele>6.857142857142858</ele><time>2026-03-28T15:12:25Z</time></trkpt><trkpt lat="51.03714940030214" lon="2.3872145354920087"><ele>6.428571428571428</ele><time>2026-03-28T15:12:26Z</time></trkpt><trkpt lat="51.03714199579776" lon="2.387319665398031"><ele>6.0</ele><time>2026-03-28T15:12:28Z</time></trkpt><trkpt lat="51.037140105345316" lon="2.3874651577175348"><ele>5.833333333333333</ele><time>2026-03-28T15:12:31Z</time></trkpt><trkpt lat="51.037152561804575" lon="2.3876019640825796"><ele>5.666666666666667</ele><time>2026-03-28T15:12:34Z</time></trkpt><trkpt lat="51.03715373372872" lon="2.387733019854225"><ele>5.5</ele><time>2026-03-28T15:12:37Z</time></trkpt><trkpt lat="51.03714418846205" lon="2.387866364523988"><ele>5.333333333333334</ele><time>2026-03-28T15:12:40Z</time></trkpt><trkpt lat="51.03714054850318" lon="2.3879729926966387"><ele>5.166666666666667</ele><time>2026-03-28T15:12:42Z</time></trkpt><trkpt lat="51.037138787511175" lon="2.3880870531962124"><ele>5.0</ele><time>2026-03-28T15:12:44Z</time></trkpt><trkpt lat="51.0371343134502" lon="2.388196398760742"><ele>5.0</ele><time>2026-03-28T15:12:46Z</time></trkpt><trkpt lat="51.03712947118953" lon="2.38830283210708"><ele>5.0</ele><time>2026-03-28T15:12:48Z</time></trkpt><trkpt lat="51.03707774539469" lon="2.3883725185529032"><ele>5.0</ele><time>2026-03-28T15:12:50Z</time></trkpt><trkpt lat="51.03702320782665" lon="2.388434658562262"><ele>5.0</ele><time>2026-03-28T15:12:52Z</time></trkpt><trkpt lat="51.03697981549265" lon="2.3885613054908164"><ele>5.0</ele><time>2026-03-28T15:12:55Z</time></trkpt><trkpt lat="51.036971446334626" lon="2.3887071635917176"><ele>5.0</ele><time>2026-03-28T15:12:59Z</time></trkpt><trkpt lat="51.036976351678554" lon="2.3888105526921963"><ele>4.857142857142857</ele><time>2026-03-28T15:13:02Z</time></trkpt><trkpt lat="51.036935725484305" lon="2.3889012005585153"><ele>4.714285714285714</ele><time>2026-03-28T15:13:04.999Z</time></trkpt><trkpt lat="51.03690044046418" lon="2.3890166024175543"><ele>4.571428571428571</ele><time>2026-03-28T15:13:08.999Z</time></trkpt><trkpt lat="51.036928150906796" lon="2.3891327304026264"><ele>4.428571428571429</ele><time>2026-03-28T15:13:12.999Z</time></trkpt><trkpt lat="51.036912869973555" lon="2.389229865419117"><ele>4.285714285714286</ele><time>2026-03-28T15:13:14.999Z</time></trkpt><trkpt lat="51.036883731528704" lon="2.3893279934309772"><ele>4.142857142857142</ele><time>2026-03-28T15:13:18.999Z</time></trkpt><trkpt lat="51.03686868566469" lon="2.3894536209535957"><ele>4.0</ele><time>2026-03-28T15:13:23.999Z</time></trkpt><trkpt lat="51.03686024098624" lon="2.3895581975463527"><ele>4.0</ele><time>2026-03-28T15:13:29.999Z</time></trkpt><trkpt lat="51.036817268642544" lon="2.3896582978445444"><ele>3.9999999999999996</ele><time>2026-03-28T15:13:33.999Z</time></trkpt><trkpt lat="51.03677871176459" lon="2.389750048917753"><ele>4.0</ele><time>2026-03-28T15:13:37.999Z</time></trkpt><trkpt lat="51.03673318410302" lon="2.3898589996172492"><ele>4.0</ele><time>2026-03-28T15:13:40.999Z</time></trkpt><trkpt lat="51.036693642538765" lon="2.389972916098182"><ele>3.9999999999999996</ele><time>2026-03-28T15:13:43.999Z</time></trkpt><trkpt lat="51.036644668855544" lon="2.390050553117358"><ele>4.0</ele><time>2026-03-28T15:13:49.999Z</time></trkpt><trkpt lat="51.03661505757187" lon="2.3901456926876765"><ele>4.0</ele><time>2026-03-28T15:14:02.999Z</time></trkpt><trkpt lat="51.03658421919294" lon="2.3902640457169535"><ele>3.833333333333333</ele><time>2026-03-28T15:14:06.999Z</time></trkpt><trkpt lat="51.03656463166719" lon="2.3903800368742014"><ele>3.6666666666666665</ele><time>2026-03-28T15:14:10.998Z</time></trkpt><trkpt lat="51.03658278944024" lon="2.3905184816624923"><ele>3.5</ele><time>2026-03-28T15:14:15.998Z</time></trkpt><trkpt lat="51.03654231226228" lon="2.3906555225637907"><ele>3.333333333333333</ele><time>2026-03-28T15:14:18.998Z</time></trkpt><trkpt lat="51.03650668252946" lon="2.390757878189299"><ele>3.1666666666666665</ele><time>2026-03-28T15:14:22Z</time></trkpt><trkpt lat="51.036484420410986" lon="2.3908676228556796"><ele>3.0</ele><time>2026-03-28T15:14:25Z</time></trkpt><trkpt lat="51.0364618993114" lon="2.39100748097147"><ele>3.2857142857142856</ele><time>2026-03-28T15:14:27Z</time></trkpt><trkpt lat="51.03645174492088" lon="2.391133823016558"><ele>3.571428571428571</ele><time>2026-03-28T15:14:31Z</time></trkpt><trkpt lat="51.03642358489959" lon="2.3912543278997944"><ele>3.8571428571428568</ele><time>2026-03-28T15:14:34Z</time></trkpt><trkpt lat="51.036383608209" lon="2.3913364358240976"><ele>4.142857142857142</ele><time>2026-03-28T15:14:37Z</time></trkpt><trkpt lat="51.036363948898654" lon="2.391437493218036"><ele>4.428571428571429</ele><time>2026-03-28T15:14:42Z</time></trkpt><trkpt lat="51.036344545965356" lon="2.391546770555735"><ele>4.714285714285714</ele><time>2026-03-28T15:14:44Z</time></trkpt><trkpt lat="51.036322029745484" lon="2.3916489576277753"><ele>5.0</ele><time>2026-03-28T15:14:48Z</time></trkpt><trkpt lat="51.036284773781546" lon="2.3917397116112644"><ele>5.0</ele><time>2026-03-28T15:14:52Z</time></trkpt><trkpt lat="51.03624235236219" lon="2.39181939305962"><ele>5.0</ele><time>2026-03-28T15:14:55Z</time></trkpt><trkpt lat="51.03619683700194" lon="2.3918982316787156"><ele>5.0</ele><time>2026-03-28T15:14:58Z</time></trkpt><trkpt lat="51.03613951517411" lon="2.3919765338115737"><ele>5.0</ele><time>2026-03-28T15:15:02Z</time></trkpt><trkpt lat="51.03613142962858" lon="2.392082130367432"><ele>5.0</ele><time>2026-03-28T15:15:05Z</time></trkpt><trkpt lat="51.03609584116799" lon="2.392177604801241"><ele>5.0</ele><time>2026-03-28T15:15:10.999Z</time></trkpt><trkpt lat="51.036091754955926" lon="2.3922858064021444"><ele>5.0</ele><time>2026-03-28T15:15:13.999Z</time></trkpt><trkpt lat="51.036049965849664" lon="2.3923774599204943"><ele>4.857142857142857</ele><time>2026-03-28T15:15:19.999Z</time></trkpt><trkpt lat="51.036029072753486" lon="2.392484065288936"><ele>4.714285714285714</ele><time>2026-03-28T15:15:25.999Z</time></trkpt><trkpt lat="51.036023693156885" lon="2.3925985621128847"><ele>4.571428571428571</ele><time>2026-03-28T15:15:30.999Z</time></trkpt><trkpt lat="51.03602925524237" lon="2.3926984047041655"><ele>4.428571428571429</ele><time>2026-03-28T15:15:36.999Z</time></trkpt><trkpt lat="51.03601951862235" lon="2.3928171837503065"><ele>4.285714285714286</ele><time>2026-03-28T15:15:40.999Z</time></trkpt><trkpt lat="51.03596439258005" lon="2.3928790908450863"><ele>4.142857142857142</ele><time>2026-03-28T15:15:44.999Z</time></trkpt><trkpt lat="51.03592705938407" lon="2.392960992912828"><ele>4.0</ele><time>2026-03-28T15:15:48.999Z</time></trkpt><trkpt lat="51.0358752970607" lon="2.3930301041057667"><ele>3.9999999999999996</ele><time>2026-03-28T15:15:54.999Z</time></trkpt><trkpt lat="51.03584497781733" lon="2.3931359457113857"><ele>4.0</ele><time>2026-03-28T15:16:11.999Z</time></trkpt><trkpt lat="51.03589165255506" lon="2.3932378222567294"><ele>4.0</ele><time>2026-03-28T15:16:14.999Z</time></trkpt><trkpt lat="51.035921091315146" lon="2.39335265424337"><ele>4.0</ele><time>2026-03-28T15:16:17.998Z</time></trkpt><trkpt lat="51.035994453510604" lon="2.393344208277602"><ele>3.9999999999999996</ele><time>2026-03-28T15:16:20.998Z</time></trkpt><trkpt lat="51.03604240823978" lon="2.3932731639824945"><ele>4.0</ele><time>2026-03-28T15:16:22.998Z</time></trkpt><trkpt lat="51.03612460427744" lon="2.39322580540326"><ele>4.0</ele><time>2026-03-28T15:16:24.998Z</time></trkpt><trkpt lat="51.036179165599115" lon="2.393167657267384"><ele>3.9999999999999996</ele><time>2026-03-28T15:16:27Z</time></trkpt><trkpt lat="51.03624578028617" lon="2.3931241846302895"><ele>4.0</ele><time>2026-03-28T15:16:30Z</time></trkpt><trkpt lat="51.03630198307218" lon="2.39303973227679"><ele>4.0</ele><time>2026-03-28T15:16:34Z</time></trkpt><trkpt lat="51.0363715825108" lon="2.392965523699372"><ele>3.9999999999999996</ele><time>2026-03-28T15:16:36Z</time></trkpt><trkpt lat="51.03643455149696" lon="2.3929133609019058"><ele>4.0</ele><time>2026-03-28T15:16:39Z</time></trkpt><trkpt lat="51.03649594863841" lon="2.3928704440761215"><ele>4.0</ele><time>2026-03-28T15:16:42Z</time></trkpt><trkpt lat="51.03654212947357" lon="2.39276011273262"><ele>4.0</ele><time>2026-03-28T15:16:47Z</time></trkpt><trkpt lat="51.03661463731574" lon="2.392709389836105"><ele>4.0</ele><time>2026-03-28T15:16:52Z</time></trkpt><trkpt lat="51.03666498700418" lon="2.392626860219764"><ele>4.0</ele><time>2026-03-28T15:16:57Z</time></trkpt><trkpt lat="51.03675969956895" lon="2.3924138233502696"><ele>4.0</ele><time>2026-03-28T15:17:02Z</time></trkpt><trkpt lat="51.0368543188641" lon="2.3924163120763606"><ele>4.0</ele><time>2026-03-28T15:17:09Z</time></trkpt><trkpt lat="51.037034627350984" lon="2.3922579659018104"><ele>3.9999999999999996</ele><time>2026-03-28T15:17:26.999Z</time></trkpt><trkpt lat="51.03710984101367" lon="2.3921996444585765"><ele>4.0</ele><time>2026-03-28T15:17:30.999Z</time></trkpt><trkpt lat="51.037181553686274" lon="2.392147455617793"><ele>4.0</ele><time>2026-03-28T15:17:33.999Z</time></trkpt><trkpt lat="51.03726594435422" lon="2.3921838067550616"><ele>4.0</ele><time>2026-03-28T15:17:37.999Z</time></trkpt><trkpt lat="51.03731070641995" lon="2.392259274767379"><ele>3.9999999999999996</ele><time>2026-03-28T15:17:40.999Z</time></trkpt><trkpt lat="51.03736473773978" lon="2.3923385483998123"><ele>4.0</ele><time>2026-03-28T15:17:43.999Z</time></trkpt><trkpt lat="51.037384666345325" lon="2.3924382287703594"><ele>4.0</ele><time>2026-03-28T15:17:46.999Z</time></trkpt><trkpt lat="51.03743335701083" lon="2.392525606723415"><ele>3.9999999999999996</ele><time>2026-03-28T15:17:50.999Z</time></trkpt><trkpt lat="51.03748525909101" lon="2.3926135246652334"><ele>4.0</ele><time>2026-03-28T15:17:54.999Z</time></trkpt><trkpt lat="51.03755495106587" lon="2.3927039023084626"><ele>4.0</ele><time>2026-03-28T15:17:59.999Z</time></trkpt><trkpt lat="51.03759939868077" lon="2.3927923041803365"><ele>3.9999999999999996</ele><time>2026-03-28T15:18:03.999Z</time></trkpt><trkpt lat="51.03761078829023" lon="2.3928939668338285"><ele>4.0</ele><time>2026-03-28T15:18:06.999Z</time></trkpt><trkpt lat="51.03768093604654" lon="2.392919308468985"><ele>4.0</ele><time>2026-03-28T15:18:09.999Z</time></trkpt><trkpt lat="51.037742113095206" lon="2.3928611403195585"><ele>4.142857142857142</ele><time>2026-03-28T15:18:12.999Z</time></trkpt><trkpt lat="51.03781987690889" lon="2.3928488251607685"><ele>4.285714285714286</ele><time>2026-03-28T15:18:16.999Z</time></trkpt><trkpt lat="51.03789971444994" lon="2.392828051171323"><ele>4.428571428571429</ele><time>2026-03-28T15:18:22.998Z</time></trkpt><trkpt lat="51.037953991009466" lon="2.392756909192134"><ele>4.571428571428571</ele><time>2026-03-28T15:18:25.998Z</time></trkpt><trkpt lat="51.03802022357542" lon="2.3927044178690053"><ele>4.714285714285714</ele><time>2026-03-28T15:18:28.998Z</time></trkpt><trkpt lat="51.03808778909578" lon="2.3926635697216763"><ele>4.857142857142857</ele><time>2026-03-28T15:18:32Z</time></trkpt><trkpt lat="51.03811108903689" lon="2.3925654274861694"><ele>5.0</ele><time>2026-03-28T15:18:35Z</time></trkpt><trkpt lat="51.03809273079689" lon="2.39242363827243"><ele>5.0</ele><time>2026-03-28T15:18:38Z</time></trkpt><trkpt lat="51.03805964807148" lon="2.3922960198528855"><ele>5.0</ele><time>2026-03-28T15:18:42Z</time></trkpt><trkpt lat="51.03805570174921" lon="2.392174054056428"><ele>5.0</ele><time>2026-03-28T15:18:45Z</time></trkpt><trkpt lat="51.03804891463226" lon="2.392068037116023"><ele>5.0</ele><time>2026-03-28T15:18:47Z</time></trkpt><trkpt lat="51.0380830448002" lon="2.391937487908133"><ele>5.0</ele><time>2026-03-28T15:18:50Z</time></trkpt><trkpt lat="51.03807983706531" lon="2.391795757549557"><ele>5.0</ele><time>2026-03-28T15:18:53Z</time></trkpt><trkpt lat="51.03804936286476" lon="2.3916915987934546"><ele>5.0</ele><time>2026-03-28T15:18:55Z</time></trkpt><trkpt lat="51.03798484721157" lon="2.391614587412878"><ele>5.0</ele><time>2026-03-28T15:18:58Z</time></trkpt><trkpt lat="51.03793742109323" lon="2.391531424258085"><ele>5.0</ele><time>2026-03-28T15:19:02Z</time></trkpt><trkpt lat="51.037929462053135" lon="2.391413756868388"><ele>5.0</ele><time>2026-03-28T15:19:07Z</time></trkpt><trkpt lat="51.03799280595328" lon="2.3913681144362653"><ele>5.0</ele><time>2026-03-28T15:19:10.999Z</time></trkpt><trkpt lat="51.03806422368389" lon="2.3913367766306064"><ele>5.0</ele><time>2026-03-28T15:19:14.999Z</time></trkpt><trkpt lat="51.03815292324311" lon="2.391280982532027"><ele>5.166666666666667</ele><time>2026-03-28T15:19:18.999Z</time></trkpt><trkpt lat="51.03821580292114" lon="2.3912105786208757"><ele>5.333333333333334</ele><time>2026-03-28T15:19:21.999Z</time></trkpt><trkpt lat="51.03828137658315" lon="2.391146398428768"><ele>5.5</ele><time>2026-03-28T15:19:24.999Z</time></trkpt><trkpt lat="51.03834580456564" lon="2.3911141412069665"><ele>5.666666666666667</ele><time>2026-03-28T15:19:26.999Z</time></trkpt><trkpt lat="51.03841003911427" lon="2.391040340536007"><ele>5.833333333333333</ele><time>2026-03-28T15:19:29.999Z</time></trkpt><trkpt lat="51.03846969443524" lon="2.3909705503635346"><ele>6.0</ele><time>2026-03-28T15:19:32.999Z</time></trkpt><trkpt lat="51.03854617654234" lon="2.390923346329742"><ele>5.666666666666667</ele><time>2026-03-28T15:19:35.999Z</time></trkpt><trkpt lat="51.038635330523064" lon="2.390889030316923"><ele>5.333333333333333</ele><time>2026-03-28T15:19:38.999Z</time></trkpt><trkpt lat="51.0387156646082" lon="2.390871219572651"><ele>5.0</ele><time>2026-03-28T15:19:41.999Z</time></trkpt><trkpt lat="51.03879498542158" lon="2.390873037481378"><ele>4.666666666666666</ele><time>2026-03-28T15:19:44.999Z</time></trkpt><trkpt lat="51.038860637964184" lon="2.390929077447657"><ele>4.333333333333333</ele><time>2026-03-28T15:19:48.999Z</time></trkpt><trkpt lat="51.03887232780743" lon="2.3910779241058693"><ele>4.0</ele><time>2026-03-28T15:19:51.999Z</time></trkpt><trkpt lat="51.0388920219203" lon="2.3911799140879193"><ele>3.9999999999999996</ele><time>2026-03-28T15:19:53.999Z</time></trkpt><trkpt lat="51.03889520212392" lon="2.3912864759174024"><ele>4.0</ele><time>2026-03-28T15:19:55.999Z</time></trkpt><trkpt lat="51.03892196734392" lon="2.391394981775609"><ele>4.0</ele><time>2026-03-28T15:19:58.999Z</time></trkpt><trkpt lat="51.038932668617186" lon="2.391499705890246"><ele>4.0</ele><time>2026-03-28T15:20:02.999Z</time></trkpt><trkpt lat="51.03901423485929" lon="2.391501142994683"><ele>3.9999999999999996</ele><time>2026-03-28T15:20:04.999Z</time></trkpt><trkpt lat="51.03908870628458" lon="2.391461086548101"><ele>4.0</ele><time>2026-03-28T15:20:06.999Z</time></trkpt><trkpt lat="51.03917493821853" lon="2.3914285865035048"><ele>4.333333333333333</ele><time>2026-03-28T15:20:09.999Z</time></trkpt><trkpt lat="51.039241919212074" lon="2.3914181113514923"><ele>4.666666666666666</ele><time>2026-03-28T15:20:11.999Z</time></trkpt><trkpt lat="51.039352840919356" lon="2.3913830013683026"><ele>5.0</ele><time>2026-03-28T15:20:15.999Z</time></trkpt><trkpt lat="51.03942810159045" lon="2.391342224639457"><ele>5.333333333333333</ele><time>2026-03-28T15:20:19.999Z</time></trkpt><trkpt lat="51.03946042319175" lon="2.3912184882730245"><ele>5.666666666666667</ele><time>2026-03-28T15:20:23.999Z</time></trkpt><trkpt lat="51.03946387295403" lon="2.391070481336644"><ele>6.0</ele><time>2026-03-28T15:20:26.998Z</time></trkpt><trkpt lat="51.03944988256211" lon="2.390954089526333"><ele>5.999999999999999</ele><time>2026-03-28T15:20:29.998Z</time></trkpt><trkpt lat="51.039414478232715" lon="2.390846832621208"><ele>6.0</ele><time>2026-03-28T15:20:33.998Z</time></trkpt><trkpt lat="51.03940628104795" lon="2.3907185682592313"><ele>6.0</ele><time>2026-03-28T15:20:36.998Z</time></trkpt><trkpt lat="51.03940067432502" lon="2.390597950860231"><ele>6.0</ele><time>2026-03-28T15:20:39Z</time></trkpt><trkpt lat="51.03940384627203" lon="2.390478431800325"><ele>6.0</ele><time>2026-03-28T15:20:42Z</time></trkpt><trkpt lat="51.03939266983052" lon="2.39037302316819"><ele>5.999999999999999</ele><time>2026-03-28T15:20:45Z</time></trkpt><trkpt lat="51.03938131451928" lon="2.3902725203611768"><ele>6.0</ele><time>2026-03-28T15:20:48Z</time></trkpt><trkpt lat="51.03942240882827" lon="2.390194972131583"><ele>6.0</ele><time>2026-03-28T15:20:50Z</time></trkpt><trkpt lat="51.03933649849259" lon="2.390115361423769"><ele>6.0</ele><time>2026-03-28T15:20:54Z</time></trkpt><trkpt lat="51.03928633267264" lon="2.390004001385161"><ele>6.0</ele><time>2026-03-28T15:20:57Z</time></trkpt><trkpt lat="51.03930847286801" lon="2.3898750695583635"><ele>6.0</ele><time>2026-03-28T15:20:59Z</time></trkpt><trkpt lat="51.039394998283726" lon="2.3898056421489127"><ele>6.0</ele><time>2026-03-28T15:21:02Z</time></trkpt><trkpt lat="51.03954273405697" lon="2.389807204327607"><ele>6.0</ele><time>2026-03-28T15:21:14Z</time></trkpt><trkpt lat="51.0396104686585" lon="2.3897986207919675"><ele>6.0</ele><time>2026-03-28T15:21:17Z</time></trkpt><trkpt lat="51.03967138344073" lon="2.38974930951293"><ele>6.0</ele><time>2026-03-28T15:21:19Z</time></trkpt><trkpt lat="51.0397311270178" lon="2.38968505733977"><ele>6.0</ele><time>2026-03-28T15:21:22Z</time></trkpt><trkpt lat="51.03991036721862" lon="2.3896880059867924"><ele>6.0</ele><time>2026-03-28T15:21:30.999Z</time></trkpt><trkpt lat="51.03997621101324" lon="2.389734701996777"><ele>6.333333333333333</ele><time>2026-03-28T15:21:33.999Z</time></trkpt><trkpt lat="51.040050864438534" lon="2.3897510292635205"><ele>6.666666666666666</ele><time>2026-03-28T15:21:35.999Z</time></trkpt><trkpt lat="51.040125924676474" lon="2.3897692032302844"><ele>7.0</ele><time>2026-03-28T15:21:38.999Z</time></trkpt><trkpt lat="51.040239328575616" lon="2.389697368772344"><ele>7.333333333333333</ele><time>2026-03-28T15:21:48.999Z</time></trkpt><trkpt lat="51.040171818044" lon="2.3896724294543996"><ele>7.666666666666666</ele><time>2026-03-28T15:21:52.999Z</time></trkpt><trkpt lat="51.040112917295104" lon="2.3896283793268087"><ele>8.0</ele><time>2026-03-28T15:21:54.999Z</time></trkpt><trkpt lat="51.04004014469244" lon="2.389578881263565"><ele>7.857142857142857</ele><time>2026-03-28T15:21:56.999Z</time></trkpt><trkpt lat="51.03996624764447" lon="2.3895548137661984"><ele>7.7142857142857135</ele><time>2026-03-28T15:21:58.999Z</time></trkpt><trkpt lat="51.0399027259296" lon="2.3895208282154208"><ele>7.571428571428571</ele><time>2026-03-28T15:22:04.999Z</time></trkpt><trkpt lat="51.03981463521534" lon="2.3895186581660033"><ele>7.428571428571429</ele><time>2026-03-28T15:22:10.999Z</time></trkpt><trkpt lat="51.03975103132572" lon="2.389504025857197"><ele>7.285714285714286</ele><time>2026-03-28T15:22:13.999Z</time></trkpt><trkpt lat="51.039683020321355" lon="2.3894976396629293"><ele>7.142857142857142</ele><time>2026-03-28T15:22:16.999Z</time></trkpt><trkpt lat="51.039601707022705" lon="2.389487487979483"><ele>7.0</ele><time>2026-03-28T15:22:19.999Z</time></trkpt><trkpt lat="51.03953536755334" lon="2.3895063019548246"><ele>7.0</ele><time>2026-03-28T15:22:23.999Z</time></trkpt><trkpt lat="51.03951077204496" lon="2.3896275432457568"><ele>7.0</ele><time>2026-03-28T15:22:28.999Z</time></trkpt><trkpt lat="51.03974339136473" lon="2.389643458976735"><ele>7.0</ele><time>2026-03-28T15:22:44Z</time></trkpt><trkpt lat="51.039925096793745" lon="2.3896510991430397"><ele>7.166666666666667</ele><time>2026-03-28T15:22:55Z</time></trkpt><trkpt lat="51.03999539908823" lon="2.3896698160403305"><ele>7.333333333333334</ele><time>2026-03-28T15:23:23Z</time></trkpt><trkpt lat="51.04006153143131" lon="2.38970074613235"><ele>7.5</ele><time>2026-03-28T15:23:30Z</time></trkpt><trkpt lat="51.04013614374122" lon="2.3897113826547525"><ele>7.666666666666666</ele><time>2026-03-28T15:23:35Z</time></trkpt><trkpt lat="51.040240350119305" lon="2.389703081905893"><ele>7.833333333333333</ele><time>2026-03-28T15:23:40.999Z</time></trkpt><trkpt lat="51.040318541593166" lon="2.3896609999607814"><ele>8.0</ele><time>2026-03-28T15:23:45.999Z</time></trkpt><trkpt lat="51.04046559756751" lon="2.3896507402457376"><ele>8.5</ele><time>2026-03-28T15:23:53.999Z</time></trkpt><trkpt lat="51.04053594850216" lon="2.389620408782658"><ele>9.0</ele><time>2026-03-28T15:24:00.999Z</time></trkpt><trkpt lat="51.04060528854687" lon="2.389600346326894"><ele>9.5</ele><time>2026-03-28T15:24:04.999Z</time></trkpt><trkpt lat="51.040846396720376" lon="2.389586462959547"><ele>10.0</ele><time>2026-03-28T15:24:15.999Z</time></trkpt><trkpt lat="51.040898914165616" lon="2.389649090104332"><ele>10.0</ele><time>2026-03-28T15:24:18.999Z</time></trkpt><trkpt lat="51.04097749770761" lon="2.3896743897780857"><ele>10.0</ele><time>2026-03-28T15:24:22.999Z</time></trkpt><trkpt lat="51.04104946367402" lon="2.3897196106594487"><ele>10.0</ele><time>2026-03-28T15:24:27.999Z</time></trkpt><trkpt lat="51.04111933718485" lon="2.3898062374734192"><ele>10.0</ele><time>2026-03-28T15:24:31.999Z</time></trkpt><trkpt lat="51.04115212269594" lon="2.38993184974832"><ele>10.0</ele><time>2026-03-28T15:24:34.999Z</time></trkpt><trkpt lat="51.04118508343933" lon="2.3900638270178725"><ele>10.0</ele><time>2026-03-28T15:24:37.999Z</time></trkpt><trkpt lat="51.04121856395468" lon="2.390200690520224"><ele>9.666666666666668</ele><time>2026-03-28T15:24:40.999Z</time></trkpt><trkpt lat="51.04125269282148" lon="2.390313545620438"><ele>9.333333333333334</ele><time>2026-03-28T15:24:43.999Z</time></trkpt><trkpt lat="51.04129499374197" lon="2.390434647820136"><ele>9.0</ele><time>2026-03-28T15:24:47.999Z</time></trkpt><trkpt lat="51.041321641881794" lon="2.3905268051208277"><ele>8.666666666666666</ele><time>2026-03-28T15:24:51Z</time></trkpt><trkpt lat="51.041378035797344" lon="2.390612460403389"><ele>8.333333333333332</ele><time>2026-03-28T15:24:54Z</time></trkpt><trkpt lat="51.04140594938207" lon="2.3907139764866505"><ele>8.0</ele><time>2026-03-28T15:24:57Z</time></trkpt><trkpt lat="51.04159779225701" lon="2.3907442778104597"><ele>7.999999999999999</ele><time>2026-03-28T15:25:18Z</time></trkpt><trkpt lat="51.04161686904042" lon="2.3906400522590148"><ele>8.0</ele><time>2026-03-28T15:25:20Z</time></trkpt><trkpt lat="51.04164719647614" lon="2.3905416355905396"><ele>8.0</ele><time>2026-03-28T15:25:24Z</time></trkpt><trkpt lat="51.041719500217475" lon="2.3905199186216013"><ele>8.0</ele><time>2026-03-28T15:25:27Z</time></trkpt><trkpt lat="51.04178502150885" lon="2.390474388306909"><ele>7.999999999999999</ele><time>2026-03-28T15:25:31Z</time></trkpt><trkpt lat="51.04187212310317" lon="2.390472847570336"><ele>8.0</ele><time>2026-03-28T15:25:38Z</time></trkpt><trkpt lat="51.0419653025415" lon="2.390456294303512"><ele>8.0</ele><time>2026-03-28T15:25:43.999Z</time></trkpt><trkpt lat="51.042097430721874" lon="2.3904574110789336"><ele>8.0</ele><time>2026-03-28T15:25:48.999Z</time></trkpt><trkpt lat="51.04216159913102" lon="2.390478534034304"><ele>8.0</ele><time>2026-03-28T15:25:52.999Z</time></trkpt><trkpt lat="51.042264363359266" lon="2.390477570888849"><ele>8.0</ele><time>2026-03-28T15:25:58.999Z</time></trkpt><trkpt lat="51.04232800477154" lon="2.3904732787486136"><ele>8.0</ele><time>2026-03-28T15:26:01.999Z</time></trkpt><trkpt lat="51.042451106663925" lon="2.390442117141256"><ele>8.4</ele><time>2026-03-28T15:26:08.999Z</time></trkpt><trkpt lat="51.04255211692771" lon="2.390432044006795"><ele>8.8</ele><time>2026-03-28T15:26:12.999Z</time></trkpt><trkpt lat="51.04273953171376" lon="2.3904695624381476"><ele>9.2</ele><time>2026-03-28T15:26:22.999Z</time></trkpt><trkpt lat="51.04280284217365" lon="2.390473397656363"><ele>9.6</ele><time>2026-03-28T15:26:25.999Z</time></trkpt><trkpt lat="51.04288402981116" lon="2.390455655128358"><ele>10.0</ele><time>2026-03-28T15:26:29.999Z</time></trkpt><trkpt lat="51.043033738322514" lon="2.3904654781487373"><ele>10.0</ele><time>2026-03-28T15:26:36.999Z</time></trkpt><trkpt lat="51.04324001908284" lon="2.3904494522306905"><ele>10.0</ele><time>2026-03-28T15:26:45.999Z</time></trkpt><trkpt lat="51.043311419713255" lon="2.3904440127169093"><ele>10.0</ele><time>2026-03-28T15:26:48.999Z</time></trkpt><trkpt lat="51.04338702171445" lon="2.390430113157796"><ele>10.0</ele><time>2026-03-28T15:26:54.998Z</time></trkpt><trkpt lat="51.0434588606404" lon="2.3904476934998184"><ele>10.0</ele><time>2026-03-28T15:26:58Z</time></trkpt><trkpt lat="51.043656854931484" lon="2.390469457898987"><ele>9.25</ele><time>2026-03-28T15:27:06Z</time></trkpt><trkpt lat="51.04376669829691" lon="2.390475284143368"><ele>8.5</ele><time>2026-03-28T15:27:11Z</time></trkpt><trkpt lat="51.0438743162357" lon="2.3904678398809533"><ele>7.75</ele><time>2026-03-28T15:27:15Z</time></trkpt><trkpt lat="51.04407803242717" lon="2.390467736319497"><ele>7.0</ele><time>2026-03-28T15:27:24Z</time></trkpt><trkpt lat="51.04426397791291" lon="2.390452881796078"><ele>7.0</ele><time>2026-03-28T15:27:33Z</time></trkpt><trkpt lat="51.04445997080883" lon="2.390455840488021"><ele>6.999999999999999</ele><time>2026-03-28T15:27:41Z</time></trkpt><trkpt lat="51.04451488918699" lon="2.3905717917750913"><ele>6.999999999999999</ele><time>2026-03-28T15:27:44Z</time></trkpt><trkpt lat="51.04454352917272" lon="2.3906835187295137"><ele>7.0</ele><time>2026-03-28T15:27:47Z</time></trkpt><trkpt lat="51.044582356250984" lon="2.3907995655716054"><ele>7.0</ele><time>2026-03-28T15:27:49.999Z</time></trkpt><trkpt lat="51.0446071929001" lon="2.3908992598998293"><ele>7.000000000000001</ele><time>2026-03-28T15:27:51.999Z</time></trkpt><trkpt lat="51.044630114646445" lon="2.391019728262649"><ele>7.0</ele><time>2026-03-28T15:27:54.999Z</time></trkpt><trkpt lat="51.04465657171368" lon="2.3911538868033575"><ele>7.0</ele><time>2026-03-28T15:27:57.999Z</time></trkpt><trkpt lat="51.04469734027248" lon="2.391254592842856"><ele>7.0</ele><time>2026-03-28T15:27:59.999Z</time></trkpt><trkpt lat="51.04473494863877" lon="2.39137618436169"><ele>7.000000000000001</ele><time>2026-03-28T15:28:01.999Z</time></trkpt><trkpt lat="51.04473328294575" lon="2.3915118957281103"><ele>7.0</ele><time>2026-03-28T15:28:08.999Z</time></trkpt><trkpt lat="51.044784893002294" lon="2.3916297617354263"><ele>7.000000000000001</ele><time>2026-03-28T15:28:12.999Z</time></trkpt><trkpt lat="51.04482545332909" lon="2.391773980561607"><ele>7.0</ele><time>2026-03-28T15:28:14.999Z</time></trkpt><trkpt lat="51.04487394523986" lon="2.3918822298833016"><ele>7.0</ele><time>2026-03-28T15:28:16.999Z</time></trkpt><trkpt lat="51.04489145583629" lon="2.391991647743572"><ele>7.0</ele><time>2026-03-28T15:28:18.999Z</time></trkpt><trkpt lat="51.04492031215798" lon="2.3921215821182003"><ele>7.000000000000001</ele><time>2026-03-28T15:28:20.999Z</time></trkpt><trkpt lat="51.044944422541484" lon="2.3922448675411987"><ele>7.0</ele><time>2026-03-28T15:28:22.999Z</time></trkpt><trkpt lat="51.04497601865816" lon="2.3923377252209805"><ele>7.0</ele><time>2026-03-28T15:28:25.999Z</time></trkpt><trkpt lat="51.04495131781427" lon="2.3924678940765136"><ele>7.0</ele><time>2026-03-28T15:28:27.999Z</time></trkpt><trkpt lat="51.04499275897748" lon="2.3925655804051162"><ele>7.0</ele><time>2026-03-28T15:28:31.999Z</time></trkpt><trkpt lat="51.04505673630629" lon="2.39262178522352"><ele>7.0</ele><time>2026-03-28T15:28:34.999Z</time></trkpt><trkpt lat="51.04504827394401" lon="2.3927382973638136"><ele>7.0</ele><time>2026-03-28T15:28:37.999Z</time></trkpt><trkpt lat="51.04505318333811" lon="2.3928558071631283"><ele>7.0</ele><time>2026-03-28T15:28:40.999Z</time></trkpt><trkpt lat="51.04503456973645" lon="2.392952168486922"><ele>7.0</ele><time>2026-03-28T15:28:44.999Z</time></trkpt><trkpt lat="51.04506080056481" lon="2.3930741854636066"><ele>7.000000000000001</ele><time>2026-03-28T15:28:49.999Z</time></trkpt><trkpt lat="51.045096125237535" lon="2.3931753868927528"><ele>7.0</ele><time>2026-03-28T15:28:52.999Z</time></trkpt><trkpt lat="51.04512269702242" lon="2.3932973559207245"><ele>7.0</ele><time>2026-03-28T15:28:55.999Z</time></trkpt><trkpt lat="51.04516065177629" lon="2.393396620149089"><ele>7.0</ele><time>2026-03-28T15:28:58.999Z</time></trkpt><trkpt lat="51.04522483895191" lon="2.3934993384739007"><ele>7.000000000000001</ele><time>2026-03-28T15:29:03Z</time></trkpt><trkpt lat="51.045252465238235" lon="2.3936088501730186"><ele>7.0</ele><time>2026-03-28T15:29:07Z</time></trkpt><trkpt lat="51.045297259075156" lon="2.393716273294504"><ele>7.000000000000001</ele><time>2026-03-28T15:29:11Z</time></trkpt><trkpt lat="51.04532693942903" lon="2.393830078117142"><ele>7.0</ele><time>2026-03-28T15:29:14Z</time></trkpt><trkpt lat="51.04535889359646" lon="2.3939491461243096"><ele>7.0</ele><time>2026-03-28T15:29:17Z</time></trkpt><trkpt lat="51.04537376598012" lon="2.3940551086038857"><ele>7.0</ele><time>2026-03-28T15:29:20Z</time></trkpt><trkpt lat="51.045385676169076" lon="2.394199299674419"><ele>7.000000000000001</ele><time>2026-03-28T15:29:24Z</time></trkpt><trkpt lat="51.045411181363946" lon="2.3942964817199632"><ele>7.0</ele><time>2026-03-28T15:29:28Z</time></trkpt><trkpt lat="51.0454563197599" lon="2.3943922106660396"><ele>7.166666666666667</ele><time>2026-03-28T15:29:31Z</time></trkpt><trkpt lat="51.045479351660966" lon="2.394523288372832"><ele>7.333333333333334</ele><time>2026-03-28T15:29:35Z</time></trkpt><trkpt lat="51.045519710645905" lon="2.3946487932478786"><ele>7.5</ele><time>2026-03-28T15:29:37Z</time></trkpt><trkpt lat="51.045534732933845" lon="2.3947475965557383"><ele>7.666666666666666</ele><time>2026-03-28T15:29:47Z</time></trkpt><trkpt lat="51.0455429863318" lon="2.394880931255365"><ele>7.833333333333333</ele><time>2026-03-28T15:29:51Z</time></trkpt><trkpt lat="51.04562862322348" lon="2.394930346217262"><ele>8.0</ele><time>2026-03-28T15:29:54.999Z</time></trkpt><trkpt lat="51.04557195173703" lon="2.395027294804658"><ele>7.999999999999999</ele><time>2026-03-28T15:29:58.999Z</time></trkpt><trkpt lat="51.04559688313282" lon="2.3951926837767115"><ele>8.0</ele><time>2026-03-28T15:30:01.999Z</time></trkpt><trkpt lat="51.045608523922965" lon="2.395325325803959"><ele>8.0</ele><time>2026-03-28T15:30:04.999Z</time></trkpt><trkpt lat="51.045669195017645" lon="2.395440603441202"><ele>8.0</ele><time>2026-03-28T15:30:09.999Z</time></trkpt><trkpt lat="51.04569550709508" lon="2.3955337873542506"><ele>7.999999999999999</ele><time>2026-03-28T15:30:11.999Z</time></trkpt><trkpt lat="51.045723301338526" lon="2.3956370862021332"><ele>8.0</ele><time>2026-03-28T15:30:13.999Z</time></trkpt><trkpt lat="51.04567301626585" lon="2.395757062999286"><ele>8.0</ele><time>2026-03-28T15:30:17.999Z</time></trkpt><trkpt lat="51.04575113963171" lon="2.39581876967868"><ele>8.0</ele><time>2026-03-28T15:30:20.999Z</time></trkpt><trkpt lat="51.0458284282227" lon="2.3958424405655445"><ele>8.0</ele><time>2026-03-28T15:30:24.999Z</time></trkpt><trkpt lat="51.04600829183008" lon="2.3958694929479245"><ele>8.0</ele><time>2026-03-28T15:30:53.999Z</time></trkpt><trkpt lat="51.04606044628867" lon="2.395802131609913"><ele>8.0</ele><time>2026-03-28T15:30:56.999Z</time></trkpt><trkpt lat="51.04615512406782" lon="2.395761363286141"><ele>8.200000000000001</ele><time>2026-03-28T15:30:59.999Z</time></trkpt><trkpt lat="51.04622715170093" lon="2.395755255678674"><ele>8.4</ele><time>2026-03-28T15:31:01.999Z</time></trkpt><trkpt lat="51.04630145750961" lon="2.3957010632827127"><ele>8.600000000000001</ele><time>2026-03-28T15:31:03.998Z</time></trkpt><trkpt lat="51.04643109328253" lon="2.3956335147949837"><ele>8.8</ele><time>2026-03-28T15:31:09Z</time></trkpt><trkpt lat="51.04650309603125" lon="2.395589870415877"><ele>9.0</ele><time>2026-03-28T15:31:13Z</time></trkpt><trkpt lat="51.04657938958577" lon="2.395525966273648"><ele>9.0</ele><time>2026-03-28T15:31:16Z</time></trkpt><trkpt lat="51.0467634731924" lon="2.3955159326924775"><ele>9.0</ele><time>2026-03-28T15:31:24Z</time></trkpt><trkpt lat="51.0468492988217" lon="2.3954526307138155"><ele>9.0</ele><time>2026-03-28T15:31:27Z</time></trkpt><trkpt lat="51.046916018347666" lon="2.3953891191794976"><ele>9.0</ele><time>2026-03-28T15:31:30Z</time></trkpt><trkpt lat="51.04697229221395" lon="2.3953339797767947"><ele>9.0</ele><time>2026-03-28T15:31:33Z</time></trkpt><trkpt lat="51.04703742053575" lon="2.3952967788650255"><ele>9.0</ele><time>2026-03-28T15:31:35Z</time></trkpt><trkpt lat="51.04725688474791" lon="2.3952805627727525"><ele>9.0</ele><time>2026-03-28T15:31:44Z</time></trkpt><trkpt lat="51.04731040968987" lon="2.3951952878505316"><ele>9.0</ele><time>2026-03-28T15:31:46Z</time></trkpt><trkpt lat="51.047405196406004" lon="2.3951403839339314"><ele>9.0</ele><time>2026-03-28T15:31:52Z</time></trkpt><trkpt lat="51.04751997005496" lon="2.3951108485567767"><ele>9.0</ele><time>2026-03-28T15:31:57.999Z</time></trkpt><trkpt lat="51.04770077018074" lon="2.3950681338036883"><ele>9.0</ele><time>2026-03-28T15:33:17Z</time></trkpt><trkpt lat="51.0476268564654" lon="2.3950279239058667"><ele>9.0</ele><time>2026-03-28T15:33:45Z</time></trkpt><trkpt lat="51.04765237504517" lon="2.394935966595923"><ele>9.0</ele><time>2026-03-28T15:33:54Z</time></trkpt><trkpt lat="51.04765255065401" lon="2.3948194442299138"><ele>9.0</ele><time>2026-03-28T15:33:57Z</time></trkpt><trkpt lat="51.04757378890062" lon="2.3946982787284634"><ele>9.0</ele><time>2026-03-28T15:34:01.999Z</time></trkpt><trkpt lat="51.04749743867967" lon="2.394640009353061"><ele>9.0</ele><time>2026-03-28T15:34:04.999Z</time></trkpt><trkpt lat="51.047486159730894" lon="2.3945083912050276"><ele>9.0</ele><time>2026-03-28T15:34:09.999Z</time></trkpt><trkpt lat="51.047490162430364" lon="2.3944047773344637"><ele>9.0</ele><time>2026-03-28T15:34:13.999Z</time></trkpt><trkpt lat="51.047666435918444" lon="2.3943960798323594"><ele>9.0</ele><time>2026-03-28T15:34:21.999Z</time></trkpt><trkpt lat="51.04772884250455" lon="2.394483864571151"><ele>9.000000000000002</ele><time>2026-03-28T15:34:33.999Z</time></trkpt><trkpt lat="51.047715878335346" lon="2.394617018302132"><ele>9.0</ele><time>2026-03-28T15:34:37.999Z</time></trkpt><trkpt lat="51.04774344059372" lon="2.3947084859240593"><ele>9.0</ele><time>2026-03-28T15:34:40.999Z</time></trkpt><trkpt lat="51.04781784156526" lon="2.394725543111848"><ele>9.0</ele><time>2026-03-28T15:34:44.999Z</time></trkpt><trkpt lat="51.04789525772848" lon="2.394746013394373"><ele>9.0</ele><time>2026-03-28T15:34:47.999Z</time></trkpt><trkpt lat="51.047941920354084" lon="2.394822121531399"><ele>9.000000000000002</ele><time>2026-03-28T15:34:50.999Z</time></trkpt><trkpt lat="51.04792029402107" lon="2.3949350921494306"><ele>9.0</ele><time>2026-03-28T15:34:55.999Z</time></trkpt><trkpt lat="51.04798745743127" lon="2.3949012565339762"><ele>9.0</ele><time>2026-03-28T15:34:59.999Z</time></trkpt><trkpt lat="51.04805132453137" lon="2.3948558512932037"><ele>9.0</ele><time>2026-03-28T15:35:04.999Z</time></trkpt><trkpt lat="51.04812638256865" lon="2.3947996267659497"><ele>9.0</ele><time>2026-03-28T15:35:08.999Z</time></trkpt><trkpt lat="51.04819954173942" lon="2.394748626005865"><ele>9.0</ele><time>2026-03-28T15:35:12.998Z</time></trkpt><trkpt lat="51.048391532089184" lon="2.3946856287449294"><ele>9.0</ele><time>2026-03-28T15:35:27Z</time></trkpt><trkpt lat="51.04845305106649" lon="2.3946033029849314"><ele>9.142857142857144</ele><time>2026-03-28T15:35:30Z</time></trkpt><trkpt lat="51.04851240362274" lon="2.3946380689896136"><ele>9.285714285714286</ele><time>2026-03-28T15:35:36Z</time></trkpt><trkpt lat="51.048508655299095" lon="2.3947474810269473"><ele>9.428571428571429</ele><time>2026-03-28T15:35:54Z</time></trkpt><trkpt lat="51.048465199469696" lon="2.3948297449267955"><ele>9.571428571428573</ele><time>2026-03-28T15:35:59Z</time></trkpt><trkpt lat="51.04846783799234" lon="2.3949389243445958"><ele>9.714285714285715</ele><time>2026-03-28T15:36:03Z</time></trkpt><trkpt lat="51.04844941383725" lon="2.395048118763148"><ele>9.857142857142858</ele><time>2026-03-28T15:36:08.999Z</time></trkpt><trkpt lat="51.04846913595585" lon="2.395148079234715"><ele>10.0</ele><time>2026-03-28T15:36:12.999Z</time></trkpt><trkpt lat="51.04847968226413" lon="2.395283397173032"><ele>10.0</ele><time>2026-03-28T15:36:17.999Z</time></trkpt><trkpt lat="51.04847799271981" lon="2.395392953688698"><ele>10.0</ele><time>2026-03-28T15:36:21.999Z</time></trkpt><trkpt lat="51.04847083455952" lon="2.3955006846326636"><ele>10.0</ele><time>2026-03-28T15:36:26.999Z</time></trkpt><trkpt lat="51.04847778567222" lon="2.3956035327108953"><ele>10.0</ele><time>2026-03-28T15:36:30.999Z</time></trkpt><trkpt lat="51.04846060467058" lon="2.3957461794286385"><ele>10.0</ele><time>2026-03-28T15:36:34.999Z</time></trkpt><trkpt lat="51.0484485275448" lon="2.3958788092666667"><ele>10.0</ele><time>2026-03-28T15:36:37.999Z</time></trkpt><trkpt lat="51.04844045816475" lon="2.39600325927669"><ele>10.0</ele><time>2026-03-28T15:36:41.999Z</time></trkpt><trkpt lat="51.0484998243317" lon="2.3960673582432523"><ele>10.0</ele><time>2026-03-28T15:36:45.999Z</time></trkpt><trkpt lat="51.04857399002214" lon="2.3960937587565216"><ele>10.0</ele><time>2026-03-28T15:36:49.999Z</time></trkpt><trkpt lat="51.0486597982863" lon="2.3961254263864196"><ele>10.0</ele><time>2026-03-28T15:36:52.999Z</time></trkpt><trkpt lat="51.04881088934103" lon="2.396148202141595"><ele>10.0</ele><time>2026-03-28T15:36:56.999Z</time></trkpt><trkpt lat="51.048898815627176" lon="2.396171533082694"><ele>10.0</ele><time>2026-03-28T15:37:00.999Z</time></trkpt><trkpt lat="51.04898348933867" lon="2.396227933874357"><ele>10.0</ele><time>2026-03-28T15:37:03.999Z</time></trkpt><trkpt lat="51.04904774373671" lon="2.3962565414317756"><ele>10.0</ele><time>2026-03-28T15:37:06.999Z</time></trkpt><trkpt lat="51.049126770062564" lon="2.3962435033646825"><ele>10.0</ele><time>2026-03-28T15:37:10.999Z</time></trkpt><trkpt lat="51.04919621677645" lon="2.396220892759426"><ele>10.0</ele><time>2026-03-28T15:37:13.999Z</time></trkpt><trkpt lat="51.04926118633837" lon="2.396253984369159"><ele>10.0</ele><time>2026-03-28T15:37:16.998Z</time></trkpt><trkpt lat="51.04933468270901" lon="2.3962761344831054"><ele>10.2</ele><time>2026-03-28T15:37:19.998Z</time></trkpt><trkpt lat="51.04941914186037" lon="2.3962876150731365"><ele>10.4</ele><time>2026-03-28T15:37:21.998Z</time></trkpt><trkpt lat="51.04949536396502" lon="2.3963203056693754"><ele>10.600000000000001</ele><time>2026-03-28T15:37:23.998Z</time></trkpt><trkpt lat="51.049668366399764" lon="2.3963680521863826"><ele>10.8</ele><time>2026-03-28T15:37:29Z</time></trkpt><trkpt lat="51.049760847922684" lon="2.396391152774667"><ele>11.0</ele><time>2026-03-28T15:37:32Z</time></trkpt><trkpt lat="51.04982751076647" lon="2.3964046405823956"><ele>11.0</ele><time>2026-03-28T15:37:34Z</time></trkpt><trkpt lat="51.04990959423768" lon="2.3964288326664986"><ele>11.0</ele><time>2026-03-28T15:37:37Z</time></trkpt><trkpt lat="51.04997699085875" lon="2.3965028329745937"><ele>11.0</ele><time>2026-03-28T15:37:39Z</time></trkpt><trkpt lat="51.05004246096041" lon="2.3965700128377536"><ele>11.0</ele><time>2026-03-28T15:37:42Z</time></trkpt><trkpt lat="51.050091633976315" lon="2.3966545231370406"><ele>11.0</ele><time>2026-03-28T15:37:45Z</time></trkpt><trkpt lat="51.05014578056974" lon="2.3967231753932663"><ele>11.0</ele><time>2026-03-28T15:37:49Z</time></trkpt><trkpt lat="51.0502126139621" lon="2.3966637852505306"><ele>11.0</ele><time>2026-03-28T15:37:57Z</time></trkpt><trkpt lat="51.05028824281152" lon="2.396609892661577"><ele>11.0</ele><time>2026-03-28T15:38:02Z</time></trkpt><trkpt lat="51.050376669233785" lon="2.3965937578022585"><ele>11.0</ele><time>2026-03-28T15:38:05Z</time></trkpt><trkpt lat="51.050532420647876" lon="2.396592920714087"><ele>11.0</ele><time>2026-03-28T15:38:12Z</time></trkpt><trkpt lat="51.050605631153665" lon="2.3965361830503262"><ele>11.0</ele><time>2026-03-28T15:38:15.999Z</time></trkpt><trkpt lat="51.05057825710848" lon="2.3964225584320604"><ele>11.0</ele><time>2026-03-28T15:38:18.999Z</time></trkpt><trkpt lat="51.05055290958006" lon="2.3963189733206023"><ele>11.0</ele><time>2026-03-28T15:38:22.999Z</time></trkpt><trkpt lat="51.05060255803244" lon="2.396257015103197"><ele>11.0</ele><time>2026-03-28T15:38:28.999Z</time></trkpt><trkpt lat="51.050584674232574" lon="2.3964129719713783"><ele>11.0</ele><time>2026-03-28T15:38:31.999Z</time></trkpt><trkpt lat="51.05057091609379" lon="2.3965328792961613"><ele>11.0</ele><time>2026-03-28T15:38:34.999Z</time></trkpt><trkpt lat="51.0504987279308" lon="2.396505038973808"><ele>11.0</ele><time>2026-03-28T15:38:37.999Z</time></trkpt><trkpt lat="51.050417845583226" lon="2.396499408508285"><ele>11.0</ele><time>2026-03-28T15:38:40.999Z</time></trkpt><trkpt lat="51.05035037681103" lon="2.396461472845065"><ele>11.0</ele><time>2026-03-28T15:38:43.999Z</time></trkpt><trkpt lat="51.050286032017446" lon="2.3964132194505776"><ele>11.0</ele><time>2026-03-28T15:38:46.999Z</time></trkpt><trkpt lat="51.05022091931433" lon="2.3963961642016387"><ele>11.0</ele><time>2026-03-28T15:38:48.999Z</time></trkpt><trkpt lat="51.050157237144745" lon="2.3964460001797843"><ele>11.0</ele><time>2026-03-28T15:38:51.999Z</time></trkpt><trkpt lat="51.05011771143726" lon="2.3963583100314123"><ele>11.0</ele><time>2026-03-28T15:38:56.999Z</time></trkpt><trkpt lat="51.05010259909498" lon="2.3962404680177607"><ele>11.0</ele><time>2026-03-28T15:39:04.999Z</time></trkpt><trkpt lat="51.050055593545125" lon="2.396106987968101"><ele>11.0</ele><time>2026-03-28T15:39:09.999Z</time></trkpt><trkpt lat="51.05004420787888" lon="2.3960056852028377"><ele>11.0</ele><time>2026-03-28T15:39:12.999Z</time></trkpt><trkpt lat="51.05002116986167" lon="2.395876063099573"><ele>11.0</ele><time>2026-03-28T15:39:15.999Z</time></trkpt><trkpt lat="51.05001764381051" lon="2.3957443044581153"><ele>11.0</ele><time>2026-03-28T15:39:18.999Z</time></trkpt><trkpt lat="51.05005720176923" lon="2.3956293740253036"><ele>11.0</ele><time>2026-03-28T15:39:22.998Z</time></trkpt><trkpt lat="51.050039583254595" lon="2.395482056537725"><ele>11.0</ele><time>2026-03-28T15:39:25.998Z</time></trkpt><trkpt lat="51.050007558091934" lon="2.395385270497077"><ele>11.0</ele><time>2026-03-28T15:39:28.998Z</time></trkpt><trkpt lat="51.050009717532994" lon="2.3952726211224364"><ele>11.0</ele><time>2026-03-28T15:39:34Z</time></trkpt><trkpt lat="51.049997160814975" lon="2.3951603523380993"><ele>11.0</ele><time>2026-03-28T15:39:38Z</time></trkpt><trkpt lat="51.0499662683225" lon="2.3950298515589523"><ele>11.0</ele><time>2026-03-28T15:39:40Z</time></trkpt><trkpt lat="51.04996710536278" lon="2.394893538657083"><ele>11.0</ele><time>2026-03-28T15:39:42Z</time></trkpt><trkpt lat="51.04996242176086" lon="2.3947833075100093"><ele>11.0</ele><time>2026-03-28T15:39:44Z</time></trkpt><trkpt lat="51.04993656217253" lon="2.3946607273268494"><ele>11.0</ele><time>2026-03-28T15:39:47Z</time></trkpt><trkpt lat="51.04992948304928" lon="2.394543347737566"><ele>11.0</ele><time>2026-03-28T15:39:50Z</time></trkpt><trkpt lat="51.04988912323996" lon="2.39442920589648"><ele>11.0</ele><time>2026-03-28T15:39:53Z</time></trkpt><trkpt lat="51.04985948116063" lon="2.394321425206527"><ele>11.0</ele><time>2026-03-28T15:39:55Z</time></trkpt><trkpt lat="51.0498463364316" lon="2.394210692806128"><ele>11.0</ele><time>2026-03-28T15:39:57Z</time></trkpt><trkpt lat="51.04982185447061" lon="2.394111445073809"><ele>11.0</ele><time>2026-03-28T15:39:59Z</time></trkpt><trkpt lat="51.04982056980017" lon="2.394003803605738"><ele>11.0</ele><time>2026-03-28T15:40:03Z</time></trkpt><trkpt lat="51.04979742475817" lon="2.3938645662302585"><ele>10.833333333333332</ele><time>2026-03-28T15:40:05Z</time></trkpt><trkpt lat="51.04978596301608" lon="2.3937611476105887"><ele>10.666666666666666</ele><time>2026-03-28T15:40:07Z</time></trkpt><trkpt lat="51.04974710869005" lon="2.393628215221027"><ele>10.5</ele><time>2026-03-28T15:40:10Z</time></trkpt><trkpt lat="51.04973061583797" lon="2.3934956690935354"><ele>10.333333333333334</ele><time>2026-03-28T15:40:13Z</time></trkpt><trkpt lat="51.04971411690129" lon="2.3933561612720355"><ele>10.166666666666668</ele><time>2026-03-28T15:40:15Z</time></trkpt><trkpt lat="51.04967434138462" lon="2.3932379297322397"><ele>10.0</ele><time>2026-03-28T15:40:17Z</time></trkpt><trkpt lat="51.049621443510354" lon="2.3931433215621634"><ele>10.166666666666668</ele><time>2026-03-28T15:40:19Z</time></trkpt><trkpt lat="51.049603688653114" lon="2.393002471089573"><ele>10.333333333333334</ele><time>2026-03-28T15:40:20.999Z</time></trkpt><trkpt lat="51.049601799265474" lon="2.3928970224414363"><ele>10.5</ele><time>2026-03-28T15:40:22.999Z</time></trkpt><trkpt lat="51.04961526676306" lon="2.3927825581538475"><ele>10.666666666666666</ele><time>2026-03-28T15:40:25.999Z</time></trkpt><trkpt lat="51.04962797376949" lon="2.392646162554597"><ele>10.833333333333332</ele><time>2026-03-28T15:40:28.999Z</time></trkpt><trkpt lat="51.04967805617208" lon="2.3925015382959582"><ele>11.0</ele><time>2026-03-28T15:40:31.999Z</time></trkpt><trkpt lat="51.049742523258125" lon="2.392357066773652"><ele>11.0</ele><time>2026-03-28T15:40:33.999Z</time></trkpt><trkpt lat="51.04967418710129" lon="2.392254117629138"><ele>11.0</ele><time>2026-03-28T15:40:35.999Z</time></trkpt><trkpt lat="51.04961320710948" lon="2.3921703627343636"><ele>11.0</ele><time>2026-03-28T15:40:38.999Z</time></trkpt><trkpt lat="51.049552108671264" lon="2.3920475608688507"><ele>11.0</ele><time>2026-03-28T15:40:42.999Z</time></trkpt><trkpt lat="51.04960543147927" lon="2.391970425065704"><ele>11.0</ele><time>2026-03-28T15:40:43.999Z</time></trkpt><trkpt lat="51.04958549417862" lon="2.3918562467017574"><ele>11.0</ele><time>2026-03-28T15:40:46.999Z</time></trkpt><trkpt lat="51.049527409557115" lon="2.391788098576606"><ele>11.166666666666666</ele><time>2026-03-28T15:40:48.999Z</time></trkpt><trkpt lat="51.049488403303386" lon="2.3917016875804387"><ele>11.333333333333332</ele><time>2026-03-28T15:40:51.999Z</time></trkpt><trkpt lat="51.049437388586476" lon="2.391594682096906"><ele>11.5</ele><time>2026-03-28T15:40:54.999Z</time></trkpt><trkpt lat="51.049417287629794" lon="2.3914913924671737"><ele>11.666666666666666</ele><time>2026-03-28T15:40:56.999Z</time></trkpt><trkpt lat="51.0493757717626" lon="2.3914001980691104"><ele>11.833333333333334</ele><time>2026-03-28T15:40:59.999Z</time></trkpt><trkpt lat="51.049367423183654" lon="2.3912759700570296"><ele>12.0</ele><time>2026-03-28T15:41:04.999Z</time></trkpt><trkpt lat="51.04932382870015" lon="2.3911431605355675"><ele>11.666666666666666</ele><time>2026-03-28T15:41:07.999Z</time></trkpt><trkpt lat="51.04927259556757" lon="2.3910661590238775"><ele>11.333333333333334</ele><time>2026-03-28T15:41:09.999Z</time></trkpt><trkpt lat="51.04924320676674" lon="2.390976363259045"><ele>11.0</ele><time>2026-03-28T15:41:11.999Z</time></trkpt><trkpt lat="51.04917896397474" lon="2.390907541712995"><ele>10.666666666666668</ele><time>2026-03-28T15:41:12.999Z</time></trkpt><trkpt lat="51.04919655564029" lon="2.3907790290351487"><ele>10.333333333333334</ele><time>2026-03-28T15:41:16.999Z</time></trkpt><trkpt lat="51.049183031692195" lon="2.3906478881744895"><ele>10.0</ele><time>2026-03-28T15:41:20.999Z</time></trkpt><trkpt lat="51.049148174856526" lon="2.3905422504295655"><ele>9.857142857142858</ele><time>2026-03-28T15:41:24.999Z</time></trkpt><trkpt lat="51.049081429663545" lon="2.3905306161106687"><ele>9.714285714285715</ele><time>2026-03-28T15:41:28.998Z</time></trkpt><trkpt lat="51.04900592240191" lon="2.390580699758391"><ele>9.571428571428573</ele><time>2026-03-28T15:41:30.998Z</time></trkpt><trkpt lat="51.0489394818822" lon="2.39060017836776"><ele>9.428571428571429</ele><time>2026-03-28T15:41:32.998Z</time></trkpt><trkpt lat="51.048875576350405" lon="2.390638603328932"><ele>9.285714285714286</ele><time>2026-03-28T15:41:35.998Z</time></trkpt><trkpt lat="51.04881225923962" lon="2.390665200852555"><ele>9.142857142857144</ele><time>2026-03-28T15:41:39Z</time></trkpt><trkpt lat="51.048723378959984" lon="2.3906988428668856"><ele>9.0</ele><time>2026-03-28T15:41:43Z</time></trkpt><trkpt lat="51.048653502023484" lon="2.39071540377498"><ele>9.0</ele><time>2026-03-28T15:41:46Z</time></trkpt><trkpt lat="51.04857892461612" lon="2.390748362688019"><ele>9.0</ele><time>2026-03-28T15:41:49Z</time></trkpt><trkpt lat="51.048499107825165" lon="2.390779164477613"><ele>9.0</ele><time>2026-03-28T15:41:53Z</time></trkpt><trkpt lat="51.04843012621157" lon="2.390797498467189"><ele>9.0</ele><time>2026-03-28T15:41:57Z</time></trkpt><trkpt lat="51.048353917002686" lon="2.3908089929548484"><ele>9.0</ele><time>2026-03-28T15:42:00Z</time></trkpt><trkpt lat="51.048276886188646" lon="2.390843823089194"><ele>9.0</ele><time>2026-03-28T15:42:03Z</time></trkpt><trkpt lat="51.0482109220088" lon="2.3908922750295365"><ele>8.857142857142858</ele><time>2026-03-28T15:42:07Z</time></trkpt><trkpt lat="51.04814434986491" lon="2.3909030075467927"><ele>8.714285714285715</ele><time>2026-03-28T15:42:12Z</time></trkpt><trkpt lat="51.04807705430169" lon="2.3909533813081616"><ele>8.571428571428571</ele><time>2026-03-28T15:42:15Z</time></trkpt><trkpt lat="51.047987652636806" lon="2.3909894752689143"><ele>8.428571428571429</ele><time>2026-03-28T15:42:20Z</time></trkpt><trkpt lat="51.047983591391954" lon="2.390884832858025"><ele>8.285714285714285</ele><time>2026-03-28T15:42:24Z</time></trkpt><trkpt lat="51.04796437385243" lon="2.3907658071699114"><ele>8.142857142857142</ele><time>2026-03-28T15:42:34.999Z</time></trkpt><trkpt lat="51.047910232166345" lon="2.3907143779894584"><ele>8.0</ele><time>2026-03-28T15:42:44.999Z</time></trkpt><trkpt lat="51.04791031007099" lon="2.3906015572629467"><ele>7.999999999999999</ele><time>2026-03-28T15:42:48.999Z</time></trkpt><trkpt lat="51.04790106484691" lon="2.390482021671711"><ele>8.0</ele><time>2026-03-28T15:42:51.999Z</time></trkpt><trkpt lat="51.04785790949837" lon="2.390343662257862"><ele>8.0</ele><time>2026-03-28T15:42:55.999Z</time></trkpt><trkpt lat="51.047824710508856" lon="2.390221974356316"><ele>8.0</ele><time>2026-03-28T15:42:58.999Z</time></trkpt><trkpt lat="51.04782344488723" lon="2.3900844502972087"><ele>7.999999999999999</ele><time>2026-03-28T15:43:01.999Z</time></trkpt><trkpt lat="51.047820481818" lon="2.3899822980969057"><ele>8.0</ele><time>2026-03-28T15:43:03.999Z</time></trkpt><trkpt lat="51.04779366073902" lon="2.389881609728568"><ele>7.999999999999999</ele><time>2026-03-28T15:43:06.999Z</time></trkpt><trkpt lat="51.04776469078456" lon="2.3897907569116534"><ele>8.0</ele><time>2026-03-28T15:43:08.999Z</time></trkpt><trkpt lat="51.047744509754715" lon="2.3896904375867427"><ele>8.0</ele><time>2026-03-28T15:43:10.999Z</time></trkpt><trkpt lat="51.047790675582085" lon="2.3896067997417063"><ele>8.0</ele><time>2026-03-28T15:43:13.999Z</time></trkpt><trkpt lat="51.04774769423595" lon="2.389495439267517"><ele>7.999999999999999</ele><time>2026-03-28T15:43:18.999Z</time></trkpt><trkpt lat="51.047713122626725" lon="2.389365947002589"><ele>8.0</ele><time>2026-03-28T15:43:21.999Z</time></trkpt><trkpt lat="51.04766601415655" lon="2.3892561219681374"><ele>8.142857142857142</ele><time>2026-03-28T15:43:24.999Z</time></trkpt><trkpt lat="51.04763979264707" lon="2.3891620684171655"><ele>8.285714285714285</ele><time>2026-03-28T15:43:26.999Z</time></trkpt><trkpt lat="51.04761229569004" lon="2.3890633275626003"><ele>8.428571428571429</ele><time>2026-03-28T15:43:28.999Z</time></trkpt><trkpt lat="51.04756758819627" lon="2.388963673864792"><ele>8.571428571428571</ele><time>2026-03-28T15:43:31.999Z</time></trkpt><trkpt lat="51.047552598895564" lon="2.3888647497325888"><ele>8.714285714285715</ele><time>2026-03-28T15:43:33.998Z</time></trkpt><trkpt lat="51.04752968242328" lon="2.3887701551483014"><ele>8.857142857142858</ele><time>2026-03-28T15:43:35.998Z</time></trkpt><trkpt lat="51.04748939075994" lon="2.3886599362582768"><ele>9.0</ele><time>2026-03-28T15:43:38.998Z</time></trkpt><trkpt lat="51.04748037045888" lon="2.388553895881424"><ele>9.0</ele><time>2026-03-28T15:43:40.998Z</time></trkpt><trkpt lat="51.0474552380831" lon="2.3884432515472747"><ele>9.0</ele><time>2026-03-28T15:43:44Z</time></trkpt><trkpt lat="51.047430720645124" lon="2.3883190425797407"><ele>9.0</ele><time>2026-03-28T15:43:47Z</time></trkpt><trkpt lat="51.04739871140276" lon="2.388211804803479"><ele>9.0</ele><time>2026-03-28T15:43:50Z</time></trkpt><trkpt lat="51.047356123231175" lon="2.3881066030598124"><ele>9.0</ele><time>2026-03-28T15:43:53Z</time></trkpt><trkpt lat="51.04733794463599" lon="2.3880006978138955"><ele>9.0</ele><time>2026-03-28T15:43:55Z</time></trkpt><trkpt lat="51.04730417907122" lon="2.3878924658089486"><ele>9.0</ele><time>2026-03-28T15:43:58Z</time></trkpt><trkpt lat="51.047267975664276" lon="2.3878041990651875"><ele>9.0</ele><time>2026-03-28T15:44:00Z</time></trkpt><trkpt lat="51.047232511675865" lon="2.387694399474766"><ele>9.0</ele><time>2026-03-28T15:44:03Z</time></trkpt><trkpt lat="51.04719504072092" lon="2.3875849721204507"><ele>9.0</ele><time>2026-03-28T15:44:06Z</time></trkpt><trkpt lat="51.047138344526815" lon="2.387502813363374"><ele>9.0</ele><time>2026-03-28T15:44:09Z</time></trkpt><trkpt lat="51.04708948965702" lon="2.387396396912427"><ele>9.0</ele><time>2026-03-28T15:44:19Z</time></trkpt><trkpt lat="51.047015850096145" lon="2.3873401377792276"><ele>9.000000000000002</ele><time>2026-03-28T15:44:22Z</time></trkpt><trkpt lat="51.046985093906066" lon="2.3872316030240426"><ele>9.0</ele><time>2026-03-28T15:44:26Z</time></trkpt><trkpt lat="51.046967030510075" lon="2.387127977975251"><ele>9.0</ele><time>2026-03-28T15:44:29Z</time></trkpt><trkpt lat="51.04696819512785" lon="2.3870156326377887"><ele>9.0</ele><time>2026-03-28T15:44:32.999Z</time></trkpt><trkpt lat="51.04694642848813" lon="2.386903283858324"><ele>9.0</ele><time>2026-03-28T15:44:36.999Z</time></trkpt><trkpt lat="51.04688198515669" lon="2.3868488817243994"><ele>9.000000000000002</ele><time>2026-03-28T15:44:39.999Z</time></trkpt><trkpt lat="51.046824151545174" lon="2.386766113465545"><ele>9.0</ele><time>2026-03-28T15:44:43.999Z</time></trkpt><trkpt lat="51.04674070022636" lon="2.3867380242397536"><ele>9.000000000000002</ele><time>2026-03-28T15:44:46.999Z</time></trkpt><trkpt lat="51.04668512956192" lon="2.386652055312812"><ele>9.0</ele><time>2026-03-28T15:44:50.999Z</time></trkpt><trkpt lat="51.04666907288521" lon="2.3865475079569722"><ele>9.0</ele><time>2026-03-28T15:44:53.999Z</time></trkpt><trkpt lat="51.04665124199065" lon="2.386431459445755"><ele>9.0</ele><time>2026-03-28T15:44:56.999Z</time></trkpt><trkpt lat="51.04662781812407" lon="2.386305243165084"><ele>9.0</ele><time>2026-03-28T15:45:00.999Z</time></trkpt><trkpt lat="51.04658784442197" lon="2.386212744899597"><ele>9.000000000000002</ele><time>2026-03-28T15:45:03.999Z</time></trkpt><trkpt lat="51.04653155250894" lon="2.3861571771333687"><ele>9.0</ele><time>2026-03-28T15:45:05.999Z</time></trkpt><trkpt lat="51.046471338659266" lon="2.3861007836161017"><ele>9.0</ele><time>2026-03-28T15:45:07.999Z</time></trkpt><trkpt lat="51.04641109389963" lon="2.3860246981475983"><ele>9.0</ele><time>2026-03-28T15:45:09.999Z</time></trkpt><trkpt lat="51.046333658219936" lon="2.385929296832913"><ele>9.0</ele><time>2026-03-28T15:45:11.999Z</time></trkpt><trkpt lat="51.0462962945048" lon="2.385844674323324"><ele>9.0</ele><time>2026-03-28T15:45:13.999Z</time></trkpt><trkpt lat="51.046299892698514" lon="2.38572270879288"><ele>9.0</ele><time>2026-03-28T15:45:16.999Z</time></trkpt><trkpt lat="51.04630918126752" lon="2.3855714193285587"><ele>9.0</ele><time>2026-03-28T15:45:19.999Z</time></trkpt><trkpt lat="51.046283257668364" lon="2.3854455308205513"><ele>8.714285714285715</ele><time>2026-03-28T15:45:22.999Z</time></trkpt><trkpt lat="51.046304660438565" lon="2.385350480790161"><ele>8.428571428571429</ele><time>2026-03-28T15:45:25.999Z</time></trkpt><trkpt lat="51.04626796932532" lon="2.3852566240659865"><ele>8.142857142857142</ele><time>2026-03-28T15:45:28.999Z</time></trkpt><trkpt lat="51.04625014545306" lon="2.385135029168143"><ele>7.857142857142858</ele><time>2026-03-28T15:45:32.999Z</time></trkpt><trkpt lat="51.04620363476668" lon="2.38504845300499"><ele>7.571428571428571</ele><time>2026-03-28T15:45:36.999Z</time></trkpt><trkpt lat="51.046130973549424" lon="2.385019351508954"><ele>7.285714285714286</ele><time>2026-03-28T15:45:37.999Z</time></trkpt><trkpt lat="51.04604623422765" lon="2.3850415750024574"><ele>7.0</ele><time>2026-03-28T15:45:38.998Z</time></trkpt><trkpt lat="51.0459751831821" lon="2.3849912385643317"><ele>7.000000000000001</ele><time>2026-03-28T15:45:41.998Z</time></trkpt><trkpt lat="51.046050383022795" lon="2.3849505552076278"><ele>7.0</ele><time>2026-03-28T15:45:44.998Z</time></trkpt><trkpt lat="51.046132442979825" lon="2.38491384621429"><ele>7.0</ele><time>2026-03-28T15:45:47.998Z</time></trkpt><trkpt lat="51.04624069300192" lon="2.384864738839755"><ele>7.0</ele><time>2026-03-28T15:45:52Z</time></trkpt><trkpt lat="51.04630316217972" lon="2.3848166823985077"><ele>7.000000000000001</ele><time>2026-03-28T15:45:54Z</time></trkpt><trkpt lat="51.0463589147249" lon="2.384770117881896"><ele>7.0</ele><time>2026-03-28T15:45:56Z</time></trkpt><trkpt lat="51.04644852226184" lon="2.3847117142080356"><ele>6.833333333333334</ele><time>2026-03-28T15:45:59Z</time></trkpt><trkpt lat="51.046502976158926" lon="2.384624808759076"><ele>6.666666666666667</ele><time>2026-03-28T15:46:02Z</time></trkpt><trkpt lat="51.04661097145926" lon="2.384601926755776"><ele>6.5</ele><time>2026-03-28T15:46:07Z</time></trkpt><trkpt lat="51.0466686642455" lon="2.3845438196565563"><ele>6.333333333333334</ele><time>2026-03-28T15:46:09Z</time></trkpt><trkpt lat="51.046735965449386" lon="2.38448080137385"><ele>6.166666666666667</ele><time>2026-03-28T15:46:12Z</time></trkpt><trkpt lat="51.04679790686086" lon="2.384450815444745"><ele>6.0</ele><time>2026-03-28T15:46:14Z</time></trkpt><trkpt lat="51.0468744122806" lon="2.3844199460755595"><ele>5.833333333333333</ele><time>2026-03-28T15:46:17Z</time></trkpt><trkpt lat="51.04694836564569" lon="2.384340571535461"><ele>5.666666666666667</ele><time>2026-03-28T15:46:21Z</time></trkpt><trkpt lat="51.04704065396914" lon="2.3843360057722602"><ele>5.5</ele><time>2026-03-28T15:46:23Z</time></trkpt><trkpt lat="51.04713933542991" lon="2.384322624773711"><ele>5.333333333333334</ele><time>2026-03-28T15:46:25Z</time></trkpt><trkpt lat="51.047205057321726" lon="2.3842974599870392"><ele>5.166666666666667</ele><time>2026-03-28T15:46:27Z</time></trkpt><trkpt lat="51.04719246179075" lon="2.384199221601906"><ele>5.0</ele><time>2026-03-28T15:46:30Z</time></trkpt><trkpt lat="51.04720034291368" lon="2.384084506515493"><ele>5.0</ele><time>2026-03-28T15:46:32Z</time></trkpt><trkpt lat="51.047207145678506" lon="2.3839291024673286"><ele>5.0</ele><time>2026-03-28T15:46:34Z</time></trkpt><trkpt lat="51.047226410608715" lon="2.3838078391109465"><ele>5.0</ele><time>2026-03-28T15:46:36Z</time></trkpt><trkpt lat="51.04723663113661" lon="2.383679909463917"><ele>5.0</ele><time>2026-03-28T15:46:37.999Z</time></trkpt><trkpt lat="51.04732673589522" lon="2.3835790465268905"><ele>5.0</ele><time>2026-03-28T15:46:42.999Z</time></trkpt><trkpt lat="51.04734333500489" lon="2.383465831276474"><ele>5.0</ele><time>2026-03-28T15:46:44.999Z</time></trkpt><trkpt lat="51.04735497438156" lon="2.3833292960566643"><ele>5.0</ele><time>2026-03-28T15:46:46.999Z</time></trkpt><trkpt lat="51.04754586566961" lon="2.3832696996347758"><ele>5.0</ele><time>2026-03-28T15:47:07.999Z</time></trkpt><trkpt lat="51.04761558479373" lon="2.3832180815193555"><ele>5.0</ele><time>2026-03-28T15:47:18.999Z</time></trkpt><trkpt lat="51.047634900399466" lon="2.383117572627062"><ele>5.0</ele><time>2026-03-28T15:47:21.999Z</time></trkpt><trkpt lat="51.04762992486626" lon="2.382992187229598"><ele>5.0</ele><time>2026-03-28T15:47:25.999Z</time></trkpt><trkpt lat="51.04760843950069" lon="2.3828794906800015"><ele>5.0</ele><time>2026-03-28T15:47:30.999Z</time></trkpt><trkpt lat="51.047562420162926" lon="2.382803508827621"><ele>5.0</ele><time>2026-03-28T15:47:34.999Z</time></trkpt><trkpt lat="51.04761996026308" lon="2.3827187910434375"><ele>5.0</ele><time>2026-03-28T15:47:44.999Z</time></trkpt><trkpt lat="51.0476710597118" lon="2.382643337163491"><ele>5.0</ele><time>2026-03-28T15:47:47.998Z</time></trkpt><trkpt lat="51.04772432972509" lon="2.382548530495949"><ele>5.0</ele><time>2026-03-28T15:47:51.998Z</time></trkpt><trkpt lat="51.04777352959601" lon="2.3824510957039413"><ele>5.0</ele><time>2026-03-28T15:47:56Z</time></trkpt><trkpt lat="51.04781934207834" lon="2.382361460263137"><ele>5.0</ele><time>2026-03-28T15:48:01Z</time></trkpt><trkpt lat="51.047852978838556" lon="2.382269568287012"><ele>5.0</ele><time>2026-03-28T15:48:05Z</time></trkpt><trkpt lat="51.047878199441726" lon="2.382169821455768"><ele>5.0</ele><time>2026-03-28T15:48:09Z</time></trkpt><trkpt lat="51.0478445612132" lon="2.382063098394968"><ele>5.0</ele><time>2026-03-28T15:48:12Z</time></trkpt><trkpt lat="51.04785501006256" lon="2.381961052146679"><ele>5.0</ele><time>2026-03-28T15:48:15Z</time></trkpt><trkpt lat="51.047881227762666" lon="2.381844226597429"><ele>5.0</ele><time>2026-03-28T15:48:18Z</time></trkpt><trkpt lat="51.04792284808582" lon="2.3817404379086184"><ele>5.0</ele><time>2026-03-28T15:48:21Z</time></trkpt><trkpt lat="51.04797275508873" lon="2.3816581816357396"><ele>5.0</ele><time>2026-03-28T15:48:24Z</time></trkpt><trkpt lat="51.04799725887063" lon="2.381541644535955"><ele>5.0</ele><time>2026-03-28T15:48:27Z</time></trkpt><trkpt lat="51.048039903734406" lon="2.381435813269895"><ele>5.0</ele><time>2026-03-28T15:48:30Z</time></trkpt><trkpt lat="51.04808411140307" lon="2.381333911379155"><ele>5.0</ele><time>2026-03-28T15:48:33Z</time></trkpt><trkpt lat="51.04812601127576" lon="2.38124909093628"><ele>5.0</ele><time>2026-03-28T15:48:35Z</time></trkpt><trkpt lat="51.048166868591224" lon="2.381114963847234"><ele>5.0</ele><time>2026-03-28T15:48:38Z</time></trkpt><trkpt lat="51.04821074883571" lon="2.381014574702013"><ele>5.0</ele><time>2026-03-28T15:48:41Z</time></trkpt><trkpt lat="51.04826819293654" lon="2.380933144610713"><ele>5.142857142857142</ele><time>2026-03-28T15:48:43.999Z</time></trkpt><trkpt lat="51.04830565206011" lon="2.3808489655443674"><ele>5.285714285714286</ele><time>2026-03-28T15:48:45.999Z</time></trkpt><trkpt lat="51.048355770466976" lon="2.380743556142279"><ele>5.428571428571429</ele><time>2026-03-28T15:48:48.999Z</time></trkpt><trkpt lat="51.0484117982308" lon="2.380646811704466"><ele>5.571428571428571</ele><time>2026-03-28T15:48:52.999Z</time></trkpt><trkpt lat="51.048457946276535" lon="2.380560846703662"><ele>5.714285714285714</ele><time>2026-03-28T15:48:55.999Z</time></trkpt><trkpt lat="51.0484079533713" lon="2.380484866284516"><ele>5.857142857142857</ele><time>2026-03-28T15:48:57.999Z</time></trkpt><trkpt lat="51.04840271051936" lon="2.3803778497988173"><ele>6.0</ele><time>2026-03-28T15:49:00.999Z</time></trkpt><trkpt lat="51.04838840400793" lon="2.3802747188825295"><ele>6.166666666666667</ele><time>2026-03-28T15:49:03.999Z</time></trkpt><trkpt lat="51.048365188432754" lon="2.3801468215233648"><ele>6.333333333333334</ele><time>2026-03-28T15:49:07.999Z</time></trkpt><trkpt lat="51.048350082648966" lon="2.3800487519417146"><ele>6.5</ele><time>2026-03-28T15:49:10.999Z</time></trkpt><trkpt lat="51.04833162230792" lon="2.3799185052792255"><ele>6.666666666666667</ele><time>2026-03-28T15:49:14.999Z</time></trkpt><trkpt lat="51.04831005963145" lon="2.3797898205412915"><ele>6.833333333333334</ele><time>2026-03-28T15:49:18.999Z</time></trkpt><trkpt lat="51.04829683250779" lon="2.379675943486075"><ele>7.0</ele><time>2026-03-28T15:49:22.999Z</time></trkpt><trkpt lat="51.048279116217294" lon="2.379558218918918"><ele>6.428571428571429</ele><time>2026-03-28T15:49:26.999Z</time></trkpt><trkpt lat="51.048249119454674" lon="2.3794562827365744"><ele>5.857142857142857</ele><time>2026-03-28T15:49:29.999Z</time></trkpt><trkpt lat="51.048231599396" lon="2.3793514040395505"><ele>5.285714285714286</ele><time>2026-03-28T15:49:32.999Z</time></trkpt><trkpt lat="51.04820808358251" lon="2.379228537309981"><ele>4.714285714285714</ele><time>2026-03-28T15:49:36.999Z</time></trkpt><trkpt lat="51.04817719526983" lon="2.379110706217248"><ele>4.142857142857142</ele><time>2026-03-28T15:49:40.999Z</time></trkpt><trkpt lat="51.04816737096881" lon="2.3790044997876767"><ele>3.571428571428571</ele><time>2026-03-28T15:49:43.999Z</time></trkpt><trkpt lat="51.04815204081173" lon="2.378907047237822"><ele>3.0</ele><time>2026-03-28T15:49:46.999Z</time></trkpt><trkpt lat="51.04813689777371" lon="2.378808039871355"><ele>2.9999999999999996</ele><time>2026-03-28T15:49:49.999Z</time></trkpt><trkpt lat="51.048105128396955" lon="2.3786998202805893"><ele>3.0</ele><time>2026-03-28T15:49:52.998Z</time></trkpt><trkpt lat="51.04809962843553" lon="2.3785972695143673"><ele>3.0</ele><time>2026-03-28T15:49:55.998Z</time></trkpt><trkpt lat="51.04807663741735" lon="2.378499596214915"><ele>3.0</ele><time>2026-03-28T15:49:58.998Z</time></trkpt><trkpt lat="51.04805676130554" lon="2.37839350463446"><ele>3.0</ele><time>2026-03-28T15:50:02Z</time></trkpt><trkpt lat="51.048057722807165" lon="2.378275890721065"><ele>2.9999999999999996</ele><time>2026-03-28T15:50:05Z</time></trkpt><trkpt lat="51.04805645134483" lon="2.3781737318830247"><ele>3.0</ele><time>2026-03-28T15:50:09Z</time></trkpt><trkpt lat="51.04804480494451" lon="2.378052079687548"><ele>3.0</ele><time>2026-03-28T15:50:13Z</time></trkpt><trkpt lat="51.047973228697344" lon="2.3780228236499874"><ele>3.0</ele><time>2026-03-28T15:50:17Z</time></trkpt><trkpt lat="51.04792615612197" lon="2.3781156998848854"><ele>3.0</ele><time>2026-03-28T15:50:21Z</time></trkpt><trkpt lat="51.047894379284536" lon="2.3782391230752253"><ele>3.0</ele><time>2026-03-28T15:50:25Z</time></trkpt><trkpt lat="51.047855162161675" lon="2.3783357952607025"><ele>3.0</ele><time>2026-03-28T15:50:28Z</time></trkpt><trkpt lat="51.04781634888005" lon="2.3784258241902463"><ele>3.0</ele><time>2026-03-28T15:50:31Z</time></trkpt><trkpt lat="51.04775568787579" lon="2.3785200520817784"><ele>3.0</ele><time>2026-03-28T15:50:34Z</time></trkpt><trkpt lat="51.04770553457869" lon="2.3786202455326073"><ele>3.0</ele><time>2026-03-28T15:50:37Z</time></trkpt><trkpt lat="51.04765217075333" lon="2.378731320047434"><ele>3.0</ele><time>2026-03-28T15:50:40Z</time></trkpt><trkpt lat="51.04759680057316" lon="2.3788481120404907"><ele>3.0</ele><time>2026-03-28T15:50:43Z</time></trkpt><trkpt lat="51.04754592401117" lon="2.378972294635194"><ele>3.0</ele><time>2026-03-28T15:50:46Z</time></trkpt><trkpt lat="51.047490384328434" lon="2.379091453347362"><ele>3.0</ele><time>2026-03-28T15:50:48Z</time></trkpt><trkpt lat="51.04742952954978" lon="2.3792338081207607"><ele>3.3333333333333335</ele><time>2026-03-28T15:50:50Z</time></trkpt><trkpt lat="51.04739383689388" lon="2.3793991214908976"><ele>3.666666666666667</ele><time>2026-03-28T15:50:51.999Z</time></trkpt><trkpt lat="51.047357226719136" lon="2.379558802598857"><ele>4.0</ele><time>2026-03-28T15:50:53.999Z</time></trkpt><trkpt lat="51.047330616754124" lon="2.3796582271714373"><ele>4.333333333333334</ele><time>2026-03-28T15:50:55.999Z</time></trkpt><trkpt lat="51.0473093892905" lon="2.3797653744286955"><ele>4.666666666666667</ele><time>2026-03-28T15:50:57.999Z</time></trkpt><trkpt lat="51.04731812301652" lon="2.3798975578455224"><ele>5.0</ele><time>2026-03-28T15:51:00.999Z</time></trkpt><trkpt lat="51.04738940747767" lon="2.3799255275025715"><ele>5.0</ele><time>2026-03-28T15:51:03.999Z</time></trkpt><trkpt lat="51.047433903679085" lon="2.380029246254647"><ele>5.0</ele><time>2026-03-28T15:51:06.999Z</time></trkpt><trkpt lat="51.04745789107009" lon="2.380151235524583"><ele>5.0</ele><time>2026-03-28T15:51:09.999Z</time></trkpt><trkpt lat="51.04744061761097" lon="2.38025174834597"><ele>5.0</ele><time>2026-03-28T15:51:11.999Z</time></trkpt><trkpt lat="51.04743959984292" lon="2.380360781073123"><ele>5.0</ele><time>2026-03-28T15:51:13.999Z</time></trkpt><trkpt lat="51.047434167135854" lon="2.3804730938883525"><ele>5.0</ele><time>2026-03-28T15:51:15.999Z</time></trkpt><trkpt lat="51.04742280210755" lon="2.3805948362606975"><ele>5.0</ele><time>2026-03-28T15:51:17.999Z</time></trkpt><trkpt lat="51.04741512287636" lon="2.3807176052488512"><ele>5.0</ele><time>2026-03-28T15:51:19.999Z</time></trkpt><trkpt lat="51.04736089239589" lon="2.3808197354102028"><ele>5.0</ele><time>2026-03-28T15:51:21.999Z</time></trkpt><trkpt lat="51.04730467248001" lon="2.380926689379218"><ele>5.0</ele><time>2026-03-28T15:51:23.999Z</time></trkpt><trkpt lat="51.047253190519434" lon="2.3810465765720146"><ele>5.0</ele><time>2026-03-28T15:51:25.999Z</time></trkpt><trkpt lat="51.04720105742811" lon="2.3811264223855697"><ele>5.0</ele><time>2026-03-28T15:51:27.999Z</time></trkpt><trkpt lat="51.047141170360916" lon="2.381033635693985"><ele>5.0</ele><time>2026-03-28T15:51:33.999Z</time></trkpt><trkpt lat="51.0471273064353" lon="2.380926414694054"><ele>5.0</ele><time>2026-03-28T15:51:36.999Z</time></trkpt><trkpt lat="51.04711148122395" lon="2.380797979104144"><ele>5.0</ele><time>2026-03-28T15:51:39.999Z</time></trkpt><trkpt lat="51.04709977584778" lon="2.380688906766033"><ele>5.0</ele><time>2026-03-28T15:51:42.999Z</time></trkpt><trkpt lat="51.04707420516041" lon="2.380576055623607"><ele>5.0</ele><time>2026-03-28T15:51:45.999Z</time></trkpt><trkpt lat="51.04705826091722" lon="2.3804746964585233"><ele>5.0</ele><time>2026-03-28T15:51:48.999Z</time></trkpt><trkpt lat="51.04703263615376" lon="2.380379346709785"><ele>5.0</ele><time>2026-03-28T15:51:51.999Z</time></trkpt><trkpt lat="51.04700849273326" lon="2.3802717399796034"><ele>5.0</ele><time>2026-03-28T15:51:54.999Z</time></trkpt><trkpt lat="51.046977917185835" lon="2.3801700435390973"><ele>5.0</ele><time>2026-03-28T15:51:57.999Z</time></trkpt><trkpt lat="51.04697980249178" lon="2.3800409893193324"><ele>5.0</ele><time>2026-03-28T15:52:00.998Z</time></trkpt><trkpt lat="51.046949384297235" lon="2.379915616917535"><ele>5.0</ele><time>2026-03-28T15:52:04.998Z</time></trkpt><trkpt lat="51.046921100439945" lon="2.3797917634571113"><ele>5.0</ele><time>2026-03-28T15:52:09Z</time></trkpt><trkpt lat="51.046898436614654" lon="2.3796931903673486"><ele>5.0</ele><time>2026-03-28T15:52:12Z</time></trkpt><trkpt lat="51.046879709313295" lon="2.3795532093266742"><ele>5.0</ele><time>2026-03-28T15:52:15Z</time></trkpt><trkpt lat="51.046864248250316" lon="2.3794278878716817"><ele>5.0</ele><time>2026-03-28T15:52:18Z</time></trkpt><trkpt lat="51.0468336324225" lon="2.379337257726646"><ele>5.0</ele><time>2026-03-28T15:52:20Z</time></trkpt><trkpt lat="51.04681499490784" lon="2.3792347401164666"><ele>5.0</ele><time>2026-03-28T15:52:22Z</time></trkpt><trkpt lat="51.04677170175191" lon="2.3791555933099557"><ele>5.0</ele><time>2026-03-28T15:52:24Z</time></trkpt><trkpt lat="51.046744603371664" lon="2.3790650526805233"><ele>5.0</ele><time>2026-03-28T15:52:26Z</time></trkpt><trkpt lat="51.04673126909702" lon="2.378939495775039"><ele>5.0</ele><time>2026-03-28T15:52:30Z</time></trkpt><trkpt lat="51.04672060344533" lon="2.3788009523109026"><ele>5.0</ele><time>2026-03-28T15:52:33Z</time></trkpt><trkpt lat="51.04668187982284" lon="2.3786748681483316"><ele>5.0</ele><time>2026-03-28T15:52:36Z</time></trkpt><trkpt lat="51.04667342851533" lon="2.378544302714688"><ele>5.0</ele><time>2026-03-28T15:52:39Z</time></trkpt><trkpt lat="51.04664426998226" lon="2.3784127346336694"><ele>5.0</ele><time>2026-03-28T15:52:42Z</time></trkpt><trkpt lat="51.04662699332312" lon="2.3783116915387055"><ele>5.0</ele><time>2026-03-28T15:52:44Z</time></trkpt><trkpt lat="51.04659576769957" lon="2.3781836953419195"><ele>5.0</ele><time>2026-03-28T15:52:47Z</time></trkpt><trkpt lat="51.04657356040846" lon="2.3780596695095846"><ele>5.0</ele><time>2026-03-28T15:52:51Z</time></trkpt><trkpt lat="51.04655641914368" lon="2.377950961201413"><ele>5.0</ele><time>2026-03-28T15:52:53Z</time></trkpt><trkpt lat="51.04653315468678" lon="2.3778450508984283"><ele>5.0</ele><time>2026-03-28T15:52:55Z</time></trkpt><trkpt lat="51.0465378710971" lon="2.3777305749117184"><ele>5.0</ele><time>2026-03-28T15:52:57.999Z</time></trkpt><trkpt lat="51.04655665305641" lon="2.377634796561671"><ele>5.0</ele><time>2026-03-28T15:53:00.999Z</time></trkpt><trkpt lat="51.04655642459982" lon="2.3775196639961655"><ele>5.0</ele><time>2026-03-28T15:53:05.999Z</time></trkpt><trkpt lat="51.04650021143793" lon="2.3774170956808245"><ele>5.0</ele><time>2026-03-28T15:53:08.999Z</time></trkpt><trkpt lat="51.04648119480021" lon="2.3773142377978473"><ele>5.0</ele><time>2026-03-28T15:53:13.999Z</time></trkpt><trkpt lat="51.046425378764305" lon="2.3772418140355693"><ele>5.0</ele><time>2026-03-28T15:53:21.999Z</time></trkpt><trkpt lat="51.04640594377976" lon="2.3771279507279246"><ele>5.0</ele><time>2026-03-28T15:53:23.999Z</time></trkpt><trkpt lat="51.04637820900203" lon="2.3770225779890435"><ele>5.0</ele><time>2026-03-28T15:53:26.999Z</time></trkpt><trkpt lat="51.04635479314311" lon="2.3769143672950497"><ele>5.0</ele><time>2026-03-28T15:53:29.999Z</time></trkpt><trkpt lat="51.04631350348976" lon="2.376796648521194"><ele>5.0</ele><time>2026-03-28T15:53:33.999Z</time></trkpt><trkpt lat="51.04628925810146" lon="2.376686768122601"><ele>5.0</ele><time>2026-03-28T15:53:37.999Z</time></trkpt><trkpt lat="51.04625755699461" lon="2.3765606016885275"><ele>5.0</ele><time>2026-03-28T15:53:41.999Z</time></trkpt><trkpt lat="51.04623083480088" lon="2.3764594025675603"><ele>5.0</ele><time>2026-03-28T15:53:44.999Z</time></trkpt><trkpt lat="51.046193523096804" lon="2.3763562388360695"><ele>5.0</ele><time>2026-03-28T15:53:47.999Z</time></trkpt><trkpt lat="51.0461705825214" lon="2.376236772992946"><ele>5.0</ele><time>2026-03-28T15:53:50.999Z</time></trkpt><trkpt lat="51.04615244740492" lon="2.3761383430816876"><ele>5.0</ele><time>2026-03-28T15:53:53.999Z</time></trkpt><trkpt lat="51.046115985243404" lon="2.376028648481574"><ele>5.0</ele><time>2026-03-28T15:53:56.999Z</time></trkpt><trkpt lat="51.04609683880251" lon="2.3759210530329966"><ele>5.0</ele><time>2026-03-28T15:53:59.999Z</time></trkpt><trkpt lat="51.046085762635606" lon="2.3757928332852134"><ele>4.833333333333334</ele><time>2026-03-28T15:54:03.998Z</time></trkpt><trkpt lat="51.04605239868881" lon="2.375661782598031"><ele>4.666666666666667</ele><time>2026-03-28T15:54:07.998Z</time></trkpt><trkpt lat="51.04602029882632" lon="2.375544582943407"><ele>4.5</ele><time>2026-03-28T15:54:11.998Z</time></trkpt><trkpt lat="51.04600009054213" lon="2.375431465431951"><ele>4.333333333333333</ele><time>2026-03-28T15:54:15Z</time></trkpt><trkpt lat="51.04597893275238" lon="2.3753073112607974"><ele>4.166666666666666</ele><time>2026-03-28T15:54:18Z</time></trkpt><trkpt lat="51.045955124392705" lon="2.3751782533008363"><ele>4.0</ele><time>2026-03-28T15:54:21Z</time></trkpt><trkpt lat="51.045914695945896" lon="2.3750523717311576"><ele>3.833333333333333</ele><time>2026-03-28T15:54:24Z</time></trkpt><trkpt lat="51.04589720183918" lon="2.37493584411518"><ele>3.6666666666666665</ele><time>2026-03-28T15:54:27Z</time></trkpt><trkpt lat="51.045873794304796" lon="2.3748103439424"><ele>3.5</ele><time>2026-03-28T15:54:31Z</time></trkpt><trkpt lat="51.045853300179594" lon="2.3746885420443262"><ele>3.333333333333333</ele><time>2026-03-28T15:54:34Z</time></trkpt><trkpt lat="51.04584807367578" lon="2.374551750450998"><ele>3.1666666666666665</ele><time>2026-03-28T15:54:37Z</time></trkpt><trkpt lat="51.045841251300104" lon="2.374443051266807"><ele>3.0</ele><time>2026-03-28T15:54:40Z</time></trkpt><trkpt lat="51.04579923822786" lon="2.3743143711880244"><ele>2.8571428571428568</ele><time>2026-03-28T15:54:43Z</time></trkpt><trkpt lat="51.04578642420081" lon="2.3741812268734295"><ele>2.7142857142857144</ele><time>2026-03-28T15:54:46Z</time></trkpt><trkpt lat="51.045784404986605" lon="2.3740655762315823"><ele>2.571428571428571</ele><time>2026-03-28T15:54:49Z</time></trkpt><trkpt lat="51.04577298579192" lon="2.373966962086331"><ele>2.4285714285714284</ele><time>2026-03-28T15:54:52Z</time></trkpt><trkpt lat="51.045784122191314" lon="2.37385335003426"><ele>2.2857142857142856</ele><time>2026-03-28T15:54:56Z</time></trkpt><trkpt lat="51.04576457548696" lon="2.373736439034727"><ele>2.142857142857143</ele><time>2026-03-28T15:54:59Z</time></trkpt><trkpt lat="51.04575181956604" lon="2.3736185306145505"><ele>2.0</ele><time>2026-03-28T15:55:01.999Z</time></trkpt><trkpt lat="51.045700756635185" lon="2.3735570146835854"><ele>2.0</ele><time>2026-03-28T15:55:03.999Z</time></trkpt><trkpt lat="51.04564595113657" lon="2.373502526119775"><ele>1.9999999999999998</ele><time>2026-03-28T15:55:06.999Z</time></trkpt><trkpt lat="51.04558342542419" lon="2.373424732914992"><ele>2.0</ele><time>2026-03-28T15:55:09.999Z</time></trkpt><trkpt lat="51.04553976326672" lon="2.3733412293910154"><ele>2.0</ele><time>2026-03-28T15:55:11.999Z</time></trkpt><trkpt lat="51.0455063817165" lon="2.3732498269043507"><ele>1.9999999999999998</ele><time>2026-03-28T15:55:14.999Z</time></trkpt><trkpt lat="51.04544535317929" lon="2.373175026508817"><ele>2.0</ele><time>2026-03-28T15:55:17.999Z</time></trkpt><trkpt lat="51.04539601192492" lon="2.373076229565087"><ele>2.0</ele><time>2026-03-28T15:55:20.999Z</time></trkpt><trkpt lat="51.04531137539109" lon="2.3730125602040926"><ele>1.9999999999999998</ele><time>2026-03-28T15:55:23.999Z</time></trkpt><trkpt lat="51.045241244740694" lon="2.3729453817223365"><ele>2.0</ele><time>2026-03-28T15:55:27.999Z</time></trkpt><trkpt lat="51.04515747757508" lon="2.3729120367827874"><ele>2.0</ele><time>2026-03-28T15:55:31.999Z</time></trkpt><trkpt lat="51.04508471290267" lon="2.3729753828222067"><ele>2.0</ele><time>2026-03-28T15:55:34.999Z</time></trkpt><trkpt lat="51.04503272196371" lon="2.3730549935601997"><ele>1.9999999999999998</ele><time>2026-03-28T15:55:37.999Z</time></trkpt><trkpt lat="51.04496171871102" lon="2.3730855337664596"><ele>2.0</ele><time>2026-03-28T15:55:40.999Z</time></trkpt><trkpt lat="51.04490590046221" lon="2.373168258017863"><ele>1.5714285714285714</ele><time>2026-03-28T15:55:43.999Z</time></trkpt><trkpt lat="51.044861458541455" lon="2.3732440155633596"><ele>1.1428571428571428</ele><time>2026-03-28T15:55:46.999Z</time></trkpt><trkpt lat="51.04481298309224" lon="2.3733336332179276"><ele>0.7142857142857142</ele><time>2026-03-28T15:55:50.999Z</time></trkpt><trkpt lat="51.04474659629348" lon="2.3733917526196993"><ele>0.2857142857142857</ele><time>2026-03-28T15:55:55.999Z</time></trkpt><trkpt lat="51.04468644730855" lon="2.3734495849216413"><ele>-0.1428571428571428</ele><time>2026-03-28T15:56:00.999Z</time></trkpt><trkpt lat="51.0446321910733" lon="2.373506996676374"><ele>-0.5714285714285714</ele><time>2026-03-28T15:56:03.999Z</time></trkpt><trkpt lat="51.04456930481713" lon="2.3735537829391773"><ele>-1.0</ele><time>2026-03-28T15:56:06.999Z</time></trkpt><trkpt lat="51.04452203611885" lon="2.3736203967036764"><ele>-0.9999999999999999</ele><time>2026-03-28T15:56:09.998Z</time></trkpt><trkpt lat="51.04447734775672" lon="2.3737039745615176"><ele>-1.0</ele><time>2026-03-28T15:56:12.998Z</time></trkpt><trkpt lat="51.04443418551503" lon="2.3738138591665083"><ele>-1.0</ele><time>2026-03-28T15:56:15.998Z</time></trkpt><trkpt lat="51.04437357191751" lon="2.373926244162259"><ele>-1.0</ele><time>2026-03-28T15:56:18.998Z</time></trkpt><trkpt lat="51.04431298568383" lon="2.3739959485883255"><ele>-0.9999999999999999</ele><time>2026-03-28T15:56:22Z</time></trkpt><trkpt lat="51.04425811473971" lon="2.3740647685613867"><ele>-1.0</ele><time>2026-03-28T15:56:25Z</time></trkpt><trkpt lat="51.04420598910512" lon="2.3741327571395434"><ele>-0.9999999999999999</ele><time>2026-03-28T15:56:28Z</time></trkpt><trkpt lat="51.04411939471138" lon="2.3741938909263514"><ele>-1.0</ele><time>2026-03-28T15:56:31Z</time></trkpt><trkpt lat="51.04404848563939" lon="2.374272327958417"><ele>-1.0</ele><time>2026-03-28T15:56:34Z</time></trkpt><trkpt lat="51.04399558760706" lon="2.374371262990668"><ele>-1.0</ele><time>2026-03-28T15:56:37Z</time></trkpt><trkpt lat="51.043944006464685" lon="2.3744500738496317"><ele>-0.9999999999999999</ele><time>2026-03-28T15:56:40Z</time></trkpt><trkpt lat="51.04389595284354" lon="2.374516236866475"><ele>-1.0</ele><time>2026-03-28T15:56:43Z</time></trkpt><trkpt lat="51.043820043608164" lon="2.3745816682224623"><ele>-0.8333333333333333</ele><time>2026-03-28T15:56:47Z</time></trkpt><trkpt lat="51.04377193934486" lon="2.374690412818695"><ele>-0.6666666666666666</ele><time>2026-03-28T15:56:51Z</time></trkpt><trkpt lat="51.0437170282935" lon="2.3747795922126684"><ele>-0.5</ele><time>2026-03-28T15:56:54Z</time></trkpt><trkpt lat="51.043645194238486" lon="2.374843079662654"><ele>-0.3333333333333333</ele><time>2026-03-28T15:56:58Z</time></trkpt><trkpt lat="51.04360845723118" lon="2.3749286287976603"><ele>-0.16666666666666666</ele><time>2026-03-28T15:57:01Z</time></trkpt><trkpt lat="51.04356495111135" lon="2.37501458844479"><ele>0.0</ele><time>2026-03-28T15:57:04Z</time></trkpt><trkpt lat="51.04348633985902" lon="2.375073585602035"><ele>0.0</ele><time>2026-03-28T15:57:07Z</time></trkpt><trkpt lat="51.04343612445357" lon="2.3751458084640085"><ele>0.0</ele><time>2026-03-28T15:57:09.999Z</time></trkpt><trkpt lat="51.04337866422588" lon="2.3751898841726464"><ele>0.0</ele><time>2026-03-28T15:57:12.999Z</time></trkpt><trkpt lat="51.04331382236467" lon="2.3752676559744996"><ele>0.0</ele><time>2026-03-28T15:57:16.999Z</time></trkpt><trkpt lat="51.043259998271346" lon="2.375358603979918"><ele>0.0</ele><time>2026-03-28T15:57:20.999Z</time></trkpt><trkpt lat="51.043200134405296" lon="2.3754376953454464"><ele>0.0</ele><time>2026-03-28T15:57:24.999Z</time></trkpt><trkpt lat="51.0431359991787" lon="2.3755356060172566"><ele>-0.3333333333333333</ele><time>2026-03-28T15:57:27.999Z</time></trkpt><trkpt lat="51.043066100989186" lon="2.3755904736898024"><ele>-0.6666666666666666</ele><time>2026-03-28T15:57:30.999Z</time></trkpt><trkpt lat="51.04300658701731" lon="2.375669820286204"><ele>-1.0</ele><time>2026-03-28T15:57:33.999Z</time></trkpt><trkpt lat="51.042925383846615" lon="2.3757422564731594"><ele>-1.3333333333333333</ele><time>2026-03-28T15:57:36.999Z</time></trkpt><trkpt lat="51.042874771423016" lon="2.375814620840423"><ele>-1.6666666666666665</ele><time>2026-03-28T15:57:38.999Z</time></trkpt><trkpt lat="51.04281339228133" lon="2.3759088200582235"><ele>-2.0</ele><time>2026-03-28T15:57:41.999Z</time></trkpt><trkpt lat="51.04275364585256" lon="2.3760197195205324"><ele>-2.0</ele><time>2026-03-28T15:57:44.999Z</time></trkpt><trkpt lat="51.04269574224324" lon="2.3760894119214786"><ele>-1.9999999999999998</ele><time>2026-03-28T15:57:47.999Z</time></trkpt><trkpt lat="51.04264034815494" lon="2.376144093425186"><ele>-2.0</ele><time>2026-03-28T15:57:50.999Z</time></trkpt><trkpt lat="51.042589702530854" lon="2.376213640307068"><ele>-2.0</ele><time>2026-03-28T15:57:54.999Z</time></trkpt><trkpt lat="51.04253886202604" lon="2.376275937487471"><ele>-1.9999999999999998</ele><time>2026-03-28T15:57:59.999Z</time></trkpt><trkpt lat="51.042463045400446" lon="2.376275138577661"><ele>-2.0</ele><time>2026-03-28T15:59:00Z</time></trkpt><trkpt lat="51.04241570146655" lon="2.3763547765845683"><ele>-2.0</ele><time>2026-03-28T15:59:07Z</time></trkpt><trkpt lat="51.04235985118995" lon="2.376435081095622"><ele>-1.1666666666666665</ele><time>2026-03-28T15:59:10Z</time></trkpt><trkpt lat="51.04230441917102" lon="2.3765310920024363"><ele>-0.33333333333333326</ele><time>2026-03-28T15:59:13Z</time></trkpt><trkpt lat="51.04225953864329" lon="2.376618806375678"><ele>0.5</ele><time>2026-03-28T15:59:15Z</time></trkpt><trkpt lat="51.04220477457083" lon="2.376707675398065"><ele>1.3333333333333335</ele><time>2026-03-28T15:59:16.999Z</time></trkpt><trkpt lat="51.04214049584444" lon="2.3768002588911465"><ele>2.1666666666666665</ele><time>2026-03-28T15:59:18.999Z</time></trkpt><trkpt lat="51.04208413774761" lon="2.3768829978278863"><ele>3.0</ele><time>2026-03-28T15:59:20.999Z</time></trkpt><trkpt lat="51.042027747894025" lon="2.3769632904372187"><ele>2.9999999999999996</ele><time>2026-03-28T15:59:22.999Z</time></trkpt><trkpt lat="51.0419815184073" lon="2.3770453165035144"><ele>3.0</ele><time>2026-03-28T15:59:24.999Z</time></trkpt><trkpt lat="51.041930834456736" lon="2.3771242958828034"><ele>3.0</ele><time>2026-03-28T15:59:26.999Z</time></trkpt><trkpt lat="51.04188243793164" lon="2.3771954326353097"><ele>3.0</ele><time>2026-03-28T15:59:28.999Z</time></trkpt><trkpt lat="51.04181291811038" lon="2.3772828613596966"><ele>3.0</ele><time>2026-03-28T15:59:31.999Z</time></trkpt><trkpt lat="51.04177256769771" lon="2.3773743417078146"><ele>2.9999999999999996</ele><time>2026-03-28T15:59:34.999Z</time></trkpt><trkpt lat="51.04181182590794" lon="2.377478258101888"><ele>3.0</ele><time>2026-03-28T15:59:37.999Z</time></trkpt><trkpt lat="51.041879237145714" lon="2.377546028690118"><ele>3.1666666666666665</ele><time>2026-03-28T15:59:40.999Z</time></trkpt><trkpt lat="51.04195361463312" lon="2.3776385120679135"><ele>3.333333333333333</ele><time>2026-03-28T15:59:43.999Z</time></trkpt><trkpt lat="51.04198415501576" lon="2.3777447225376975"><ele>3.5</ele><time>2026-03-28T15:59:46.999Z</time></trkpt><trkpt lat="51.042028451164455" lon="2.3778253604898594"><ele>3.6666666666666665</ele><time>2026-03-28T15:59:49.999Z</time></trkpt><trkpt lat="51.042059683052344" lon="2.377963654363228"><ele>3.833333333333333</ele><time>2026-03-28T15:59:52.999Z</time></trkpt><trkpt lat="51.04207184873415" lon="2.378084887087813"><ele>4.0</ele><time>2026-03-28T15:59:58.999Z</time></trkpt><trkpt lat="51.0421089130402" lon="2.3781958120728537"><ele>4.142857142857142</ele><time>2026-03-28T16:00:01.999Z</time></trkpt><trkpt lat="51.04215890792623" lon="2.378263647871401"><ele>4.285714285714286</ele><time>2026-03-28T16:00:04.999Z</time></trkpt><trkpt lat="51.042231069050395" lon="2.3783054198928073"><ele>4.428571428571429</ele><time>2026-03-28T16:00:07.999Z</time></trkpt><trkpt lat="51.04226130526744" lon="2.37841831133171"><ele>4.571428571428571</ele><time>2026-03-28T16:00:10.999Z</time></trkpt><trkpt lat="51.04227443703442" lon="2.378525729906982"><ele>4.714285714285714</ele><time>2026-03-28T16:00:14.999Z</time></trkpt><trkpt lat="51.04220040023122" lon="2.378573633453087"><ele>4.857142857142857</ele><time>2026-03-28T16:00:18.999Z</time></trkpt><trkpt lat="51.04214063604847" lon="2.378608177483483"><ele>5.0</ele><time>2026-03-28T16:00:22.998Z</time></trkpt><trkpt lat="51.04201792190098" lon="2.3785273903279416"><ele>5.0</ele><time>2026-03-28T16:00:28.998Z</time></trkpt><trkpt lat="51.0419518279109" lon="2.3784443494839156"><ele>5.0</ele><time>2026-03-28T16:00:29.998Z</time></trkpt><trkpt lat="51.04188155544568" lon="2.378354095154289"><ele>5.0</ele><time>2026-03-28T16:00:32Z</time></trkpt><trkpt lat="51.04181356330644" lon="2.378301913213753"><ele>5.0</ele><time>2026-03-28T16:00:34Z</time></trkpt><trkpt lat="51.04194851131307" lon="2.3783511109672286"><ele>5.0</ele><time>2026-03-28T16:01:10Z</time></trkpt><trkpt lat="51.041863494318314" lon="2.378724856503886"><ele>5.333333333333334</ele><time>2026-03-28T16:01:11Z</time></trkpt><trkpt lat="51.04196330876448" lon="2.378933938219219"><ele>5.666666666666667</ele><time>2026-03-28T16:01:22.999Z</time></trkpt><trkpt lat="51.042024669895014" lon="2.3789585412156047"><ele>6.0</ele><time>2026-03-28T16:01:23.999Z</time></trkpt><trkpt lat="51.04204755584998" lon="2.3790702727938857"><ele>6.333333333333334</ele><time>2026-03-28T16:01:24.999Z</time></trkpt><trkpt lat="51.04209772166699" lon="2.379133045401631"><ele>6.666666666666667</ele><time>2026-03-28T16:02:30.998Z</time></trkpt><trkpt lat="51.042116738929664" lon="2.379244523814222"><ele>7.0</ele><time>2026-03-28T16:02:33.998Z</time></trkpt><trkpt lat="51.042141117679144" lon="2.3793402824843026"><ele>7.000000000000001</ele><time>2026-03-28T16:02:43Z</time></trkpt><trkpt lat="51.04206754031149" lon="2.3792456161943205"><ele>7.0</ele><time>2026-03-28T16:03:35.999Z</time></trkpt><trkpt lat="51.042098944751295" lon="2.379137477246941"><ele>7.0</ele><time>2026-03-28T16:03:41.999Z</time></trkpt><trkpt lat="51.042093438580316" lon="2.3790198394638984"><ele>7.0</ele><time>2026-03-28T16:03:43.999Z</time></trkpt><trkpt lat="51.04211771048338" lon="2.3789202265295457"><ele>7.000000000000001</ele><time>2026-03-28T16:03:45.999Z</time></trkpt><trkpt lat="51.04210835478242" lon="2.3788193477884167"><ele>7.0</ele><time>2026-03-28T16:03:48.999Z</time></trkpt><trkpt lat="51.04210909364504" lon="2.3786988229539365"><ele>7.0</ele><time>2026-03-28T16:03:51.999Z</time></trkpt><trkpt lat="51.04212064112924" lon="2.3785706797172006"><ele>7.0</ele><time>2026-03-28T16:03:54.999Z</time></trkpt><trkpt lat="51.042111078325085" lon="2.3790592141471607"><ele>7.0</ele><time>2026-03-28T16:03:56.999Z</time></trkpt><trkpt lat="51.042083410755325" lon="2.3789286378352297"><ele>6.5</ele><time>2026-03-28T16:03:58.999Z</time></trkpt><trkpt lat="51.0420328869682" lon="2.378843001951568"><ele>6.0</ele><time>2026-03-28T16:04:00.999Z</time></trkpt><trkpt lat="51.041979608173854" lon="2.3787817731521823"><ele>5.5</ele><time>2026-03-28T16:04:06.017Z</time></trkpt><trkpt lat="51.04195498382508" lon="2.378357077977028"><ele>5.0</ele><time>2026-03-28T16:04:23.742Z</time></trkpt><trkpt lat="51.0420271946759" lon="2.3785913609204163"><ele>5.0</ele><time>2026-03-28T16:04:56.562Z</time></trkpt><trkpt lat="51.042106658984125" lon="2.3787948296048573"><ele>5.0</ele><time>2026-03-28T16:04:57.795Z</time></trkpt><trkpt lat="51.04207730046674" lon="2.3789232500267325"><ele>5.0</ele><time>2026-03-28T16:05:03.803Z</time></trkpt><trkpt lat="51.04202193735694" lon="2.378616220079339"><ele>5.0</ele><time>2026-03-28T16:05:04.537Z</time></trkpt><trkpt lat="51.0419911683241" lon="2.3784438139094193"><ele>5.0</ele><time>2026-03-28T16:05:11.277Z</time></trkpt></trkseg></trk></gpx>